PWSweather.com
Personal Weather Stations
Station Observations
SKYDIVEKS
Skydive Kansas, Osage City, KS 66523

Skydive KansasOsage City, KS 66523

Lat: 38.636, Lon: -95.803

Elevation: 1080

Station Type: La Crosse

http://www.skydivekansas.com

Latest ConditionsUpdated 9:05:00 PM CDT Wednesday, Jul 23, 2014
Currently Today's Max Today's Min Today's Average
Temperature 84.4°F29.1°C 104.9°F40.5°C 77.5°F25.3°C 89.2°F31.8°C
Dew Point 62.6°F17.0°C 70.6°F21.4°C 62.4°F16.9°C 67.5°F19.7°C
Winds Calm Calm 26.4 mph NE42.5 kmh NE - 9.8 mph 15.8 kmh
Wind Gusts 4.3 mph6.9 kmh 29.1 mph46.8 kmh - -
Humidity 48% 67% 31% 51%
Pressure 29.07 in984.4 mb 29.16 in987.5 mb 29.02 in982.7 mb -
Hour Temp Dew Point Humidity Winds Wind Gusts Pressure Precip Precip Rate Daily Precip Total
09:05 PM 84.4°F29.1°C 62.6°F17.0°C 48% Calm Calm 4.3 mph6.9 kmh 29.07 in984.4 mb 0.00 in0.0 mm 0.00 in/hr0.0 mm/hr 0.00 in0.0 mm
09:04 PM 84.6°F29.2°C 62.7°F17.1°C 48% 0.4 mph ENE0.6 kmh ENE 6.0 mph9.7 kmh 29.07 in984.4 mb 0.00 in0.0 mm 0.00 in/hr0.0 mm/hr 0.00 in0.0 mm
09:03 PM 84.7°F29.3°C 62.9°F17.2°C 48% 2.7 mph ENE4.3 kmh ENE 6.0 mph9.7 kmh 29.07 in984.4 mb 0.00 in0.0 mm 0.00 in/hr0.0 mm/hr 0.00 in0.0 mm
09:02 PM 84.7°F29.3°C 62.9°F17.2°C 48% 1.3 mph NE2.1 kmh NE 6.0 mph9.7 kmh 29.07 in984.4 mb 0.00 in0.0 mm 0.00 in/hr0.0 mm/hr 0.00 in0.0 mm
09:01 PM 84.7°F29.3°C 62.9°F17.2°C 48% 0.2 mph NE0.3 kmh NE 6.5 mph10.5 kmh 29.07 in984.4 mb 0.00 in0.0 mm 0.00 in/hr0.0 mm/hr 0.00 in0.0 mm
09:00 PM 84.9°F29.4°C 62.4°F16.9°C 47% Calm Calm 6.5 mph10.5 kmh 29.07 in984.4 mb 0.00 in0.0 mm 0.00 in/hr0.0 mm/hr 0.00 in0.0 mm
08:59 PM 85.1°F29.5°C 62.6°F17.0°C 47% Calm Calm 6.5 mph10.5 kmh 29.07 in984.4 mb 0.00 in0.0 mm 0.00 in/hr0.0 mm/hr 0.00 in0.0 mm
08:58 PM 85.1°F29.5°C 62.6°F17.0°C 47% 2.0 mph NE3.2 kmh NE 8.3 mph13.4 kmh 29.07 in984.4 mb 0.00 in0.0 mm 0.00 in/hr0.0 mm/hr 0.00 in0.0 mm
08:57 PM 85.3°F29.6°C 62.8°F17.1°C 47% 3.4 mph NE5.5 kmh NE 8.3 mph13.4 kmh 29.07 in984.4 mb 0.00 in0.0 mm 0.00 in/hr0.0 mm/hr 0.00 in0.0 mm
08:56 PM 85.3°F29.6°C 62.8°F17.1°C 47% 1.1 mph NE1.8 kmh NE 8.3 mph13.4 kmh 29.07 in984.4 mb 0.00 in0.0 mm 0.00 in/hr0.0 mm/hr 0.00 in0.0 mm
08:55 PM 85.5°F29.7°C 62.9°F17.2°C 47% 5.1 mph NE8.2 kmh NE 8.3 mph13.4 kmh 29.07 in984.4 mb 0.00 in0.0 mm 0.00 in/hr0.0 mm/hr 0.00 in0.0 mm
08:54 PM 85.6°F29.8°C 63.1°F17.3°C 47% 2.0 mph NE3.2 kmh NE 8.3 mph13.4 kmh 29.07 in984.4 mb 0.00 in0.0 mm 0.00 in/hr0.0 mm/hr 0.00 in0.0 mm
08:53 PM 85.6°F29.8°C 63.1°F17.3°C 47% 4.0 mph NE6.4 kmh NE 8.3 mph13.4 kmh 29.07 in984.4 mb 0.00 in0.0 mm 0.00 in/hr0.0 mm/hr 0.00 in0.0 mm
08:52 PM 85.8°F29.9°C 63.2°F17.3°C 47% 5.4 mph NE8.7 kmh NE 8.3 mph13.4 kmh 29.07 in984.4 mb 0.00 in0.0 mm 0.00 in/hr0.0 mm/hr 0.00 in0.0 mm
08:51 PM 85.8°F29.9°C 63.2°F17.3°C 47% 4.7 mph NE7.6 kmh NE 8.3 mph13.4 kmh 29.07 in984.4 mb 0.00 in0.0 mm 0.00 in/hr0.0 mm/hr 0.00 in0.0 mm
08:50 PM 85.8°F29.9°C 62.6°F17.0°C 46% 6.0 mph NE9.7 kmh NE 8.3 mph13.4 kmh 29.07 in984.4 mb 0.00 in0.0 mm 0.00 in/hr0.0 mm/hr 0.00 in0.0 mm
08:49 PM 86.0°F30.0°C 62.8°F17.1°C 46% 6.0 mph NE9.7 kmh NE 8.3 mph13.4 kmh 29.07 in984.4 mb 0.00 in0.0 mm 0.00 in/hr0.0 mm/hr 0.00 in0.0 mm
08:48 PM 86.2°F30.1°C 62.9°F17.2°C 46% 4.5 mph NE7.2 kmh NE 7.4 mph11.9 kmh 29.07 in984.4 mb 0.00 in0.0 mm 0.00 in/hr0.0 mm/hr 0.00 in0.0 mm
08:47 PM 86.2°F30.1°C 62.9°F17.2°C 46% 5.4 mph NE8.7 kmh NE 7.4 mph11.9 kmh 29.07 in984.4 mb 0.00 in0.0 mm 0.00 in/hr0.0 mm/hr 0.00 in0.0 mm
08:46 PM 86.4°F30.2°C 63.1°F17.3°C 46% 4.5 mph NE7.2 kmh NE 7.4 mph11.9 kmh 29.07 in984.4 mb 0.00 in0.0 mm 0.00 in/hr0.0 mm/hr 0.00 in0.0 mm
08:45 PM 86.4°F30.2°C 63.1°F17.3°C 46% 6.5 mph NE10.5 kmh NE 7.4 mph11.9 kmh 29.07 in984.4 mb 0.00 in0.0 mm 0.00 in/hr0.0 mm/hr 0.00 in0.0 mm
08:44 PM 86.5°F30.3°C 63.3°F17.4°C 46% 3.8 mph NE6.1 kmh NE 7.4 mph11.9 kmh 29.07 in984.4 mb 0.00 in0.0 mm 0.00 in/hr0.0 mm/hr 0.00 in0.0 mm
08:43 PM 86.5°F30.3°C 63.3°F17.4°C 46% 5.4 mph NE8.7 kmh NE 8.1 mph13.0 kmh 29.07 in984.4 mb 0.00 in0.0 mm 0.00 in/hr0.0 mm/hr 0.00 in0.0 mm
08:42 PM 86.7°F30.4°C 63.4°F17.4°C 46% 5.8 mph NE9.3 kmh NE 8.1 mph13.0 kmh 29.07 in984.4 mb 0.00 in0.0 mm 0.00 in/hr0.0 mm/hr 0.00 in0.0 mm
08:41 PM 86.7°F30.4°C 63.4°F17.4°C 46% 4.7 mph NE7.6 kmh NE 8.1 mph13.0 kmh 29.07 in984.4 mb 0.00 in0.0 mm 0.00 in/hr0.0 mm/hr 0.00 in0.0 mm
08:40 PM 86.9°F30.5°C 63.6°F17.6°C 46% 6.5 mph NE10.5 kmh NE 9.2 mph14.8 kmh 29.07 in984.4 mb 0.00 in0.0 mm 0.00 in/hr0.0 mm/hr 0.00 in0.0 mm
08:39 PM 87.1°F30.6°C 63.8°F17.7°C 46% 4.3 mph NE6.9 kmh NE 9.2 mph14.8 kmh 29.06 in984.1 mb 0.00 in0.0 mm 0.00 in/hr0.0 mm/hr 0.00 in0.0 mm
08:38 PM 87.1°F30.6°C 63.1°F17.3°C 45% 3.8 mph NE6.1 kmh NE 9.2 mph14.8 kmh 29.06 in984.1 mb 0.00 in0.0 mm 0.00 in/hr0.0 mm/hr 0.00 in0.0 mm
08:37 PM 87.1°F30.6°C 63.1°F17.3°C 45% 3.8 mph NE6.1 kmh NE 9.2 mph14.8 kmh 29.07 in984.4 mb 0.00 in0.0 mm 0.00 in/hr0.0 mm/hr 0.00 in0.0 mm
08:36 PM 87.4°F30.8°C 63.4°F17.4°C 45% 4.9 mph NE7.9 kmh NE 9.2 mph14.8 kmh 29.07 in984.4 mb 0.00 in0.0 mm 0.00 in/hr0.0 mm/hr 0.00 in0.0 mm
08:35 PM 87.4°F30.8°C 63.4°F17.4°C 45% 6.3 mph NE10.1 kmh NE 9.2 mph14.8 kmh 29.07 in984.4 mb 0.00 in0.0 mm 0.00 in/hr0.0 mm/hr 0.00 in0.0 mm
08:34 PM 87.6°F30.9°C 63.6°F17.6°C 45% 6.9 mph NE11.1 kmh NE 10.7 mph17.2 kmh 29.06 in984.1 mb 0.00 in0.0 mm 0.00 in/hr0.0 mm/hr 0.00 in0.0 mm
08:33 PM 87.6°F30.9°C 63.6°F17.6°C 45% 4.9 mph NE7.9 kmh NE 10.7 mph17.2 kmh 29.07 in984.4 mb 0.00 in0.0 mm 0.00 in/hr0.0 mm/hr 0.00 in0.0 mm
08:32 PM 87.6°F30.9°C 63.6°F17.6°C 45% 5.8 mph NE9.3 kmh NE 10.7 mph17.2 kmh 29.07 in984.4 mb 0.00 in0.0 mm 0.00 in/hr0.0 mm/hr 0.00 in0.0 mm
08:31 PM 87.8°F31.0°C 63.8°F17.7°C 45% 6.0 mph NE9.7 kmh NE 10.7 mph17.2 kmh 29.07 in984.4 mb 0.00 in0.0 mm 0.00 in/hr0.0 mm/hr 0.00 in0.0 mm
08:30 PM 88.0°F31.1°C 63.9°F17.7°C 45% 5.8 mph NE9.3 kmh NE 10.7 mph17.2 kmh 29.07 in984.4 mb 0.00 in0.0 mm 0.00 in/hr0.0 mm/hr 0.00 in0.0 mm
08:29 PM 88.0°F31.1°C 63.9°F17.7°C 45% 7.2 mph NE11.6 kmh NE 10.7 mph17.2 kmh 29.07 in984.4 mb 0.00 in0.0 mm 0.00 in/hr0.0 mm/hr 0.00 in0.0 mm
08:28 PM 88.2°F31.2°C 64.1°F17.8°C 45% 6.0 mph NE9.7 kmh NE 10.7 mph17.2 kmh 29.07 in984.4 mb 0.00 in0.0 mm 0.00 in/hr0.0 mm/hr 0.00 in0.0 mm
08:27 PM 88.3°F31.3°C 64.2°F17.9°C 45% 8.1 mph NE13.0 kmh NE 10.7 mph17.2 kmh 29.07 in984.4 mb 0.00 in0.0 mm 0.00 in/hr0.0 mm/hr 0.00 in0.0 mm
08:26 PM 88.3°F31.3°C 64.2°F17.9°C 45% 5.4 mph NE8.7 kmh NE 11.4 mph18.3 kmh 29.07 in984.4 mb 0.00 in0.0 mm 0.00 in/hr0.0 mm/hr 0.00 in0.0 mm
08:25 PM 88.3°F31.3°C 63.6°F17.6°C 44% 5.6 mph NE9.0 kmh NE 11.4 mph18.3 kmh 29.07 in984.4 mb 0.00 in0.0 mm 0.00 in/hr0.0 mm/hr 0.00 in0.0 mm
08:24 PM 88.5°F31.4°C 63.7°F17.6°C 44% 6.3 mph NE10.1 kmh NE 11.4 mph18.3 kmh 29.07 in984.4 mb 0.00 in0.0 mm 0.00 in/hr0.0 mm/hr 0.00 in0.0 mm
08:23 PM 88.5°F31.4°C 63.7°F17.6°C 44% 3.1 mph NE5.0 kmh NE 11.4 mph18.3 kmh 29.07 in984.4 mb 0.00 in0.0 mm 0.00 in/hr0.0 mm/hr 0.00 in0.0 mm
08:22 PM 88.7°F31.5°C 64.5°F18.1°C 45% 6.9 mph NE11.1 kmh NE 11.6 mph18.7 kmh 29.07 in984.4 mb 0.00 in0.0 mm 0.00 in/hr0.0 mm/hr 0.00 in0.0 mm
08:21 PM 88.9°F31.6°C 64.0°F17.8°C 44% 6.3 mph NE10.1 kmh NE 11.6 mph18.7 kmh 29.07 in984.4 mb 0.00 in0.0 mm 0.00 in/hr0.0 mm/hr 0.00 in0.0 mm
08:20 PM 88.9°F31.6°C 64.0°F17.8°C 44% 7.6 mph NE12.2 kmh NE 11.6 mph18.7 kmh 29.07 in984.4 mb 0.00 in0.0 mm 0.00 in/hr0.0 mm/hr 0.00 in0.0 mm
08:19 PM 88.9°F31.6°C 64.0°F17.8°C 44% 6.5 mph NE10.5 kmh NE 11.6 mph18.7 kmh 29.07 in984.4 mb 0.00 in0.0 mm 0.00 in/hr0.0 mm/hr 0.00 in0.0 mm
08:18 PM 89.1°F31.7°C 64.2°F17.9°C 44% 4.5 mph NE7.2 kmh NE 11.6 mph18.7 kmh 29.07 in984.4 mb 0.00 in0.0 mm 0.00 in/hr0.0 mm/hr 0.00 in0.0 mm
08:17 PM 89.2°F31.8°C 64.3°F17.9°C 44% 3.6 mph NE5.8 kmh NE 12.1 mph19.5 kmh 29.07 in984.4 mb 0.00 in0.0 mm 0.00 in/hr0.0 mm/hr 0.00 in0.0 mm
08:16 PM 89.2°F31.8°C 64.3°F17.9°C 44% 6.0 mph NE9.7 kmh NE 12.1 mph19.5 kmh 29.07 in984.4 mb 0.00 in0.0 mm 0.00 in/hr0.0 mm/hr 0.00 in0.0 mm
08:15 PM 89.4°F31.9°C 64.5°F18.1°C 44% 5.4 mph NE8.7 kmh NE 12.1 mph19.5 kmh 29.07 in984.4 mb 0.00 in0.0 mm 0.00 in/hr0.0 mm/hr 0.00 in0.0 mm
08:14 PM 89.4°F31.9°C 64.5°F18.1°C 44% 6.7 mph NE10.8 kmh NE 12.3 mph19.8 kmh 29.07 in984.4 mb 0.00 in0.0 mm 0.00 in/hr0.0 mm/hr 0.00 in0.0 mm
08:13 PM 89.4°F31.9°C 63.8°F17.7°C 43% 4.5 mph NE7.2 kmh NE 12.3 mph19.8 kmh 29.07 in984.4 mb 0.00 in0.0 mm 0.00 in/hr0.0 mm/hr 0.00 in0.0 mm
08:12 PM 89.8°F32.1°C 64.2°F17.9°C 43% 5.4 mph NE8.7 kmh NE 12.3 mph19.8 kmh 29.06 in984.1 mb 0.00 in0.0 mm 0.00 in/hr0.0 mm/hr 0.00 in0.0 mm
08:11 PM 89.8°F32.1°C 64.2°F17.9°C 43% 6.7 mph NE10.8 kmh NE 12.3 mph19.8 kmh 29.06 in984.1 mb 0.00 in0.0 mm 0.00 in/hr0.0 mm/hr 0.00 in0.0 mm
08:10 PM 89.8°F32.1°C 64.2°F17.9°C 43% 6.3 mph NE10.1 kmh NE 12.3 mph19.8 kmh 29.06 in984.1 mb 0.00 in0.0 mm 0.00 in/hr0.0 mm/hr 0.00 in0.0 mm
08:09 PM 90.0°F32.2°C 64.3°F17.9°C 43% 7.2 mph NE11.6 kmh NE 12.3 mph19.8 kmh 29.06 in984.1 mb 0.00 in0.0 mm 0.00 in/hr0.0 mm/hr 0.00 in0.0 mm
08:08 PM 90.1°F32.3°C 64.5°F18.1°C 43% 8.5 mph NE13.7 kmh NE 12.3 mph19.8 kmh 29.06 in984.1 mb 0.00 in0.0 mm 0.00 in/hr0.0 mm/hr 0.00 in0.0 mm
08:07 PM 90.1°F32.3°C 64.5°F18.1°C 43% 8.5 mph NE13.7 kmh NE 14.3 mph23.0 kmh 29.06 in984.1 mb 0.00 in0.0 mm 0.00 in/hr0.0 mm/hr 0.00 in0.0 mm
08:06 PM 90.3°F32.4°C 64.7°F18.2°C 43% 7.4 mph NE11.9 kmh NE 14.3 mph23.0 kmh 29.07 in984.4 mb 0.00 in0.0 mm 0.00 in/hr0.0 mm/hr 0.00 in0.0 mm
08:05 PM 90.3°F32.4°C 64.7°F18.2°C 43% 12.3 mph ENE19.8 kmh ENE 14.3 mph23.0 kmh 29.06 in984.1 mb 0.00 in0.0 mm 0.00 in/hr0.0 mm/hr 0.00 in0.0 mm
08:04 PM 90.3°F32.4°C 64.7°F18.2°C 43% 10.1 mph NE16.3 kmh NE 14.3 mph23.0 kmh 29.06 in984.1 mb 0.00 in0.0 mm 0.00 in/hr0.0 mm/hr 0.00 in0.0 mm
08:03 PM 90.5°F32.5°C 64.8°F18.2°C 43% 6.5 mph NE10.5 kmh NE 14.3 mph23.0 kmh 29.06 in984.1 mb 0.00 in0.0 mm 0.00 in/hr0.0 mm/hr 0.00 in0.0 mm
08:02 PM 90.7°F32.6°C 65.0°F18.3°C 43% 9.8 mph NE15.8 kmh NE 14.3 mph23.0 kmh 29.06 in984.1 mb 0.00 in0.0 mm 0.00 in/hr0.0 mm/hr 0.00 in0.0 mm
08:01 PM 90.7°F32.6°C 64.3°F17.9°C 42% 8.3 mph NE13.4 kmh NE 14.3 mph23.0 kmh 29.06 in984.1 mb 0.00 in0.0 mm 0.00 in/hr0.0 mm/hr 0.00 in0.0 mm
08:00 PM 90.9°F32.7°C 64.5°F18.1°C 42% 7.8 mph NNE12.6 kmh NNE 14.3 mph23.0 kmh 29.06 in984.1 mb 0.00 in0.0 mm 0.00 in/hr0.0 mm/hr 0.00 in0.0 mm
07:59 PM 91.0°F32.8°C 64.7°F18.2°C 42% 6.7 mph W10.8 kmh W 14.3 mph23.0 kmh 29.06 in984.1 mb 0.00 in0.0 mm 0.00 in/hr0.0 mm/hr 0.00 in0.0 mm
07:58 PM 91.0°F32.8°C 64.7°F18.2°C 42% 8.9 mph WSW14.3 kmh WSW 14.3 mph23.0 kmh 29.06 in984.1 mb 0.00 in0.0 mm 0.00 in/hr0.0 mm/hr 0.00 in0.0 mm
07:57 PM 91.0°F32.8°C 64.7°F18.2°C 42% 9.2 mph WSW14.8 kmh WSW 12.5 mph20.1 kmh 29.06 in984.1 mb 0.00 in0.0 mm 0.00 in/hr0.0 mm/hr 0.00 in0.0 mm
07:56 PM 91.2°F32.9°C 64.8°F18.2°C 42% 8.5 mph WSW13.7 kmh WSW 12.5 mph20.1 kmh 29.06 in984.1 mb 0.00 in0.0 mm 0.00 in/hr0.0 mm/hr 0.00 in0.0 mm
07:55 PM 91.2°F32.9°C 64.8°F18.2°C 42% 8.5 mph WSW13.7 kmh WSW 13.9 mph22.4 kmh 29.06 in984.1 mb 0.00 in0.0 mm 0.00 in/hr0.0 mm/hr 0.00 in0.0 mm
07:54 PM 91.4°F33.0°C 65.0°F18.3°C 42% 9.8 mph WSW15.8 kmh WSW 13.9 mph22.4 kmh 29.05 in983.7 mb 0.00 in0.0 mm 0.00 in/hr0.0 mm/hr 0.00 in0.0 mm
07:53 PM 91.4°F33.0°C 65.0°F18.3°C 42% 10.1 mph WSW16.3 kmh WSW 13.9 mph22.4 kmh 29.05 in983.7 mb 0.00 in0.0 mm 0.00 in/hr0.0 mm/hr 0.00 in0.0 mm
07:52 PM 91.6°F33.1°C 65.1°F18.4°C 42% 5.1 mph WSW8.2 kmh WSW 13.9 mph22.4 kmh 29.06 in984.1 mb 0.00 in0.0 mm 0.00 in/hr0.0 mm/hr 0.00 in0.0 mm
07:51 PM 91.6°F33.1°C 65.1°F18.4°C 42% 8.5 mph WSW13.7 kmh WSW 13.9 mph22.4 kmh 29.05 in983.7 mb 0.00 in0.0 mm 0.00 in/hr0.0 mm/hr 0.00 in0.0 mm
07:50 PM 91.8°F33.2°C 65.3°F18.5°C 42% 8.3 mph WSW13.4 kmh WSW 13.9 mph22.4 kmh 29.05 in983.7 mb 0.00 in0.0 mm 0.00 in/hr0.0 mm/hr 0.00 in0.0 mm
07:49 PM 91.8°F33.2°C 65.3°F18.5°C 42% 11.6 mph WSW18.7 kmh WSW 13.9 mph22.4 kmh 29.05 in983.7 mb 0.00 in0.0 mm 0.00 in/hr0.0 mm/hr 0.00 in0.0 mm
07:48 PM 91.9°F33.3°C 65.5°F18.6°C 42% 11.4 mph WSW18.3 kmh WSW 13.9 mph22.4 kmh 29.06 in984.1 mb 0.00 in0.0 mm 0.00 in/hr0.0 mm/hr 0.00 in0.0 mm
07:47 PM 91.9°F33.3°C 64.8°F18.2°C 41% 5.4 mph WSW8.7 kmh WSW 13.9 mph22.4 kmh 29.05 in983.7 mb 0.00 in0.0 mm 0.00 in/hr0.0 mm/hr 0.00 in0.0 mm
07:46 PM 92.1°F33.4°C 65.0°F18.3°C 41% 10.5 mph WSW16.9 kmh WSW 14.1 mph22.7 kmh 29.05 in983.7 mb 0.00 in0.0 mm 0.00 in/hr0.0 mm/hr 0.00 in0.0 mm
07:45 PM 92.1°F33.4°C 65.0°F18.3°C 41% 13.4 mph WSW21.6 kmh WSW 14.1 mph22.7 kmh 29.06 in984.1 mb 0.00 in0.0 mm 0.00 in/hr0.0 mm/hr 0.00 in0.0 mm
07:44 PM 92.1°F33.4°C 65.0°F18.3°C 41% 11.2 mph WSW18.0 kmh WSW 14.1 mph22.7 kmh 29.05 in983.7 mb 0.00 in0.0 mm 0.00 in/hr0.0 mm/hr 0.00 in0.0 mm
07:43 PM 92.3°F33.5°C 65.1°F18.4°C 41% 12.1 mph WSW19.5 kmh WSW 14.1 mph22.7 kmh 29.05 in983.7 mb 0.00 in0.0 mm 0.00 in/hr0.0 mm/hr 0.00 in0.0 mm
07:42 PM 92.5°F33.6°C 65.3°F18.5°C 41% 8.1 mph WSW13.0 kmh WSW 14.1 mph22.7 kmh 29.05 in983.7 mb 0.00 in0.0 mm 0.00 in/hr0.0 mm/hr 0.00 in0.0 mm
07:41 PM 92.5°F33.6°C 65.3°F18.5°C 41% 9.6 mph WSW15.4 kmh WSW 14.1 mph22.7 kmh 29.05 in983.7 mb 0.00 in0.0 mm 0.00 in/hr0.0 mm/hr 0.00 in0.0 mm
07:40 PM 92.5°F33.6°C 65.3°F18.5°C 41% 9.2 mph WSW14.8 kmh WSW 14.8 mph23.8 kmh 29.05 in983.7 mb 0.00 in0.0 mm 0.00 in/hr0.0 mm/hr 0.00 in0.0 mm
07:39 PM 92.7°F33.7°C 65.5°F18.6°C 41% 11.0 mph WSW17.7 kmh WSW 14.8 mph23.8 kmh 29.05 in983.7 mb 0.00 in0.0 mm 0.00 in/hr0.0 mm/hr 0.00 in0.0 mm
07:38 PM 92.8°F33.8°C 65.6°F18.7°C 41% 5.6 mph WSW9.0 kmh WSW 15.2 mph24.5 kmh 29.05 in983.7 mb 0.00 in0.0 mm 0.00 in/hr0.0 mm/hr 0.00 in0.0 mm
07:37 PM 92.8°F33.8°C 65.6°F18.7°C 41% 14.1 mph WSW22.7 kmh WSW 15.2 mph24.5 kmh 29.05 in983.7 mb 0.00 in0.0 mm 0.00 in/hr0.0 mm/hr 0.00 in0.0 mm
07:36 PM 93.0°F33.9°C 65.1°F18.4°C 40% 12.3 mph WSW19.8 kmh WSW 15.7 mph25.3 kmh 29.05 in983.7 mb 0.00 in0.0 mm 0.00 in/hr0.0 mm/hr 0.00 in0.0 mm
07:35 PM 93.0°F33.9°C 65.8°F18.8°C 41% 11.0 mph WSW17.7 kmh WSW 17.2 mph27.7 kmh 29.05 in983.7 mb 0.00 in0.0 mm 0.00 in/hr0.0 mm/hr 0.00 in0.0 mm
07:34 PM 93.0°F33.9°C 65.1°F18.4°C 40% 8.7 mph WSW14.0 kmh WSW 17.2 mph27.7 kmh 29.05 in983.7 mb 0.00 in0.0 mm 0.00 in/hr0.0 mm/hr 0.00 in0.0 mm
07:33 PM 93.0°F33.9°C 65.3°F18.5°C 40% 10.5 mph WSW16.9 kmh WSW 17.2 mph27.7 kmh 29.05 in983.7 mb 0.00 in0.0 mm 0.00 in/hr0.0 mm/hr 0.00 in0.0 mm
07:32 PM 93.4°F34.1°C 65.5°F18.6°C 40% 10.5 mph WSW16.9 kmh WSW 17.2 mph27.7 kmh 29.05 in983.7 mb 0.00 in0.0 mm 0.00 in/hr0.0 mm/hr 0.00 in0.0 mm
07:31 PM 93.4°F34.1°C 65.5°F18.6°C 40% 8.5 mph WSW13.7 kmh WSW 17.2 mph27.7 kmh 29.05 in983.7 mb 0.00 in0.0 mm 0.00 in/hr0.0 mm/hr 0.00 in0.0 mm
07:30 PM 93.6°F34.2°C 65.6°F18.7°C 40% 9.6 mph WSW15.4 kmh WSW 19.0 mph30.6 kmh 29.05 in983.7 mb 0.00 in0.0 mm 0.00 in/hr0.0 mm/hr 0.00 in0.0 mm
07:29 PM 93.6°F34.2°C 65.6°F18.7°C 40% 7.4 mph WSW11.9 kmh WSW 19.0 mph30.6 kmh 29.05 in983.7 mb 0.00 in0.0 mm 0.00 in/hr0.0 mm/hr 0.00 in0.0 mm
07:28 PM 93.7°F34.3°C 65.8°F18.8°C 40% 11.9 mph WSW19.2 kmh WSW 19.0 mph30.6 kmh 29.05 in983.7 mb 0.00 in0.0 mm 0.00 in/hr0.0 mm/hr 0.00 in0.0 mm
07:27 PM 93.7°F34.3°C 65.8°F18.8°C 40% 9.4 mph WSW15.1 kmh WSW 19.0 mph30.6 kmh 29.05 in983.7 mb 0.00 in0.0 mm 0.00 in/hr0.0 mm/hr 0.00 in0.0 mm
07:26 PM 93.9°F34.4°C 65.9°F18.8°C 40% 15.0 mph WSW24.1 kmh WSW 19.0 mph30.6 kmh 29.05 in983.7 mb 0.00 in0.0 mm 0.00 in/hr0.0 mm/hr 0.00 in0.0 mm
07:25 PM 93.9°F34.4°C 65.9°F18.8°C 40% 11.6 mph WSW18.7 kmh WSW 19.0 mph30.6 kmh 29.05 in983.7 mb 0.00 in0.0 mm 0.00 in/hr0.0 mm/hr 0.00 in0.0 mm
07:24 PM 93.9°F34.4°C 65.9°F18.8°C 40% 11.2 mph WSW18.0 kmh WSW 19.0 mph30.6 kmh 29.05 in983.7 mb 0.00 in0.0 mm 0.00 in/hr0.0 mm/hr 0.00 in0.0 mm
07:23 PM 94.1°F34.5°C 66.1°F18.9°C 40% 10.1 mph WSW16.3 kmh WSW 19.0 mph30.6 kmh 29.04 in983.4 mb 0.00 in0.0 mm 0.00 in/hr0.0 mm/hr 0.00 in0.0 mm
07:22 PM 94.3°F34.6°C 66.3°F19.1°C 40% 10.5 mph WSW16.9 kmh WSW 19.0 mph30.6 kmh 29.05 in983.7 mb 0.00 in0.0 mm 0.00 in/hr0.0 mm/hr 0.00 in0.0 mm
07:21 PM 94.3°F34.6°C 66.3°F19.1°C 40% 13.4 mph WSW21.6 kmh WSW 19.0 mph30.6 kmh 29.05 in983.7 mb 0.00 in0.0 mm 0.00 in/hr0.0 mm/hr 0.00 in0.0 mm
07:20 PM 94.3°F34.6°C 65.5°F18.6°C 39% 16.1 mph WSW25.9 kmh WSW 18.1 mph29.1 kmh 29.04 in983.4 mb 0.00 in0.0 mm 0.00 in/hr0.0 mm/hr 0.00 in0.0 mm
07:19 PM 94.5°F34.7°C 65.6°F18.7°C 39% 11.4 mph WSW18.3 kmh WSW 18.1 mph29.1 kmh 29.04 in983.4 mb 0.00 in0.0 mm 0.00 in/hr0.0 mm/hr 0.00 in0.0 mm
07:18 PM 94.6°F34.8°C 65.8°F18.8°C 39% 13.2 mph WSW21.2 kmh WSW 18.1 mph29.1 kmh 29.04 in983.4 mb 0.00 in0.0 mm 0.00 in/hr0.0 mm/hr 0.00 in0.0 mm
07:17 PM 94.6°F34.8°C 65.8°F18.8°C 39% 14.3 mph WSW23.0 kmh WSW 18.1 mph29.1 kmh 29.04 in983.4 mb 0.00 in0.0 mm 0.00 in/hr0.0 mm/hr 0.00 in0.0 mm
07:16 PM 94.8°F34.9°C 65.9°F18.8°C 39% 12.8 mph WSW20.6 kmh WSW 18.8 mph30.3 kmh 29.04 in983.4 mb 0.00 in0.0 mm 0.00 in/hr0.0 mm/hr 0.00 in0.0 mm
07:15 PM 94.8°F34.9°C 65.9°F18.8°C 39% 12.3 mph WSW19.8 kmh WSW 18.8 mph30.3 kmh 29.04 in983.4 mb 0.00 in0.0 mm 0.00 in/hr0.0 mm/hr 0.00 in0.0 mm
07:14 PM 94.8°F34.9°C 65.9°F18.8°C 39% 9.4 mph WSW15.1 kmh WSW 18.8 mph30.3 kmh 29.04 in983.4 mb 0.00 in0.0 mm 0.00 in/hr0.0 mm/hr 0.00 in0.0 mm
07:13 PM 95.0°F35.0°C 66.1°F18.9°C 39% 11.6 mph WSW18.7 kmh WSW 18.8 mph30.3 kmh 29.04 in983.4 mb 0.00 in0.0 mm 0.00 in/hr0.0 mm/hr 0.00 in0.0 mm
07:12 PM 95.2°F35.1°C 66.3°F19.1°C 39% 11.6 mph WSW18.7 kmh WSW 18.8 mph30.3 kmh 29.03 in983.1 mb 0.00 in0.0 mm 0.00 in/hr0.0 mm/hr 0.00 in0.0 mm
07:11 PM 95.2°F35.1°C 66.3°F19.1°C 39% 9.6 mph WSW15.4 kmh WSW 18.8 mph30.3 kmh 29.04 in983.4 mb 0.00 in0.0 mm 0.00 in/hr0.0 mm/hr 0.00 in0.0 mm
07:10 PM 95.4°F35.2°C 66.4°F19.1°C 39% 10.1 mph WSW16.3 kmh WSW 18.8 mph30.3 kmh 29.03 in983.1 mb 0.00 in0.0 mm 0.00 in/hr0.0 mm/hr 0.00 in0.0 mm
07:09 PM 95.4°F35.2°C 66.4°F19.1°C 39% 15.9 mph WSW25.6 kmh WSW 18.8 mph30.3 kmh 29.03 in983.1 mb 0.00 in0.0 mm 0.00 in/hr0.0 mm/hr 0.00 in0.0 mm
07:08 PM 95.5°F35.3°C 66.6°F19.2°C 39% 15.4 mph WSW24.8 kmh WSW 18.8 mph30.3 kmh 29.03 in983.1 mb 0.00 in0.0 mm 0.00 in/hr0.0 mm/hr 0.00 in0.0 mm
07:07 PM 95.5°F35.3°C 66.6°F19.2°C 39% 11.9 mph WSW19.2 kmh WSW 18.8 mph30.3 kmh 29.04 in983.4 mb 0.00 in0.0 mm 0.00 in/hr0.0 mm/hr 0.00 in0.0 mm
07:06 PM 95.5°F35.3°C 66.6°F19.2°C 39% 18.3 mph WSW29.5 kmh WSW 18.3 mph29.5 kmh 29.04 in983.4 mb 0.00 in0.0 mm 0.00 in/hr0.0 mm/hr 0.00 in0.0 mm
07:05 PM 95.7°F35.4°C 65.9°F18.8°C 38% 13.2 mph WSW21.2 kmh WSW 17.0 mph27.4 kmh 29.04 in983.4 mb 0.00 in0.0 mm 0.00 in/hr0.0 mm/hr 0.00 in0.0 mm
07:04 PM 95.7°F35.4°C 65.9°F18.8°C 38% 15.7 mph WSW25.3 kmh WSW 17.0 mph27.4 kmh 29.04 in983.4 mb 0.00 in0.0 mm 0.00 in/hr0.0 mm/hr 0.00 in0.0 mm
07:03 PM 95.7°F35.4°C 65.9°F18.8°C 38% 11.9 mph WSW19.2 kmh WSW 17.0 mph27.4 kmh 29.04 in983.4 mb 0.00 in0.0 mm 0.00 in/hr0.0 mm/hr 0.00 in0.0 mm
07:02 PM 95.9°F35.5°C 66.1°F18.9°C 38% 10.5 mph WSW16.9 kmh WSW 17.0 mph27.4 kmh 29.04 in983.4 mb 0.00 in0.0 mm 0.00 in/hr0.0 mm/hr 0.00 in0.0 mm
07:01 PM 96.1°F35.6°C 66.2°F19.0°C 38% 12.3 mph WSW19.8 kmh WSW 17.0 mph27.4 kmh 29.03 in983.1 mb 0.00 in0.0 mm 0.00 in/hr0.0 mm/hr 0.00 in0.0 mm
07:00 PM 96.1°F35.6°C 66.2°F19.0°C 38% 12.8 mph WSW20.6 kmh WSW 17.0 mph27.4 kmh 29.03 in983.1 mb 0.00 in0.0 mm 0.00 in/hr0.0 mm/hr 0.00 in0.0 mm
06:59 PM 96.1°F35.6°C 66.2°F19.0°C 38% 8.9 mph WSW14.3 kmh WSW 15.9 mph25.6 kmh 29.03 in983.1 mb 0.00 in0.0 mm 0.00 in/hr0.0 mm/hr 0.00 in0.0 mm
06:58 PM 96.1°F35.6°C 66.2°F19.0°C 38% 11.2 mph WSW18.0 kmh WSW 16.1 mph25.9 kmh 29.03 in983.1 mb 0.00 in0.0 mm 0.00 in/hr0.0 mm/hr 0.00 in0.0 mm
06:57 PM 96.3°F35.7°C 66.4°F19.1°C 38% 8.3 mph WSW13.4 kmh WSW 16.1 mph25.9 kmh 29.03 in983.1 mb 0.00 in0.0 mm 0.00 in/hr0.0 mm/hr 0.00 in0.0 mm
06:56 PM 96.4°F35.8°C 66.6°F19.2°C 38% 10.3 mph WSW16.6 kmh WSW 16.1 mph25.9 kmh 29.03 in983.1 mb 0.00 in0.0 mm 0.00 in/hr0.0 mm/hr 0.00 in0.0 mm
06:55 PM 96.4°F35.8°C 65.7°F18.7°C 37% 11.4 mph WSW18.3 kmh WSW 16.1 mph25.9 kmh 29.03 in983.1 mb 0.00 in0.0 mm 0.00 in/hr0.0 mm/hr 0.00 in0.0 mm
06:54 PM 96.4°F35.8°C 65.7°F18.7°C 37% 8.1 mph WSW13.0 kmh WSW 16.1 mph25.9 kmh 29.03 in983.1 mb 0.00 in0.0 mm 0.00 in/hr0.0 mm/hr 0.00 in0.0 mm
06:53 PM 96.6°F35.9°C 65.9°F18.8°C 37% 9.4 mph WSW15.1 kmh WSW 16.1 mph25.9 kmh 29.03 in983.1 mb 0.00 in0.0 mm 0.00 in/hr0.0 mm/hr 0.00 in0.0 mm
06:52 PM 96.6°F35.9°C 65.9°F18.8°C 37% 15.2 mph WSW24.5 kmh WSW 16.1 mph25.9 kmh 29.03 in983.1 mb 0.00 in0.0 mm 0.00 in/hr0.0 mm/hr 0.00 in0.0 mm
06:51 PM 96.6°F35.9°C 65.9°F18.8°C 37% 11.2 mph WSW18.0 kmh WSW 16.1 mph25.9 kmh 29.03 in983.1 mb 0.00 in0.0 mm 0.00 in/hr0.0 mm/hr 0.00 in0.0 mm
06:50 PM 96.6°F35.9°C 65.9°F18.8°C 37% 10.1 mph WSW16.3 kmh WSW 16.1 mph25.9 kmh 29.03 in983.1 mb 0.00 in0.0 mm 0.00 in/hr0.0 mm/hr 0.00 in0.0 mm
06:49 PM 96.6°F35.9°C 65.9°F18.8°C 37% 14.1 mph WSW22.7 kmh WSW 16.1 mph25.9 kmh 29.03 in983.1 mb 0.00 in0.0 mm 0.00 in/hr0.0 mm/hr 0.00 in0.0 mm
06:48 PM 96.8°F36.0°C 66.1°F18.9°C 37% 8.9 mph WSW14.3 kmh WSW 16.1 mph25.9 kmh 29.03 in983.1 mb 0.00 in0.0 mm 0.00 in/hr0.0 mm/hr 0.00 in0.0 mm
06:47 PM 97.0°F36.1°C 65.4°F18.6°C 37% 15.0 mph WSW24.1 kmh WSW 16.1 mph25.9 kmh 29.03 in983.1 mb 0.00 in0.0 mm 0.00 in/hr0.0 mm/hr 0.00 in0.0 mm
06:46 PM 97.0°F36.1°C 65.4°F18.6°C 36% 8.3 mph WSW13.4 kmh WSW 16.1 mph25.9 kmh 29.03 in983.1 mb 0.00 in0.0 mm 0.00 in/hr0.0 mm/hr 0.00 in0.0 mm
06:45 PM 97.0°F36.1°C 65.4°F18.6°C 36% 8.5 mph WSW13.7 kmh WSW 16.1 mph25.9 kmh 29.03 in983.1 mb 0.00 in0.0 mm 0.00 in/hr0.0 mm/hr 0.00 in0.0 mm
06:44 PM 97.0°F36.1°C 65.4°F18.6°C 36% 10.7 mph WSW17.2 kmh WSW 16.1 mph25.9 kmh 29.03 in983.1 mb 0.00 in0.0 mm 0.00 in/hr0.0 mm/hr 0.00 in0.0 mm
06:43 PM 97.2°F36.2°C 65.6°F18.7°C 36% 13.2 mph WSW21.2 kmh WSW 15.4 mph24.8 kmh 29.03 in983.1 mb 0.00 in0.0 mm 0.00 in/hr0.0 mm/hr 0.00 in0.0 mm
06:42 PM 97.2°F36.2°C 65.6°F18.7°C 36% 13.2 mph WSW21.2 kmh WSW 15.4 mph24.8 kmh 29.03 in983.1 mb 0.00 in0.0 mm 0.00 in/hr0.0 mm/hr 0.00 in0.0 mm
06:41 PM 97.3°F36.3°C 66.5°F19.2°C 37% 12.3 mph WSW19.8 kmh WSW 15.4 mph24.8 kmh 29.03 in983.1 mb 0.00 in0.0 mm 0.00 in/hr0.0 mm/hr 0.00 in0.0 mm
06:40 PM 97.3°F36.3°C 66.5°F19.2°C 37% 9.2 mph WSW14.8 kmh WSW 15.4 mph24.8 kmh 29.03 in983.1 mb 0.00 in0.0 mm 0.00 in/hr0.0 mm/hr 0.00 in0.0 mm
06:39 PM 97.3°F36.3°C 66.5°F19.2°C 37% 7.6 mph WSW12.2 kmh WSW 15.4 mph24.8 kmh 29.03 in983.1 mb 0.00 in0.0 mm 0.00 in/hr0.0 mm/hr 0.00 in0.0 mm
06:38 PM 97.5°F36.4°C 66.7°F19.3°C 37% 11.9 mph WSW19.2 kmh WSW 15.4 mph24.8 kmh 29.03 in983.1 mb 0.00 in0.0 mm 0.00 in/hr0.0 mm/hr 0.00 in0.0 mm
06:37 PM 97.5°F36.4°C 66.7°F19.3°C 37% 11.2 mph WSW18.0 kmh WSW 14.1 mph22.7 kmh 29.03 in983.1 mb 0.00 in0.0 mm 0.00 in/hr0.0 mm/hr 0.00 in0.0 mm
06:36 PM 97.5°F36.4°C 65.9°F18.8°C 36% 10.1 mph WSW16.3 kmh WSW 14.1 mph22.7 kmh 29.02 in982.7 mb 0.00 in0.0 mm 0.00 in/hr0.0 mm/hr 0.00 in0.0 mm
06:35 PM 97.7°F36.5°C 66.0°F18.9°C 36% 8.1 mph WSW13.0 kmh WSW 14.1 mph22.7 kmh 29.03 in983.1 mb 0.00 in0.0 mm 0.00 in/hr0.0 mm/hr 0.00 in0.0 mm
06:34 PM 97.7°F36.5°C 66.0°F18.9°C 36% 12.5 mph WSW20.1 kmh WSW 19.0 mph30.6 kmh 29.03 in983.1 mb 0.00 in0.0 mm 0.00 in/hr0.0 mm/hr 0.00 in0.0 mm
06:33 PM 97.9°F36.6°C 66.2°F19.0°C 36% 12.1 mph WSW19.5 kmh WSW 19.0 mph30.6 kmh 29.03 in983.1 mb 0.00 in0.0 mm 0.00 in/hr0.0 mm/hr 0.00 in0.0 mm
06:32 PM 97.9°F36.6°C 66.2°F19.0°C 36% 12.3 mph WSW19.8 kmh WSW 19.0 mph30.6 kmh 29.02 in982.7 mb 0.00 in0.0 mm 0.00 in/hr0.0 mm/hr 0.00 in0.0 mm
06:31 PM 97.9°F36.6°C 66.2°F19.0°C 36% 5.6 mph WSW9.0 kmh WSW 20.1 mph32.3 kmh 29.03 in983.1 mb 0.00 in0.0 mm 0.00 in/hr0.0 mm/hr 0.00 in0.0 mm
06:30 PM 98.1°F36.7°C 66.4°F19.1°C 36% 11.9 mph WSW19.2 kmh WSW 21.5 mph34.6 kmh 29.03 in983.1 mb 0.00 in0.0 mm 0.00 in/hr0.0 mm/hr 0.00 in0.0 mm
06:29 PM 98.2°F36.8°C 66.5°F19.2°C 36% 10.1 mph WSW16.3 kmh WSW 21.5 mph34.6 kmh 29.03 in983.1 mb 0.00 in0.0 mm 0.00 in/hr0.0 mm/hr 0.00 in0.0 mm
06:28 PM 98.2°F36.8°C 66.5°F19.2°C 36% 10.1 mph WSW16.3 kmh WSW 21.5 mph34.6 kmh 29.03 in983.1 mb 0.00 in0.0 mm 0.00 in/hr0.0 mm/hr 0.00 in0.0 mm
06:27 PM 98.4°F36.9°C 66.7°F19.3°C 36% 11.0 mph WSW17.7 kmh WSW 21.5 mph34.6 kmh 29.02 in982.7 mb 0.00 in0.0 mm 0.00 in/hr0.0 mm/hr 0.00 in0.0 mm
06:26 PM 98.4°F36.9°C 66.7°F19.3°C 36% 13.0 mph WSW20.9 kmh WSW 21.5 mph34.6 kmh 29.03 in983.1 mb 0.00 in0.0 mm 0.00 in/hr0.0 mm/hr 0.00 in0.0 mm
06:25 PM 98.4°F36.9°C 66.7°F19.3°C 36% 9.8 mph WSW15.8 kmh WSW 21.5 mph34.6 kmh 29.02 in982.7 mb 0.00 in0.0 mm 0.00 in/hr0.0 mm/hr 0.00 in0.0 mm
06:24 PM 98.4°F36.9°C 66.7°F19.3°C 36% 9.2 mph WSW14.8 kmh WSW 21.5 mph34.6 kmh 29.03 in983.1 mb 0.00 in0.0 mm 0.00 in/hr0.0 mm/hr 0.00 in0.0 mm
06:23 PM 98.6°F37.0°C 66.8°F19.3°C 36% 13.4 mph WSW21.6 kmh WSW 21.5 mph34.6 kmh 29.03 in983.1 mb 0.00 in0.0 mm 0.00 in/hr0.0 mm/hr 0.00 in0.0 mm
06:22 PM 98.8°F37.1°C 67.0°F19.4°C 36% 8.5 mph WSW13.7 kmh WSW 21.5 mph34.6 kmh 29.03 in983.1 mb 0.00 in0.0 mm 0.00 in/hr0.0 mm/hr 0.00 in0.0 mm
06:21 PM 98.8°F37.1°C 67.0°F19.4°C 36% 14.5 mph WSW23.3 kmh WSW 21.5 mph34.6 kmh 29.02 in982.7 mb 0.00 in0.0 mm 0.00 in/hr0.0 mm/hr 0.00 in0.0 mm
06:20 PM 98.8°F37.1°C 67.0°F19.4°C 36% 9.2 mph WSW14.8 kmh WSW 17.2 mph27.7 kmh 29.03 in983.1 mb 0.00 in0.0 mm 0.00 in/hr0.0 mm/hr 0.00 in0.0 mm
06:19 PM 99.0°F37.2°C 67.2°F19.6°C 36% 7.2 mph WSW11.6 kmh WSW 20.4 mph32.8 kmh 29.03 in983.1 mb 0.00 in0.0 mm 0.00 in/hr0.0 mm/hr 0.00 in0.0 mm
06:18 PM 99.0°F37.2°C 67.2°F19.6°C 36% 8.3 mph WSW13.4 kmh WSW 21.3 mph34.3 kmh 29.03 in983.1 mb 0.00 in0.0 mm 0.00 in/hr0.0 mm/hr 0.00 in0.0 mm
06:17 PM 99.0°F37.2°C 66.3°F19.1°C 35% 8.7 mph WSW14.0 kmh WSW 21.3 mph34.3 kmh 29.03 in983.1 mb 0.00 in0.0 mm 0.00 in/hr0.0 mm/hr 0.00 in0.0 mm
06:16 PM 99.1°F37.3°C 66.5°F19.2°C 35% 11.9 mph WSW19.2 kmh WSW 21.3 mph34.3 kmh 29.03 in983.1 mb 0.00 in0.0 mm 0.00 in/hr0.0 mm/hr 0.00 in0.0 mm
06:15 PM 99.1°F37.3°C 66.5°F19.2°C 35% 13.9 mph WSW22.4 kmh WSW 21.3 mph34.3 kmh 29.03 in983.1 mb 0.00 in0.0 mm 0.00 in/hr0.0 mm/hr 0.00 in0.0 mm
06:14 PM 99.1°F37.3°C 66.5°F19.2°C 35% 10.1 mph WSW16.3 kmh WSW 21.3 mph34.3 kmh 29.03 in983.1 mb 0.00 in0.0 mm 0.00 in/hr0.0 mm/hr 0.00 in0.0 mm
06:13 PM 99.3°F37.4°C 66.7°F19.3°C 35% 11.9 mph WSW19.2 kmh WSW 21.3 mph34.3 kmh 29.02 in982.7 mb 0.00 in0.0 mm 0.00 in/hr0.0 mm/hr 0.00 in0.0 mm
06:12 PM 99.3°F37.4°C 67.5°F19.7°C 36% 6.7 mph WSW10.8 kmh WSW 21.3 mph34.3 kmh 29.03 in983.1 mb 0.00 in0.0 mm 0.00 in/hr0.0 mm/hr 0.00 in0.0 mm
06:11 PM 99.3°F37.4°C 67.5°F19.7°C 36% 17.2 mph WSW27.7 kmh WSW 21.3 mph34.3 kmh 29.03 in983.1 mb 0.00 in0.0 mm 0.00 in/hr0.0 mm/hr 0.00 in0.0 mm
06:10 PM 99.5°F37.5°C 66.8°F19.3°C 35% 11.0 mph WSW17.7 kmh WSW 21.3 mph34.3 kmh 29.03 in983.1 mb 0.00 in0.0 mm 0.00 in/hr0.0 mm/hr 0.00 in0.0 mm
06:09 PM 99.5°F37.5°C 66.8°F19.3°C 35% 21.3 mph WSW34.3 kmh WSW 21.3 mph34.3 kmh 29.02 in982.7 mb 0.00 in0.0 mm 0.00 in/hr0.0 mm/hr 0.00 in0.0 mm
06:08 PM 99.5°F37.5°C 66.8°F19.3°C 35% 13.9 mph WSW22.4 kmh WSW 18.8 mph30.3 kmh 29.02 in982.7 mb 0.00 in0.0 mm 0.00 in/hr0.0 mm/hr 0.00 in0.0 mm
06:07 PM 99.7°F37.6°C 67.0°F19.4°C 35% 9.4 mph WSW15.1 kmh WSW 18.8 mph30.3 kmh 29.03 in983.1 mb 0.00 in0.0 mm 0.00 in/hr0.0 mm/hr 0.00 in0.0 mm
06:06 PM 99.7°F37.6°C 67.0°F19.4°C 35% 12.3 mph WSW19.8 kmh WSW 18.8 mph30.3 kmh 29.02 in982.7 mb 0.00 in0.0 mm 0.00 in/hr0.0 mm/hr 0.00 in0.0 mm
06:05 PM 99.7°F37.6°C 67.0°F19.4°C 35% 15.0 mph WSW24.1 kmh WSW 18.8 mph30.3 kmh 29.02 in982.7 mb 0.00 in0.0 mm 0.00 in/hr0.0 mm/hr 0.00 in0.0 mm
06:04 PM 99.7°F37.6°C 66.2°F19.0°C 34% 13.2 mph WSW21.2 kmh WSW 18.8 mph30.3 kmh 29.03 in983.1 mb 0.00 in0.0 mm 0.00 in/hr0.0 mm/hr 0.00 in0.0 mm
06:03 PM 99.7°F37.6°C 66.2°F19.0°C 34% 12.3 mph WSW19.8 kmh WSW 18.8 mph30.3 kmh 29.02 in982.7 mb 0.00 in0.0 mm 0.00 in/hr0.0 mm/hr 0.00 in0.0 mm
06:02 PM 99.9°F37.7°C 66.3°F19.1°C 34% 15.7 mph WSW25.3 kmh WSW 21.9 mph35.2 kmh 29.02 in982.7 mb 0.00 in0.0 mm 0.00 in/hr0.0 mm/hr 0.00 in0.0 mm
06:01 PM 100.0°F37.8°C 66.5°F19.2°C 34% 14.3 mph WSW23.0 kmh WSW 21.9 mph35.2 kmh 29.02 in982.7 mb 0.00 in0.0 mm 0.00 in/hr0.0 mm/hr 0.00 in0.0 mm
06:00 PM 100.0°F37.8°C 67.3°F19.6°C 35% 10.5 mph WSW16.9 kmh WSW 21.9 mph35.2 kmh 29.02 in982.7 mb 0.00 in0.0 mm 0.00 in/hr0.0 mm/hr 0.00 in0.0 mm
05:59 PM 100.0°F37.8°C 67.3°F19.6°C 35% 15.2 mph WSW24.5 kmh WSW 21.9 mph35.2 kmh 29.02 in982.7 mb 0.00 in0.0 mm 0.00 in/hr0.0 mm/hr 0.00 in0.0 mm
05:58 PM 100.0°F37.8°C 66.5°F19.2°C 34% 10.1 mph WSW16.3 kmh WSW 21.9 mph35.2 kmh 29.02 in982.7 mb 0.00 in0.0 mm 0.00 in/hr0.0 mm/hr 0.00 in0.0 mm
05:57 PM 100.2°F37.9°C 66.7°F19.3°C 34% 11.4 mph WSW18.3 kmh WSW 21.9 mph35.2 kmh 29.03 in983.1 mb 0.00 in0.0 mm 0.00 in/hr0.0 mm/hr 0.00 in0.0 mm
05:56 PM 100.2°F37.9°C 65.8°F18.8°C 33% 17.0 mph WSW27.4 kmh WSW 21.9 mph35.2 kmh 29.02 in982.7 mb 0.00 in0.0 mm 0.00 in/hr0.0 mm/hr 0.00 in0.0 mm
05:55 PM 100.2°F37.9°C 66.7°F19.3°C 34% 11.9 mph WSW19.2 kmh WSW 21.9 mph35.2 kmh 29.03 in983.1 mb 0.00 in0.0 mm 0.00 in/hr0.0 mm/hr 0.00 in0.0 mm
05:54 PM 100.2°F37.9°C 65.8°F18.8°C 33% 15.4 mph WSW24.8 kmh WSW 21.9 mph35.2 kmh 29.02 in982.7 mb 0.00 in0.0 mm 0.00 in/hr0.0 mm/hr 0.00 in0.0 mm
05:53 PM 100.6°F38.1°C 67.8°F19.9°C 35% 9.4 mph WSW15.1 kmh WSW 21.9 mph35.2 kmh 29.02 in982.7 mb 0.00 in0.0 mm 0.00 in/hr0.0 mm/hr 0.00 in0.0 mm
05:52 PM 100.6°F38.1°C 66.1°F18.9°C 33% 15.7 mph WSW25.3 kmh WSW 21.7 mph34.9 kmh 29.03 in983.1 mb 0.00 in0.0 mm 0.00 in/hr0.0 mm/hr 0.00 in0.0 mm
05:51 PM 100.8°F38.2°C 66.3°F19.1°C 33% 18.1 mph WSW29.1 kmh WSW 21.7 mph34.9 kmh 29.03 in983.1 mb 0.00 in0.0 mm 0.00 in/hr0.0 mm/hr 0.00 in0.0 mm
05:50 PM 100.8°F38.2°C 66.3°F19.1°C 33% 10.3 mph WSW16.6 kmh WSW 21.7 mph34.9 kmh 29.03 in983.1 mb 0.00 in0.0 mm 0.00 in/hr0.0 mm/hr 0.00 in0.0 mm
05:49 PM 100.9°F38.3°C 66.4°F19.1°C 33% 11.0 mph WSW17.7 kmh WSW 21.7 mph34.9 kmh 29.03 in983.1 mb 0.00 in0.0 mm 0.00 in/hr0.0 mm/hr 0.00 in0.0 mm
05:48 PM 100.9°F38.3°C 66.4°F19.1°C 34% 14.1 mph WSW22.7 kmh WSW 21.7 mph34.9 kmh 29.03 in983.1 mb 0.00 in0.0 mm 0.00 in/hr0.0 mm/hr 0.00 in0.0 mm
05:47 PM 100.9°F38.3°C 66.4°F19.1°C 33% 15.4 mph WSW24.8 kmh WSW 21.7 mph34.9 kmh 29.03 in983.1 mb 0.00 in0.0 mm 0.00 in/hr0.0 mm/hr 0.00 in0.0 mm
05:46 PM 101.1°F38.4°C 66.6°F19.2°C 33% 15.4 mph WSW24.8 kmh WSW 21.7 mph34.9 kmh 29.03 in983.1 mb 0.00 in0.0 mm 0.00 in/hr0.0 mm/hr 0.00 in0.0 mm
05:45 PM 101.1°F38.4°C 67.4°F19.7°C 34% 10.1 mph WSW16.3 kmh WSW 20.1 mph32.3 kmh 29.03 in983.1 mb 0.00 in0.0 mm 0.00 in/hr0.0 mm/hr 0.00 in0.0 mm
05:44 PM 101.3°F38.5°C 68.4°F20.2°C 35% 9.6 mph WSW15.4 kmh WSW 20.1 mph32.3 kmh 29.03 in983.1 mb 0.00 in0.0 mm 0.00 in/hr0.0 mm/hr 0.00 in0.0 mm
05:43 PM 101.3°F38.5°C 66.7°F19.3°C 33% 13.0 mph WSW20.9 kmh WSW 20.1 mph32.3 kmh 29.02 in982.7 mb 0.00 in0.0 mm 0.00 in/hr0.0 mm/hr 0.00 in0.0 mm
05:42 PM 101.5°F38.6°C 66.9°F19.4°C 33% 13.9 mph WSW22.4 kmh WSW 20.1 mph32.3 kmh 29.02 in982.7 mb 0.00 in0.0 mm 0.00 in/hr0.0 mm/hr 0.00 in0.0 mm
05:41 PM 101.5°F38.6°C 66.9°F19.4°C 33% 17.0 mph WSW27.4 kmh WSW 19.5 mph31.4 kmh 29.02 in982.7 mb 0.00 in0.0 mm 0.00 in/hr0.0 mm/hr 0.00 in0.0 mm
05:40 PM 101.5°F38.6°C 66.0°F18.9°C 32% 15.2 mph WSW24.5 kmh WSW 19.5 mph31.4 kmh 29.03 in983.1 mb 0.00 in0.0 mm 0.00 in/hr0.0 mm/hr 0.00 in0.0 mm
05:39 PM 101.5°F38.6°C 66.0°F18.9°C 32% 7.8 mph WSW12.6 kmh WSW 19.5 mph31.4 kmh 29.02 in982.7 mb 0.00 in0.0 mm 0.00 in/hr0.0 mm/hr 0.00 in0.0 mm
05:38 PM 101.5°F38.6°C 66.0°F18.9°C 32% 14.3 mph WSW23.0 kmh WSW 19.5 mph31.4 kmh 29.02 in982.7 mb 0.00 in0.0 mm 0.00 in/hr0.0 mm/hr 0.00 in0.0 mm
05:37 PM 101.5°F38.6°C 66.0°F18.9°C 32% 10.5 mph WSW16.9 kmh WSW 19.5 mph31.4 kmh 29.02 in982.7 mb 0.00 in0.0 mm 0.00 in/hr0.0 mm/hr 0.00 in0.0 mm
05:36 PM 101.5°F38.6°C 66.0°F18.9°C 32% 13.6 mph WSW21.9 kmh WSW 19.5 mph31.4 kmh 29.02 in982.7 mb 0.00 in0.0 mm 0.00 in/hr0.0 mm/hr 0.00 in0.0 mm
05:35 PM 101.5°F38.6°C 66.9°F19.4°C 33% 15.2 mph WSW24.5 kmh WSW 19.5 mph31.4 kmh 29.02 in982.7 mb 0.00 in0.0 mm 0.00 in/hr0.0 mm/hr 0.00 in0.0 mm
05:34 PM 101.5°F38.6°C 66.9°F19.4°C 33% 13.0 mph WSW20.9 kmh WSW 19.5 mph31.4 kmh 29.02 in982.7 mb 0.00 in0.0 mm 0.00 in/hr0.0 mm/hr 0.00 in0.0 mm
05:33 PM 101.7°F38.7°C 67.0°F19.4°C 33% 15.4 mph WSW24.8 kmh WSW 19.5 mph31.4 kmh 29.02 in982.7 mb 0.00 in0.0 mm 0.00 in/hr0.0 mm/hr 0.00 in0.0 mm
05:32 PM 101.8°F38.8°C 67.2°F19.6°C 33% 19.5 mph WSW31.4 kmh WSW 19.5 mph31.4 kmh 29.02 in982.7 mb 0.00 in0.0 mm 0.00 in/hr0.0 mm/hr 0.00 in0.0 mm
05:31 PM 101.8°F38.8°C 66.3°F19.1°C 32% 18.1 mph WSW29.1 kmh WSW 18.8 mph30.3 kmh 29.02 in982.7 mb 0.00 in0.0 mm 0.00 in/hr0.0 mm/hr 0.00 in0.0 mm
05:30 PM 101.8°F38.8°C 66.3°F19.1°C 32% 14.5 mph WSW23.3 kmh WSW 18.8 mph30.3 kmh 29.03 in983.1 mb 0.00 in0.0 mm 0.00 in/hr0.0 mm/hr 0.00 in0.0 mm
05:29 PM 101.8°F38.8°C 67.2°F19.6°C 33% 15.9 mph WSW25.6 kmh WSW 18.8 mph30.3 kmh 29.03 in983.1 mb 0.00 in0.0 mm 0.00 in/hr0.0 mm/hr 0.00 in0.0 mm
05:28 PM 101.8°F38.8°C 67.2°F19.6°C 33% 14.5 mph WSW23.3 kmh WSW 18.8 mph30.3 kmh 29.03 in983.1 mb 0.00 in0.0 mm 0.00 in/hr0.0 mm/hr 0.00 in0.0 mm
05:27 PM 102.0°F38.9°C 66.5°F19.2°C 32% 7.2 mph WSW11.6 kmh WSW 19.0 mph30.6 kmh 29.03 in983.1 mb 0.00 in0.0 mm 0.00 in/hr0.0 mm/hr 0.00 in0.0 mm
05:26 PM 102.0°F38.9°C 66.5°F19.2°C 32% 9.4 mph WSW15.1 kmh WSW 19.0 mph30.6 kmh 29.03 in983.1 mb 0.00 in0.0 mm 0.00 in/hr0.0 mm/hr 0.00 in0.0 mm
05:25 PM 102.0°F38.9°C 67.3°F19.6°C 33% 12.3 mph WSW19.8 kmh WSW 19.0 mph30.6 kmh 29.03 in983.1 mb 0.00 in0.0 mm 0.00 in/hr0.0 mm/hr 0.00 in0.0 mm
05:24 PM 102.2°F39.0°C 67.5°F19.7°C 33% 16.3 mph WSW26.2 kmh WSW 19.0 mph30.6 kmh 29.04 in983.4 mb 0.00 in0.0 mm 0.00 in/hr0.0 mm/hr 0.00 in0.0 mm
05:23 PM 102.2°F39.0°C 66.6°F19.2°C 32% 14.5 mph WSW23.3 kmh WSW 19.0 mph30.6 kmh 29.03 in983.1 mb 0.00 in0.0 mm 0.00 in/hr0.0 mm/hr 0.00 in0.0 mm
05:22 PM 102.4°F39.1°C 66.8°F19.3°C 32% 13.9 mph WSW22.4 kmh WSW 19.0 mph30.6 kmh 29.03 in983.1 mb 0.00 in0.0 mm 0.00 in/hr0.0 mm/hr 0.00 in0.0 mm
05:21 PM 102.4°F39.1°C 66.8°F19.3°C 32% 13.0 mph WSW20.9 kmh WSW 21.3 mph34.3 kmh 29.04 in983.4 mb 0.00 in0.0 mm 0.00 in/hr0.0 mm/hr 0.00 in0.0 mm
05:20 PM 102.4°F39.1°C 66.8°F19.3°C 32% 9.2 mph WSW14.8 kmh WSW 21.3 mph34.3 kmh 29.04 in983.4 mb 0.00 in0.0 mm 0.00 in/hr0.0 mm/hr 0.00 in0.0 mm
05:19 PM 102.6°F39.2°C 67.0°F19.4°C 32% 12.3 mph WSW19.8 kmh WSW 21.3 mph34.3 kmh 29.04 in983.4 mb 0.00 in0.0 mm 0.00 in/hr0.0 mm/hr 0.00 in0.0 mm
05:18 PM 102.7°F39.3°C 67.1°F19.5°C 32% 14.3 mph WSW23.0 kmh WSW 21.3 mph34.3 kmh 29.04 in983.4 mb 0.00 in0.0 mm 0.00 in/hr0.0 mm/hr 0.00 in0.0 mm
05:17 PM 102.7°F39.3°C 67.1°F19.5°C 32% 9.4 mph WSW15.1 kmh WSW 21.3 mph34.3 kmh 29.04 in983.4 mb 0.00 in0.0 mm 0.00 in/hr0.0 mm/hr 0.00 in0.0 mm
05:16 PM 102.7°F39.3°C 68.0°F20.0°C 33% 9.8 mph WSW15.8 kmh WSW 21.3 mph34.3 kmh 29.04 in983.4 mb 0.00 in0.0 mm 0.00 in/hr0.0 mm/hr 0.00 in0.0 mm
05:15 PM 102.9°F39.4°C 68.1°F20.1°C 33% 13.4 mph WSW21.6 kmh WSW 21.3 mph34.3 kmh 29.04 in983.4 mb 0.00 in0.0 mm 0.00 in/hr0.0 mm/hr 0.00 in0.0 mm
05:14 PM 102.9°F39.4°C 67.3°F19.6°C 32% 9.6 mph WSW15.4 kmh WSW 21.3 mph34.3 kmh 29.04 in983.4 mb 0.00 in0.0 mm 0.00 in/hr0.0 mm/hr 0.00 in0.0 mm
05:13 PM 102.9°F39.4°C 68.1°F20.1°C 33% 14.8 mph WSW23.8 kmh WSW 21.3 mph34.3 kmh 29.04 in983.4 mb 0.00 in0.0 mm 0.00 in/hr0.0 mm/hr 0.00 in0.0 mm
05:12 PM 103.1°F39.5°C 67.4°F19.7°C 32% 10.7 mph WSW17.2 kmh WSW 21.3 mph34.3 kmh 29.04 in983.4 mb 0.00 in0.0 mm 0.00 in/hr0.0 mm/hr 0.00 in0.0 mm
05:11 PM 103.1°F39.5°C 69.1°F20.6°C 34% 19.9 mph WSW32.0 kmh WSW 19.9 mph32.0 kmh 29.04 in983.4 mb 0.00 in0.0 mm 0.00 in/hr0.0 mm/hr 0.00 in0.0 mm
05:10 PM 103.1°F39.5°C 68.3°F20.2°C 33% 13.9 mph WSW22.4 kmh WSW 17.0 mph27.4 kmh 29.04 in983.4 mb 0.00 in0.0 mm 0.00 in/hr0.0 mm/hr 0.00 in0.0 mm
05:09 PM 103.1°F39.5°C 67.6°F19.8°C 32% 12.3 mph WSW19.8 kmh WSW 17.0 mph27.4 kmh 29.04 in983.4 mb 0.00 in0.0 mm 0.00 in/hr0.0 mm/hr 0.00 in0.0 mm
05:08 PM 103.3°F39.6°C 67.6°F19.8°C 32% 6.3 mph WSW10.1 kmh WSW 17.0 mph27.4 kmh 29.04 in983.4 mb 0.00 in0.0 mm 0.00 in/hr0.0 mm/hr 0.00 in0.0 mm
05:07 PM 103.3°F39.6°C 67.6°F19.8°C 32% 5.4 mph WSW8.7 kmh WSW 17.0 mph27.4 kmh 29.04 in983.4 mb 0.00 in0.0 mm 0.00 in/hr0.0 mm/hr 0.00 in0.0 mm
05:06 PM 103.3°F39.6°C 67.6°F19.8°C 32% 7.4 mph WSW11.9 kmh WSW 17.0 mph27.4 kmh 29.04 in983.4 mb 0.00 in0.0 mm 0.00 in/hr0.0 mm/hr 0.00 in0.0 mm
05:05 PM 103.3°F39.6°C 67.6°F19.8°C 32% 11.2 mph WSW18.0 kmh WSW 18.3 mph29.5 kmh 29.04 in983.4 mb 0.00 in0.0 mm 0.00 in/hr0.0 mm/hr 0.00 in0.0 mm
05:04 PM 103.3°F39.6°C 67.6°F19.8°C 32% 17.0 mph WSW27.4 kmh WSW 18.3 mph29.5 kmh 29.05 in983.7 mb 0.00 in0.0 mm 0.00 in/hr0.0 mm/hr 0.00 in0.0 mm
05:03 PM 103.3°F39.6°C 67.6°F19.8°C 32% 13.0 mph WSW20.9 kmh WSW 18.3 mph29.5 kmh 29.05 in983.7 mb 0.00 in0.0 mm 0.00 in/hr0.0 mm/hr 0.00 in0.0 mm
05:02 PM 103.3°F39.6°C 67.6°F19.8°C 32% 9.2 mph WSW14.8 kmh WSW 18.3 mph29.5 kmh 29.05 in983.7 mb 0.00 in0.0 mm 0.00 in/hr0.0 mm/hr 0.00 in0.0 mm
05:01 PM 103.5°F39.7°C 67.8°F19.9°C 32% 8.3 mph WSW13.4 kmh WSW 18.3 mph29.5 kmh 29.05 in983.7 mb 0.00 in0.0 mm 0.00 in/hr0.0 mm/hr 0.00 in0.0 mm
05:00 PM 103.6°F39.8°C 67.9°F19.9°C 32% 12.1 mph WSW19.5 kmh WSW 18.3 mph29.5 kmh 29.05 in983.7 mb 0.00 in0.0 mm 0.00 in/hr0.0 mm/hr 0.00 in0.0 mm
04:59 PM 103.6°F39.8°C 67.9°F19.9°C 32% 11.9 mph WSW19.2 kmh WSW 18.3 mph29.5 kmh 29.05 in983.7 mb 0.00 in0.0 mm 0.00 in/hr0.0 mm/hr 0.00 in0.0 mm
04:58 PM 103.6°F39.8°C 67.9°F19.9°C 32% 11.0 mph WSW17.7 kmh WSW 18.3 mph29.5 kmh 29.05 in983.7 mb 0.00 in0.0 mm 0.00 in/hr0.0 mm/hr 0.00 in0.0 mm
04:57 PM 103.6°F39.8°C 67.9°F19.9°C 32% 9.2 mph WSW14.8 kmh WSW 18.3 mph29.5 kmh 29.04 in983.4 mb 0.00 in0.0 mm 0.00 in/hr0.0 mm/hr 0.00 in0.0 mm
04:56 PM 103.8°F39.9°C 68.1°F20.1°C 32% 11.4 mph WSW18.3 kmh WSW 18.3 mph29.5 kmh 29.05 in983.7 mb 0.00 in0.0 mm 0.00 in/hr0.0 mm/hr 0.00 in0.0 mm
04:55 PM 103.8°F39.9°C 68.1°F20.1°C 32% 16.3 mph WSW26.2 kmh WSW 16.3 mph26.2 kmh 29.04 in983.4 mb 0.00 in0.0 mm 0.00 in/hr0.0 mm/hr 0.00 in0.0 mm
04:54 PM 103.8°F39.9°C 68.1°F20.1°C 32% 8.1 mph WSW13.0 kmh WSW 16.1 mph25.9 kmh 29.04 in983.4 mb 0.00 in0.0 mm 0.00 in/hr0.0 mm/hr 0.00 in0.0 mm
04:53 PM 103.8°F39.9°C 68.1°F20.1°C 32% 11.0 mph WSW17.7 kmh WSW 16.1 mph25.9 kmh 29.04 in983.4 mb 0.00 in0.0 mm 0.00 in/hr0.0 mm/hr 0.00 in0.0 mm
04:52 PM 103.8°F39.9°C 68.1°F20.1°C 32% 15.0 mph WSW24.1 kmh WSW 16.1 mph25.9 kmh 29.04 in983.4 mb 0.00 in0.0 mm 0.00 in/hr0.0 mm/hr 0.00 in0.0 mm
04:51 PM 104.0°F40.0°C 68.3°F20.2°C 32% 8.9 mph WSW14.3 kmh WSW 16.1 mph25.9 kmh 29.05 in983.7 mb 0.00 in0.0 mm 0.00 in/hr0.0 mm/hr 0.00 in0.0 mm
04:50 PM 104.2°F40.1°C 68.4°F20.2°C 32% 10.5 mph WSW16.9 kmh WSW 16.1 mph25.9 kmh 29.05 in983.7 mb 0.00 in0.0 mm 0.00 in/hr0.0 mm/hr 0.00 in0.0 mm
04:49 PM 104.2°F40.1°C 68.4°F20.2°C 32% 3.1 mph WSW5.0 kmh WSW 16.1 mph25.9 kmh 29.05 in983.7 mb 0.00 in0.0 mm 0.00 in/hr0.0 mm/hr 0.00 in0.0 mm
04:48 PM 104.4°F40.2°C 68.5°F20.3°C 32% 11.9 mph WSW19.2 kmh WSW 16.1 mph25.9 kmh 29.05 in983.7 mb 0.00 in0.0 mm 0.00 in/hr0.0 mm/hr 0.00 in0.0 mm
04:47 PM 104.4°F40.2°C 68.5°F20.3°C 32% 16.1 mph WSW25.9 kmh WSW 16.1 mph25.9 kmh 29.05 in983.7 mb 0.00 in0.0 mm 0.00 in/hr0.0 mm/hr 0.00 in0.0 mm
04:46 PM 104.4°F40.2°C 67.7°F19.8°C 31% 8.9 mph WSW14.3 kmh WSW 19.0 mph30.6 kmh 29.06 in984.1 mb 0.00 in0.0 mm 0.00 in/hr0.0 mm/hr 0.00 in0.0 mm
04:45 PM 104.5°F40.3°C 68.7°F20.4°C 32% 7.8 mph WSW12.6 kmh WSW 19.0 mph30.6 kmh 29.06 in984.1 mb 0.00 in0.0 mm 0.00 in/hr0.0 mm/hr 0.00 in0.0 mm
04:44 PM 104.5°F40.3°C 68.7°F20.4°C 32% 11.0 mph WSW17.7 kmh WSW 19.0 mph30.6 kmh 29.06 in984.1 mb 0.00 in0.0 mm 0.00 in/hr0.0 mm/hr 0.00 in0.0 mm
04:43 PM 104.7°F40.4°C 68.8°F20.4°C 32% 14.3 mph WSW23.0 kmh WSW 19.0 mph30.6 kmh 29.06 in984.1 mb 0.00 in0.0 mm 0.00 in/hr0.0 mm/hr 0.00 in0.0 mm
04:42 PM 104.7°F40.4°C 68.8°F20.4°C 32% 12.8 mph WSW20.6 kmh WSW 19.0 mph30.6 kmh 29.06 in984.1 mb 0.00 in0.0 mm 0.00 in/hr0.0 mm/hr 0.00 in0.0 mm
04:41 PM 104.7°F40.4°C 68.8°F20.4°C 32% 6.5 mph WSW10.5 kmh WSW 19.0 mph30.6 kmh 29.06 in984.1 mb 0.00 in0.0 mm 0.00 in/hr0.0 mm/hr 0.00 in0.0 mm
04:40 PM 104.9°F40.5°C 69.0°F20.6°C 32% 6.0 mph WSW9.7 kmh WSW 19.0 mph30.6 kmh 29.06 in984.1 mb 0.00 in0.0 mm 0.00 in/hr0.0 mm/hr 0.00 in0.0 mm
04:39 PM 104.9°F40.5°C 69.0°F20.6°C 32% 10.5 mph WSW16.9 kmh WSW 19.0 mph30.6 kmh 29.06 in984.1 mb 0.00 in0.0 mm 0.00 in/hr0.0 mm/hr 0.00 in0.0 mm
04:38 PM 104.9°F40.5°C 69.0°F20.6°C 32% 10.3 mph WSW16.6 kmh WSW 19.0 mph30.6 kmh 29.06 in984.1 mb 0.00 in0.0 mm 0.00 in/hr0.0 mm/hr 0.00 in0.0 mm
04:37 PM 104.7°F40.4°C 68.8°F20.4°C 32% 11.6 mph WSW18.7 kmh WSW 19.0 mph30.6 kmh 29.06 in984.1 mb 0.00 in0.0 mm 0.00 in/hr0.0 mm/hr 0.00 in0.0 mm
04:36 PM 104.7°F40.4°C 68.8°F20.4°C 32% 15.2 mph WSW24.5 kmh WSW 16.6 mph26.7 kmh 29.06 in984.1 mb 0.00 in0.0 mm 0.00 in/hr0.0 mm/hr 0.00 in0.0 mm
04:35 PM 104.7°F40.4°C 68.8°F20.4°C 32% 14.1 mph WSW22.7 kmh WSW 16.3 mph26.2 kmh 29.06 in984.1 mb 0.00 in0.0 mm 0.00 in/hr0.0 mm/hr 0.00 in0.0 mm
04:34 PM 104.5°F40.3°C 70.4°F21.3°C 34% 6.7 mph WSW10.8 kmh WSW 16.3 mph26.2 kmh 29.06 in984.1 mb 0.00 in0.0 mm 0.00 in/hr0.0 mm/hr 0.00 in0.0 mm
04:33 PM 104.5°F40.3°C 68.7°F20.4°C 32% 6.0 mph WSW9.7 kmh WSW 16.3 mph26.2 kmh 29.06 in984.1 mb 0.00 in0.0 mm 0.00 in/hr0.0 mm/hr 0.00 in0.0 mm
04:32 PM 104.5°F40.3°C 68.7°F20.4°C 32% 3.8 mph WSW6.1 kmh WSW 16.3 mph26.2 kmh 29.06 in984.1 mb 0.00 in0.0 mm 0.00 in/hr0.0 mm/hr 0.00 in0.0 mm
04:31 PM 104.5°F40.3°C 68.7°F20.4°C 32% 6.7 mph WSW10.8 kmh WSW 16.3 mph26.2 kmh 29.07 in984.4 mb 0.00 in0.0 mm 0.00 in/hr0.0 mm/hr 0.00 in0.0 mm
04:30 PM 104.5°F40.3°C 68.7°F20.4°C 32% 9.4 mph WSW15.1 kmh WSW 16.3 mph26.2 kmh 29.06 in984.1 mb 0.00 in0.0 mm 0.00 in/hr0.0 mm/hr 0.00 in0.0 mm
04:29 PM 104.7°F40.4°C 68.8°F20.4°C 32% 12.5 mph WSW20.1 kmh WSW 16.3 mph26.2 kmh 29.06 in984.1 mb 0.00 in0.0 mm 0.00 in/hr0.0 mm/hr 0.00 in0.0 mm
04:28 PM 104.7°F40.4°C 68.8°F20.4°C 32% 11.9 mph WSW19.2 kmh WSW 16.3 mph26.2 kmh 29.07 in984.4 mb 0.00 in0.0 mm 0.00 in/hr0.0 mm/hr 0.00 in0.0 mm
04:27 PM 104.7°F40.4°C 69.7°F20.9°C 33% 7.8 mph WSW12.6 kmh WSW 16.3 mph26.2 kmh 29.07 in984.4 mb 0.00 in0.0 mm 0.00 in/hr0.0 mm/hr 0.00 in0.0 mm
04:26 PM 104.7°F40.4°C 68.8°F20.4°C 32% 16.3 mph WSW26.2 kmh WSW 16.3 mph26.2 kmh 29.07 in984.4 mb 0.00 in0.0 mm 0.00 in/hr0.0 mm/hr 0.00 in0.0 mm
04:25 PM 104.7°F40.4°C 69.7°F20.9°C 33% 10.5 mph WSW16.9 kmh WSW 15.7 mph25.3 kmh 29.07 in984.4 mb 0.00 in0.0 mm 0.00 in/hr0.0 mm/hr 0.00 in0.0 mm
04:24 PM 104.7°F40.4°C 68.8°F20.4°C 32% 8.1 mph WSW13.0 kmh WSW 15.7 mph25.3 kmh 29.07 in984.4 mb 0.00 in0.0 mm 0.00 in/hr0.0 mm/hr 0.00 in0.0 mm
04:23 PM 104.7°F40.4°C 68.8°F20.4°C 32% 11.0 mph WSW17.7 kmh WSW 15.7 mph25.3 kmh 29.07 in984.4 mb 0.00 in0.0 mm 0.00 in/hr0.0 mm/hr 0.00 in0.0 mm
04:22 PM 104.5°F40.3°C 69.5°F20.8°C 33% 10.7 mph WSW17.2 kmh WSW 15.7 mph25.3 kmh 29.07 in984.4 mb 0.00 in0.0 mm 0.00 in/hr0.0 mm/hr 0.00 in0.0 mm
04:21 PM 104.5°F40.3°C 70.4°F21.3°C 34% 10.7 mph WSW17.2 kmh WSW 14.8 mph23.8 kmh 29.07 in984.4 mb 0.00 in0.0 mm 0.00 in/hr0.0 mm/hr 0.00 in0.0 mm
04:20 PM 104.4°F40.2°C 70.2°F21.2°C 34% 4.3 mph WSW6.9 kmh WSW 14.8 mph23.8 kmh 29.08 in984.8 mb 0.00 in0.0 mm 0.00 in/hr0.0 mm/hr 0.00 in0.0 mm
04:19 PM 104.2°F40.1°C 69.2°F20.7°C 33% 6.7 mph WSW10.8 kmh WSW 14.8 mph23.8 kmh 29.07 in984.4 mb 0.00 in0.0 mm 0.00 in/hr0.0 mm/hr 0.00 in0.0 mm
04:18 PM 104.2°F40.1°C 70.1°F21.2°C 34% 3.1 mph WSW5.0 kmh WSW 14.8 mph23.8 kmh 29.07 in984.4 mb 0.00 in0.0 mm 0.00 in/hr0.0 mm/hr 0.00 in0.0 mm
04:17 PM 104.0°F40.0°C 69.9°F21.1°C 34% 14.1 mph WSW22.7 kmh WSW 14.8 mph23.8 kmh 29.07 in984.4 mb 0.00 in0.0 mm 0.00 in/hr0.0 mm/hr 0.00 in0.0 mm
04:16 PM 103.8°F39.9°C 70.6°F21.4°C 35% 11.9 mph WSW19.2 kmh WSW 14.5 mph23.3 kmh 29.07 in984.4 mb 0.00 in0.0 mm 0.00 in/hr0.0 mm/hr 0.00 in0.0 mm
04:15 PM 103.8°F39.9°C 69.8°F21.0°C 34% 7.6 mph WSW12.2 kmh WSW 14.5 mph23.3 kmh 29.07 in984.4 mb 0.00 in0.0 mm 0.00 in/hr0.0 mm/hr 0.00 in0.0 mm
04:14 PM 103.8°F39.9°C 69.8°F21.0°C 34% 4.9 mph WSW7.9 kmh WSW 14.5 mph23.3 kmh 29.07 in984.4 mb 0.00 in0.0 mm 0.00 in/hr0.0 mm/hr 0.00 in0.0 mm
04:13 PM 103.6°F39.8°C 69.6°F20.9°C 34% 3.6 mph WSW5.8 kmh WSW 14.5 mph23.3 kmh 29.07 in984.4 mb 0.00 in0.0 mm 0.00 in/hr0.0 mm/hr 0.00 in0.0 mm
04:12 PM 103.3°F39.6°C 70.1°F21.2°C 35% 14.5 mph WSW23.3 kmh WSW 14.5 mph23.3 kmh 29.07 in984.4 mb 0.00 in0.0 mm 0.00 in/hr0.0 mm/hr 0.00 in0.0 mm
04:11 PM 103.1°F39.5°C 69.1°F20.6°C 35% 10.1 mph WSW16.3 kmh WSW 14.5 mph23.3 kmh 29.08 in984.8 mb 0.00 in0.0 mm 0.00 in/hr0.0 mm/hr 0.00 in0.0 mm
04:10 PM 102.9°F39.4°C 69.0°F20.6°C 34% 5.6 mph WSW9.0 kmh WSW 14.5 mph23.3 kmh 29.08 in984.8 mb 0.00 in0.0 mm 0.00 in/hr0.0 mm/hr 0.00 in0.0 mm
04:09 PM 102.7°F39.3°C 69.7°F20.9°C 35% 11.9 mph WSW19.2 kmh WSW 14.5 mph23.3 kmh 29.08 in984.8 mb 0.00 in0.0 mm 0.00 in/hr0.0 mm/hr 0.00 in0.0 mm
04:08 PM 102.6°F39.2°C 68.6°F20.3°C 34% 8.3 mph WSW13.4 kmh WSW 14.5 mph23.3 kmh 29.08 in984.8 mb 0.00 in0.0 mm 0.00 in/hr0.0 mm/hr 0.00 in0.0 mm
04:07 PM 102.4°F39.1°C 68.5°F20.3°C 34% 2.7 mph WSW4.3 kmh WSW 14.5 mph23.3 kmh 29.08 in984.8 mb 0.00 in0.0 mm 0.00 in/hr0.0 mm/hr 0.00 in0.0 mm
04:06 PM 102.2°F39.0°C 69.2°F20.7°C 35% 7.6 mph W12.2 kmh W 14.5 mph23.3 kmh 29.08 in984.8 mb 0.00 in0.0 mm 0.00 in/hr0.0 mm/hr 0.00 in0.0 mm
04:05 PM 102.0°F38.9°C 69.0°F20.6°C 35% 11.9 mph NNW19.2 kmh NNW 14.5 mph23.3 kmh 29.08 in984.8 mb 0.00 in0.0 mm 0.00 in/hr0.0 mm/hr 0.00 in0.0 mm
04:04 PM 102.0°F38.9°C 69.0°F20.6°C 35% 7.2 mph NNE11.6 kmh NNE 13.9 mph22.4 kmh 29.08 in984.8 mb 0.00 in0.0 mm 0.00 in/hr0.0 mm/hr 0.00 in0.0 mm
04:03 PM 102.0°F38.9°C 69.0°F20.6°C 35% 6.7 mph NE10.8 kmh NE 14.5 mph23.3 kmh 29.08 in984.8 mb 0.00 in0.0 mm 0.00 in/hr0.0 mm/hr 0.00 in0.0 mm
04:02 PM 102.0°F38.9°C 69.0°F20.6°C 35% 7.2 mph NE11.6 kmh NE 14.5 mph23.3 kmh 29.08 in984.8 mb 0.00 in0.0 mm 0.00 in/hr0.0 mm/hr 0.00 in0.0 mm
04:01 PM 102.2°F39.0°C 69.2°F20.7°C 35% 4.7 mph NE7.6 kmh NE 14.5 mph23.3 kmh 29.08 in984.8 mb 0.00 in0.0 mm 0.00 in/hr0.0 mm/hr 0.00 in0.0 mm
04:00 PM 102.4°F39.1°C 69.3°F20.7°C 35% 5.1 mph NE8.2 kmh NE 14.5 mph23.3 kmh 29.09 in985.1 mb 0.00 in0.0 mm 0.00 in/hr0.0 mm/hr 0.00 in0.0 mm
03:59 PM 102.4°F39.1°C 69.3°F20.7°C 35% 8.1 mph NE13.0 kmh NE 14.5 mph23.3 kmh 29.09 in985.1 mb 0.00 in0.0 mm 0.00 in/hr0.0 mm/hr 0.00 in0.0 mm
03:58 PM 102.4°F39.1°C 69.3°F20.7°C 35% 7.4 mph NE11.9 kmh NE 14.5 mph23.3 kmh 29.09 in985.1 mb 0.00 in0.0 mm 0.00 in/hr0.0 mm/hr 0.00 in0.0 mm
03:57 PM 102.6°F39.2°C 69.5°F20.8°C 35% 4.9 mph NNE7.9 kmh NNE 14.5 mph23.3 kmh 29.09 in985.1 mb 0.00 in0.0 mm 0.00 in/hr0.0 mm/hr 0.00 in0.0 mm
03:56 PM 102.6°F39.2°C 69.5°F20.8°C 35% 12.8 mph NNE20.6 kmh NNE 14.5 mph23.3 kmh 29.09 in985.1 mb 0.00 in0.0 mm 0.00 in/hr0.0 mm/hr 0.00 in0.0 mm
03:55 PM 102.4°F39.1°C 69.3°F20.7°C 35% 8.9 mph NNE14.3 kmh NNE 14.5 mph23.3 kmh 29.09 in985.1 mb 0.00 in0.0 mm 0.00 in/hr0.0 mm/hr 0.00 in0.0 mm
03:54 PM 102.4°F39.1°C 69.3°F20.7°C 35% 14.5 mph N23.3 kmh N 14.5 mph23.3 kmh 29.09 in985.1 mb 0.00 in0.0 mm 0.00 in/hr0.0 mm/hr 0.00 in0.0 mm
03:53 PM 102.2°F39.0°C 69.2°F20.7°C 35% 7.6 mph N12.2 kmh N 12.3 mph19.8 kmh 29.09 in985.1 mb 0.00 in0.0 mm 0.00 in/hr0.0 mm/hr 0.00 in0.0 mm
03:52 PM 102.0°F38.9°C 69.9°F21.1°C 36% 8.5 mph NNW13.7 kmh NNW 13.0 mph20.9 kmh 29.09 in985.1 mb 0.00 in0.0 mm 0.00 in/hr0.0 mm/hr 0.00 in0.0 mm
03:51 PM 101.8°F38.8°C 69.7°F20.9°C 36% 5.8 mph NNW9.3 kmh NNW 13.0 mph20.9 kmh 29.09 in985.1 mb 0.00 in0.0 mm 0.00 in/hr0.0 mm/hr 0.00 in0.0 mm
03:50 PM 101.7°F38.7°C 69.5°F20.8°C 36% 5.6 mph NNW9.0 kmh NNW 13.0 mph20.9 kmh 29.09 in985.1 mb 0.00 in0.0 mm 0.00 in/hr0.0 mm/hr 0.00 in0.0 mm
03:49 PM 101.5°F38.6°C 69.4°F20.8°C 36% 4.0 mph N6.4 kmh N 13.6 mph21.9 kmh 29.09 in985.1 mb 0.00 in0.0 mm 0.00 in/hr0.0 mm/hr 0.00 in0.0 mm
03:48 PM 101.3°F38.5°C 69.2°F20.7°C 36% 4.5 mph N7.2 kmh N 16.3 mph26.2 kmh 29.09 in985.1 mb 0.00 in0.0 mm 0.00 in/hr0.0 mm/hr 0.00 in0.0 mm
03:47 PM 101.1°F38.4°C 69.1°F20.6°C 36% 7.4 mph NNE11.9 kmh NNE 16.3 mph26.2 kmh 29.09 in985.1 mb 0.00 in0.0 mm 0.00 in/hr0.0 mm/hr 0.00 in0.0 mm
03:46 PM 100.9°F38.3°C 68.9°F20.5°C 36% 11.6 mph NNE18.7 kmh NNE 16.3 mph26.2 kmh 29.09 in985.1 mb 0.00 in0.0 mm 0.00 in/hr0.0 mm/hr 0.00 in0.0 mm
03:45 PM 100.9°F38.3°C 68.9°F20.5°C 36% 9.8 mph NE15.8 kmh NE 16.3 mph26.2 kmh 29.09 in985.1 mb 0.00 in0.0 mm 0.00 in/hr0.0 mm/hr 0.00 in0.0 mm
03:44 PM 100.8°F38.2°C 68.8°F20.4°C 36% 8.9 mph NE14.3 kmh NE 16.3 mph26.2 kmh 29.09 in985.1 mb 0.00 in0.0 mm 0.00 in/hr0.0 mm/hr 0.00 in0.0 mm
03:43 PM 100.8°F38.2°C 68.8°F20.4°C 36% 9.6 mph NE15.4 kmh NE 16.3 mph26.2 kmh 29.09 in985.1 mb 0.00 in0.0 mm 0.00 in/hr0.0 mm/hr 0.00 in0.0 mm
03:42 PM 100.9°F38.3°C 68.9°F20.5°C 36% 2.5 mph ENE4.0 kmh ENE 16.3 mph26.2 kmh 29.09 in985.1 mb 0.00 in0.0 mm 0.00 in/hr0.0 mm/hr 0.00 in0.0 mm
03:41 PM 100.9°F38.3°C 68.9°F20.5°C 36% 6.3 mph ENE10.1 kmh ENE 16.3 mph26.2 kmh 29.09 in985.1 mb 0.00 in0.0 mm 0.00 in/hr0.0 mm/hr 0.00 in0.0 mm
03:40 PM 100.9°F38.3°C 68.9°F20.5°C 36% 10.3 mph ENE16.6 kmh ENE 16.3 mph26.2 kmh 29.09 in985.1 mb 0.00 in0.0 mm 0.00 in/hr0.0 mm/hr 0.00 in0.0 mm
03:39 PM 100.9°F38.3°C 68.9°F20.5°C 36% 12.3 mph ENE19.8 kmh ENE 16.3 mph26.2 kmh 29.09 in985.1 mb 0.00 in0.0 mm 0.00 in/hr0.0 mm/hr 0.00 in0.0 mm
03:38 PM 100.9°F38.3°C 68.9°F20.5°C 36% 11.6 mph ENE18.7 kmh ENE 17.9 mph28.8 kmh 29.09 in985.1 mb 0.00 in0.0 mm 0.00 in/hr0.0 mm/hr 0.00 in0.0 mm
03:37 PM 100.9°F38.3°C 68.9°F20.5°C 36% 7.6 mph ENE12.2 kmh ENE 17.9 mph28.8 kmh 29.09 in985.1 mb 0.00 in0.0 mm 0.00 in/hr0.0 mm/hr 0.00 in0.0 mm
03:36 PM 100.9°F38.3°C 68.9°F20.5°C 36% 11.4 mph ENE18.3 kmh ENE 17.9 mph28.8 kmh 29.09 in985.1 mb 0.00 in0.0 mm 0.00 in/hr0.0 mm/hr 0.00 in0.0 mm
03:35 PM 100.9°F38.3°C 68.9°F20.5°C 36% 9.8 mph NE15.8 kmh NE 19.9 mph32.0 kmh 29.09 in985.1 mb 0.00 in0.0 mm 0.00 in/hr0.0 mm/hr 0.00 in0.0 mm
03:34 PM 100.9°F38.3°C 68.9°F20.5°C 36% 12.5 mph NE20.1 kmh NE 19.9 mph32.0 kmh 29.09 in985.1 mb 0.00 in0.0 mm 0.00 in/hr0.0 mm/hr 0.00 in0.0 mm
03:33 PM 100.9°F38.3°C 68.9°F20.5°C 36% 12.8 mph NE20.6 kmh NE 19.9 mph32.0 kmh 29.09 in985.1 mb 0.00 in0.0 mm 0.00 in/hr0.0 mm/hr 0.00 in0.0 mm
03:32 PM 100.9°F38.3°C 69.8°F21.0°C 37% 13.9 mph NE22.4 kmh NE 19.9 mph32.0 kmh 29.09 in985.1 mb 0.00 in0.0 mm 0.00 in/hr0.0 mm/hr 0.00 in0.0 mm
03:31 PM 100.9°F38.3°C 69.8°F21.0°C 37% 10.1 mph NE16.3 kmh NE 19.9 mph32.0 kmh 29.09 in985.1 mb 0.00 in0.0 mm 0.00 in/hr0.0 mm/hr 0.00 in0.0 mm
03:30 PM 100.9°F38.3°C 69.8°F21.0°C 37% 12.1 mph NE19.5 kmh NE 19.9 mph32.0 kmh 29.09 in985.1 mb 0.00 in0.0 mm 0.00 in/hr0.0 mm/hr 0.00 in0.0 mm
03:29 PM 100.9°F38.3°C 68.9°F20.5°C 36% 17.9 mph NNE28.8 kmh NNE 19.9 mph32.0 kmh 29.09 in985.1 mb 0.00 in0.0 mm 0.00 in/hr0.0 mm/hr 0.00 in0.0 mm
03:28 PM 100.9°F38.3°C 69.8°F21.0°C 37% 8.1 mph NNE13.0 kmh NNE 19.9 mph32.0 kmh 29.09 in985.1 mb 0.00 in0.0 mm 0.00 in/hr0.0 mm/hr 0.00 in0.0 mm
03:27 PM 100.9°F38.3°C 68.9°F20.5°C 36% 6.9 mph NNE11.1 kmh NNE 19.9 mph32.0 kmh 29.09 in985.1 mb 0.00 in0.0 mm 0.00 in/hr0.0 mm/hr 0.00 in0.0 mm
03:26 PM 100.9°F38.3°C 69.8°F21.0°C 37% 13.2 mph N21.2 kmh N 19.9 mph32.0 kmh 29.09 in985.1 mb 0.00 in0.0 mm 0.00 in/hr0.0 mm/hr 0.00 in0.0 mm
03:25 PM 100.9°F38.3°C 69.8°F21.0°C 37% 14.3 mph N23.0 kmh N 18.6 mph29.9 kmh 29.09 in985.1 mb 0.00 in0.0 mm 0.00 in/hr0.0 mm/hr 0.00 in0.0 mm
03:24 PM 100.9°F38.3°C 69.8°F21.0°C 37% 7.4 mph NNE11.9 kmh NNE 18.6 mph29.9 kmh 29.09 in985.1 mb 0.00 in0.0 mm 0.00 in/hr0.0 mm/hr 0.00 in0.0 mm
03:23 PM 100.9°F38.3°C 69.8°F21.0°C 37% 15.0 mph NNE24.1 kmh NNE 18.6 mph29.9 kmh 29.09 in985.1 mb 0.00 in0.0 mm 0.00 in/hr0.0 mm/hr 0.00 in0.0 mm
03:22 PM 100.8°F38.2°C 69.6°F20.9°C 37% 10.1 mph NE16.3 kmh NE 18.6 mph29.9 kmh 29.09 in985.1 mb 0.00 in0.0 mm 0.00 in/hr0.0 mm/hr 0.00 in0.0 mm
03:21 PM 100.8°F38.2°C 69.6°F20.9°C 37% 16.3 mph NE26.2 kmh NE 18.6 mph29.9 kmh 29.09 in985.1 mb 0.00 in0.0 mm 0.00 in/hr0.0 mm/hr 0.00 in0.0 mm
03:20 PM 100.6°F38.1°C 69.4°F20.8°C 37% 5.4 mph NE8.7 kmh NE 18.6 mph29.9 kmh 29.09 in985.1 mb 0.00 in0.0 mm 0.00 in/hr0.0 mm/hr 0.00 in0.0 mm
03:19 PM 100.6°F38.1°C 69.4°F20.8°C 37% 8.5 mph NE13.7 kmh NE 18.6 mph29.9 kmh 29.09 in985.1 mb 0.00 in0.0 mm 0.00 in/hr0.0 mm/hr 0.00 in0.0 mm
03:18 PM 100.6°F38.1°C 69.4°F20.8°C 37% 12.1 mph NE19.5 kmh NE 18.6 mph29.9 kmh 29.09 in985.1 mb 0.00 in0.0 mm 0.00 in/hr0.0 mm/hr 0.00 in0.0 mm
03:17 PM 100.6°F38.1°C 69.4°F20.8°C 37% 9.4 mph NE15.1 kmh NE 18.6 mph29.9 kmh 29.09 in985.1 mb 0.00 in0.0 mm 0.00 in/hr0.0 mm/hr 0.00 in0.0 mm
03:16 PM 100.4°F38.0°C 69.3°F20.7°C 37% 11.2 mph NE18.0 kmh NE 17.0 mph27.4 kmh 29.09 in985.1 mb 0.00 in0.0 mm 0.00 in/hr0.0 mm/hr 0.00 in0.0 mm
03:15 PM 100.2°F37.9°C 70.0°F21.1°C 38% 11.2 mph NE18.0 kmh NE 17.4 mph28.0 kmh 29.08 in984.8 mb 0.00 in0.0 mm 0.00 in/hr0.0 mm/hr 0.00 in0.0 mm
03:14 PM 100.0°F37.8°C 69.8°F21.0°C 38% 17.0 mph NE27.4 kmh NE 17.4 mph28.0 kmh 29.09 in985.1 mb 0.00 in0.0 mm 0.00 in/hr0.0 mm/hr 0.00 in0.0 mm
03:13 PM 99.9°F37.7°C 69.6°F20.9°C 38% 13.2 mph NE21.2 kmh NE 17.4 mph28.0 kmh 29.09 in985.1 mb 0.00 in0.0 mm 0.00 in/hr0.0 mm/hr 0.00 in0.0 mm
03:12 PM 99.7°F37.6°C 68.6°F20.3°C 37% 7.4 mph NE11.9 kmh NE 17.4 mph28.0 kmh 29.09 in985.1 mb 0.00 in0.0 mm 0.00 in/hr0.0 mm/hr 0.00 in0.0 mm
03:11 PM 99.5°F37.5°C 69.3°F20.7°C 38% 7.4 mph NE11.9 kmh NE 17.4 mph28.0 kmh 29.09 in985.1 mb 0.00 in0.0 mm 0.00 in/hr0.0 mm/hr 0.00 in0.0 mm
03:10 PM 99.3°F37.4°C 68.3°F20.2°C 37% 10.3 mph NE16.6 kmh NE 17.4 mph28.0 kmh 29.09 in985.1 mb 0.00 in0.0 mm 0.00 in/hr0.0 mm/hr 0.00 in0.0 mm
03:09 PM 99.3°F37.4°C 69.2°F20.7°C 38% 6.0 mph NE9.7 kmh NE 17.4 mph28.0 kmh 29.09 in985.1 mb 0.00 in0.0 mm 0.00 in/hr0.0 mm/hr 0.00 in0.0 mm
03:08 PM 99.1°F37.3°C 69.0°F20.6°C 38% 3.4 mph NE5.5 kmh NE 17.4 mph28.0 kmh 29.09 in985.1 mb 0.00 in0.0 mm 0.00 in/hr0.0 mm/hr 0.00 in0.0 mm
03:07 PM 99.1°F37.3°C 69.0°F20.6°C 38% 9.6 mph NE15.4 kmh NE 18.8 mph30.3 kmh 29.09 in985.1 mb 0.00 in0.0 mm 0.00 in/hr0.0 mm/hr 0.00 in0.0 mm
03:06 PM 99.1°F37.3°C 69.0°F20.6°C 38% 13.6 mph NE21.9 kmh NE 18.8 mph30.3 kmh 29.09 in985.1 mb 0.00 in0.0 mm 0.00 in/hr0.0 mm/hr 0.00 in0.0 mm
03:05 PM 99.0°F37.2°C 68.8°F20.4°C 38% 12.5 mph NE20.1 kmh NE 18.8 mph30.3 kmh 29.09 in985.1 mb 0.00 in0.0 mm 0.00 in/hr0.0 mm/hr 0.00 in0.0 mm
03:04 PM 99.0°F37.2°C 68.8°F20.4°C 38% 13.6 mph NE21.9 kmh NE 18.8 mph30.3 kmh 29.09 in985.1 mb 0.00 in0.0 mm 0.00 in/hr0.0 mm/hr 0.00 in0.0 mm
03:03 PM 98.8°F37.1°C 68.7°F20.4°C 38% 7.8 mph NE12.6 kmh NE 18.8 mph30.3 kmh 29.09 in985.1 mb 0.00 in0.0 mm 0.00 in/hr0.0 mm/hr 0.00 in0.0 mm
03:02 PM 98.8°F37.1°C 68.7°F20.4°C 38% 8.1 mph NE13.0 kmh NE 18.8 mph30.3 kmh 29.09 in985.1 mb 0.00 in0.0 mm 0.00 in/hr0.0 mm/hr 0.00 in0.0 mm
03:01 PM 98.6°F37.0°C 68.5°F20.3°C 38% 11.0 mph NE17.7 kmh NE 18.8 mph30.3 kmh 29.09 in985.1 mb 0.00 in0.0 mm 0.00 in/hr0.0 mm/hr 0.00 in0.0 mm
03:00 PM 98.4°F36.9°C 68.3°F20.2°C 38% 15.2 mph NE24.5 kmh NE 18.8 mph30.3 kmh 29.09 in985.1 mb 0.00 in0.0 mm 0.00 in/hr0.0 mm/hr 0.00 in0.0 mm
02:59 PM 98.4°F36.9°C 68.3°F20.2°C 38% 8.9 mph NE14.3 kmh NE 22.8 mph36.7 kmh 29.09 in985.1 mb 0.00 in0.0 mm 0.00 in/hr0.0 mm/hr 0.00 in0.0 mm
02:58 PM 98.4°F36.9°C 68.3°F20.2°C 38% 13.0 mph NE20.9 kmh NE 22.8 mph36.7 kmh 29.09 in985.1 mb 0.00 in0.0 mm 0.00 in/hr0.0 mm/hr 0.00 in0.0 mm
02:57 PM 98.2°F36.8°C 69.0°F20.6°C 39% 17.0 mph NE27.4 kmh NE 22.8 mph36.7 kmh 29.09 in985.1 mb 0.00 in0.0 mm 0.00 in/hr0.0 mm/hr 0.00 in0.0 mm
02:56 PM 98.2°F36.8°C 69.0°F20.6°C 39% 12.5 mph NE20.1 kmh NE 22.8 mph36.7 kmh 29.09 in985.1 mb 0.00 in0.0 mm 0.00 in/hr0.0 mm/hr 0.00 in0.0 mm
02:55 PM 98.1°F36.7°C 68.8°F20.4°C 39% 13.9 mph NE22.4 kmh NE 22.8 mph36.7 kmh 29.09 in985.1 mb 0.00 in0.0 mm 0.00 in/hr0.0 mm/hr 0.00 in0.0 mm
02:54 PM 97.9°F36.6°C 68.7°F20.4°C 39% 13.0 mph ENE20.9 kmh ENE 22.8 mph36.7 kmh 29.09 in985.1 mb 0.00 in0.0 mm 0.00 in/hr0.0 mm/hr 0.00 in0.0 mm
02:53 PM 97.9°F36.6°C 68.7°F20.4°C 39% 6.5 mph ENE10.5 kmh ENE 22.8 mph36.7 kmh 29.09 in985.1 mb 0.00 in0.0 mm 0.00 in/hr0.0 mm/hr 0.00 in0.0 mm
02:52 PM 97.9°F36.6°C 68.7°F20.4°C 39% 5.1 mph NE8.2 kmh NE 22.8 mph36.7 kmh 29.10 in985.4 mb 0.00 in0.0 mm 0.00 in/hr0.0 mm/hr 0.00 in0.0 mm
02:51 PM 97.7°F36.5°C 68.5°F20.3°C 39% 12.5 mph NE20.1 kmh NE 22.8 mph36.7 kmh 29.10 in985.4 mb 0.00 in0.0 mm 0.00 in/hr0.0 mm/hr 0.00 in0.0 mm
02:50 PM 97.7°F36.5°C 68.5°F20.3°C 39% 17.7 mph NE28.5 kmh NE 22.8 mph36.7 kmh 29.10 in985.4 mb 0.00 in0.0 mm 0.00 in/hr0.0 mm/hr 0.00 in0.0 mm
02:49 PM 97.5°F36.4°C 68.4°F20.2°C 39% 13.2 mph NE21.2 kmh NE 22.4 mph36.0 kmh 29.09 in985.1 mb 0.00 in0.0 mm 0.00 in/hr0.0 mm/hr 0.00 in0.0 mm
02:48 PM 97.5°F36.4°C 68.4°F20.2°C 39% 15.7 mph NE25.3 kmh NE 19.5 mph31.4 kmh 29.09 in985.1 mb 0.00 in0.0 mm 0.00 in/hr0.0 mm/hr 0.00 in0.0 mm
02:47 PM 97.3°F36.3°C 69.0°F20.6°C 40% 10.1 mph NE16.3 kmh NE 18.8 mph30.3 kmh 29.09 in985.1 mb 0.00 in0.0 mm 0.00 in/hr0.0 mm/hr 0.00 in0.0 mm
02:46 PM 97.3°F36.3°C 69.0°F20.6°C 40% 11.0 mph NE17.7 kmh NE 18.8 mph30.3 kmh 29.09 in985.1 mb 0.00 in0.0 mm 0.00 in/hr0.0 mm/hr 0.00 in0.0 mm
02:45 PM 97.3°F36.3°C 69.0°F20.6°C 40% 12.8 mph NE20.6 kmh NE 18.8 mph30.3 kmh 29.09 in985.1 mb 0.00 in0.0 mm 0.00 in/hr0.0 mm/hr 0.00 in0.0 mm
02:44 PM 97.2°F36.2°C 68.9°F20.5°C 40% 12.3 mph NE19.8 kmh NE 18.8 mph30.3 kmh 29.09 in985.1 mb 0.00 in0.0 mm 0.00 in/hr0.0 mm/hr 0.00 in0.0 mm
02:43 PM 97.0°F36.1°C 68.7°F20.4°C 40% 12.8 mph NE20.6 kmh NE 18.8 mph30.3 kmh 29.09 in985.1 mb 0.00 in0.0 mm 0.00 in/hr0.0 mm/hr 0.00 in0.0 mm
02:42 PM 97.0°F36.1°C 67.9°F19.9°C 39% 12.5 mph NE20.1 kmh NE 18.6 mph29.9 kmh 29.09 in985.1 mb 0.00 in0.0 mm 0.00 in/hr0.0 mm/hr 0.00 in0.0 mm
02:41 PM 97.0°F36.1°C 68.7°F20.4°C 39% 15.7 mph NE25.3 kmh NE 18.8 mph30.3 kmh 29.09 in985.1 mb 0.00 in0.0 mm 0.00 in/hr0.0 mm/hr 0.00 in0.0 mm
02:40 PM 96.8°F36.0°C 68.5°F20.3°C 40% 12.8 mph NE20.6 kmh NE 19.7 mph31.7 kmh 29.10 in985.4 mb 0.00 in0.0 mm 0.00 in/hr0.0 mm/hr 0.00 in0.0 mm
02:39 PM 96.6°F35.9°C 68.4°F20.2°C 40% 10.1 mph NE16.3 kmh NE 21.3 mph34.3 kmh 29.09 in985.1 mb 0.00 in0.0 mm 0.00 in/hr0.0 mm/hr 0.00 in0.0 mm
02:38 PM 96.6°F35.9°C 68.4°F20.2°C 40% 11.0 mph NE17.7 kmh NE 21.3 mph34.3 kmh 29.09 in985.1 mb 0.00 in0.0 mm 0.00 in/hr0.0 mm/hr 0.00 in0.0 mm
02:37 PM 96.6°F35.9°C 68.4°F20.2°C 40% 14.8 mph NE23.8 kmh NE 21.3 mph34.3 kmh 29.09 in985.1 mb 0.00 in0.0 mm 0.00 in/hr0.0 mm/hr 0.00 in0.0 mm
02:36 PM 96.6°F35.9°C 68.4°F20.2°C 40% 9.8 mph NE15.8 kmh NE 21.3 mph34.3 kmh 29.09 in985.1 mb 0.00 in0.0 mm 0.00 in/hr0.0 mm/hr 0.00 in0.0 mm
02:35 PM 96.4°F35.8°C 68.2°F20.1°C 40% 12.5 mph NE20.1 kmh NE 21.3 mph34.3 kmh 29.09 in985.1 mb 0.00 in0.0 mm 0.00 in/hr0.0 mm/hr 0.00 in0.0 mm
02:34 PM 96.4°F35.8°C 68.2°F20.1°C 40% 13.4 mph NE21.6 kmh NE 21.3 mph34.3 kmh 29.09 in985.1 mb 0.00 in0.0 mm 0.00 in/hr0.0 mm/hr 0.00 in0.0 mm
02:33 PM 96.4°F35.8°C 68.2°F20.1°C 40% 9.8 mph NE15.8 kmh NE 21.3 mph34.3 kmh 29.09 in985.1 mb 0.00 in0.0 mm 0.00 in/hr0.0 mm/hr 0.00 in0.0 mm
02:32 PM 96.3°F35.7°C 68.1°F20.1°C 40% 14.8 mph NE23.8 kmh NE 26.4 mph42.5 kmh 29.09 in985.1 mb 0.00 in0.0 mm 0.00 in/hr0.0 mm/hr 0.00 in0.0 mm
02:31 PM 96.1°F35.6°C 68.6°F20.3°C 41% 17.7 mph NE28.5 kmh NE 26.4 mph42.5 kmh 29.09 in985.1 mb 0.00 in0.0 mm 0.00 in/hr0.0 mm/hr 0.00 in0.0 mm
02:30 PM 96.1°F35.6°C 68.6°F20.3°C 41% 9.4 mph NE15.1 kmh NE 26.4 mph42.5 kmh 29.09 in985.1 mb 0.00 in0.0 mm 0.00 in/hr0.0 mm/hr 0.00 in0.0 mm
02:29 PM 96.1°F35.6°C 68.6°F20.3°C 41% 21.3 mph ENE34.3 kmh ENE 26.4 mph42.5 kmh 29.09 in985.1 mb 0.00 in0.0 mm 0.00 in/hr0.0 mm/hr 0.00 in0.0 mm
02:28 PM 95.9°F35.5°C 68.4°F20.2°C 41% 14.1 mph ENE22.7 kmh ENE 26.4 mph42.5 kmh 29.09 in985.1 mb 0.00 in0.0 mm 0.00 in/hr0.0 mm/hr 0.00 in0.0 mm
02:27 PM 95.9°F35.5°C 68.4°F20.2°C 41% 16.3 mph ENE26.2 kmh ENE 26.4 mph42.5 kmh 29.09 in985.1 mb 0.00 in0.0 mm 0.00 in/hr0.0 mm/hr 0.00 in0.0 mm
02:26 PM 95.7°F35.4°C 68.2°F20.1°C 41% 10.5 mph ENE16.9 kmh ENE 26.4 mph42.5 kmh 29.09 in985.1 mb 0.00 in0.0 mm 0.00 in/hr0.0 mm/hr 0.00 in0.0 mm
02:25 PM 95.7°F35.4°C 68.2°F20.1°C 41% 14.3 mph ENE23.0 kmh ENE 26.4 mph42.5 kmh 29.09 in985.1 mb 0.00 in0.0 mm 0.00 in/hr0.0 mm/hr 0.00 in0.0 mm
02:24 PM 95.5°F35.3°C 68.1°F20.1°C 41% 7.2 mph ENE11.6 kmh ENE 26.4 mph42.5 kmh 29.09 in985.1 mb 0.00 in0.0 mm 0.00 in/hr0.0 mm/hr 0.00 in0.0 mm
02:23 PM 95.5°F35.3°C 68.1°F20.1°C 41% 7.4 mph ENE11.9 kmh ENE 26.4 mph42.5 kmh 29.09 in985.1 mb 0.00 in0.0 mm 0.00 in/hr0.0 mm/hr 0.00 in0.0 mm
02:22 PM 95.4°F35.2°C 67.9°F19.9°C 41% 24.6 mph ENE39.6 kmh ENE 24.6 mph39.6 kmh 29.09 in985.1 mb 0.00 in0.0 mm 0.00 in/hr0.0 mm/hr 0.00 in0.0 mm
02:21 PM 95.4°F35.2°C 68.6°F20.3°C 42% 13.0 mph ENE20.9 kmh ENE 23.9 mph38.5 kmh 29.09 in985.1 mb 0.00 in0.0 mm 0.00 in/hr0.0 mm/hr 0.00 in0.0 mm
02:20 PM 95.2°F35.1°C 68.4°F20.2°C 42% 13.6 mph ENE21.9 kmh ENE 23.9 mph38.5 kmh 29.09 in985.1 mb 0.00 in0.0 mm 0.00 in/hr0.0 mm/hr 0.00 in0.0 mm
02:19 PM 95.2°F35.1°C 68.4°F20.2°C 42% 14.8 mph NE23.8 kmh NE 28.4 mph45.7 kmh 29.09 in985.1 mb 0.00 in0.0 mm 0.00 in/hr0.0 mm/hr 0.00 in0.0 mm
02:18 PM 94.8°F34.9°C 68.1°F20.1°C 42% 17.4 mph NE28.0 kmh NE 28.4 mph45.7 kmh 29.09 in985.1 mb 0.00 in0.0 mm 0.00 in/hr0.0 mm/hr 0.00 in0.0 mm
02:17 PM 94.8°F34.9°C 68.1°F20.1°C 42% 12.1 mph NE19.5 kmh NE 28.4 mph45.7 kmh 29.09 in985.1 mb 0.00 in0.0 mm 0.00 in/hr0.0 mm/hr 0.00 in0.0 mm
02:16 PM 94.8°F34.9°C 68.1°F20.1°C 42% 11.0 mph NE17.7 kmh NE 28.4 mph45.7 kmh 29.09 in985.1 mb 0.00 in0.0 mm 0.00 in/hr0.0 mm/hr 0.00 in0.0 mm
02:15 PM 94.6°F34.8°C 67.9°F19.9°C 42% 13.2 mph NE21.2 kmh NE 28.4 mph45.7 kmh 29.09 in985.1 mb 0.00 in0.0 mm 0.00 in/hr0.0 mm/hr 0.00 in0.0 mm
02:14 PM 94.6°F34.8°C 67.9°F19.9°C 42% 18.8 mph NE30.3 kmh NE 28.4 mph45.7 kmh 29.09 in985.1 mb 0.00 in0.0 mm 0.00 in/hr0.0 mm/hr 0.00 in0.0 mm
02:13 PM 94.6°F34.8°C 67.9°F19.9°C 42% 15.7 mph NE25.3 kmh NE 28.4 mph45.7 kmh 29.09 in985.1 mb 0.00 in0.0 mm 0.00 in/hr0.0 mm/hr 0.00 in0.0 mm
02:12 PM 94.6°F34.8°C 67.9°F19.9°C 42% 9.6 mph NE15.4 kmh NE 28.4 mph45.7 kmh 29.09 in985.1 mb 0.00 in0.0 mm 0.00 in/hr0.0 mm/hr 0.00 in0.0 mm
02:11 PM 94.5°F34.7°C 67.7°F19.8°C 42% 13.9 mph NE22.4 kmh NE 28.4 mph45.7 kmh 29.09 in985.1 mb 0.00 in0.0 mm 0.00 in/hr0.0 mm/hr 0.00 in0.0 mm
02:10 PM 94.3°F34.6°C 67.6°F19.8°C 42% 22.1 mph NE35.6 kmh NE 29.1 mph46.8 kmh 29.09 in985.1 mb 0.00 in0.0 mm 0.00 in/hr0.0 mm/hr 0.00 in0.0 mm
02:09 PM 94.3°F34.6°C 67.6°F19.8°C 42% 22.4 mph NE36.0 kmh NE 29.1 mph46.8 kmh 29.09 in985.1 mb 0.00 in0.0 mm 0.00 in/hr0.0 mm/hr 0.00 in0.0 mm
02:08 PM 94.3°F34.6°C 67.6°F19.8°C 42% 19.9 mph NE32.0 kmh NE 29.1 mph46.8 kmh 29.09 in985.1 mb 0.00 in0.0 mm 0.00 in/hr0.0 mm/hr 0.00 in0.0 mm
02:07 PM 94.3°F34.6°C 67.6°F19.8°C 42% 26.4 mph NE42.5 kmh NE 29.1 mph46.8 kmh 29.09 in985.1 mb 0.00 in0.0 mm 0.00 in/hr0.0 mm/hr 0.00 in0.0 mm
02:06 PM 94.3°F34.6°C 67.6°F19.8°C 42% 16.1 mph NE25.9 kmh NE 29.1 mph46.8 kmh 29.09 in985.1 mb 0.00 in0.0 mm 0.00 in/hr0.0 mm/hr 0.00 in0.0 mm
02:05 PM 94.3°F34.6°C 67.6°F19.8°C 42% 15.2 mph NE24.5 kmh NE 29.1 mph46.8 kmh 29.09 in985.1 mb 0.00 in0.0 mm 0.00 in/hr0.0 mm/hr 0.00 in0.0 mm
02:04 PM 94.3°F34.6°C 67.6°F19.8°C 42% 19.5 mph NE31.4 kmh NE 29.1 mph46.8 kmh 29.09 in985.1 mb 0.00 in0.0 mm 0.00 in/hr0.0 mm/hr 0.00 in0.0 mm
02:03 PM 94.5°F34.7°C 67.7°F19.8°C 42% 15.2 mph NE24.5 kmh NE 29.1 mph46.8 kmh 29.09 in985.1 mb 0.00 in0.0 mm 0.00 in/hr0.0 mm/hr 0.00 in0.0 mm
02:02 PM 94.6°F34.8°C 67.9°F19.9°C 42% 11.4 mph NE18.3 kmh NE 29.1 mph46.8 kmh 29.09 in985.1 mb 0.00 in0.0 mm 0.00 in/hr0.0 mm/hr 0.00 in0.0 mm
02:01 PM 94.6°F34.8°C 67.9°F19.9°C 42% 9.2 mph NE14.8 kmh NE 29.1 mph46.8 kmh 29.09 in985.1 mb 0.00 in0.0 mm 0.00 in/hr0.0 mm/hr 0.00 in0.0 mm
02:00 PM 94.6°F34.8°C 67.9°F19.9°C 42% 18.6 mph NE29.9 kmh NE 26.8 mph43.1 kmh 29.09 in985.1 mb 0.00 in0.0 mm 0.00 in/hr0.0 mm/hr 0.00 in0.0 mm
01:59 PM 94.6°F34.8°C 67.9°F19.9°C 42% 19.5 mph NE31.4 kmh NE 26.8 mph43.1 kmh 29.09 in985.1 mb 0.00 in0.0 mm 0.00 in/hr0.0 mm/hr 0.00 in0.0 mm
01:58 PM 94.6°F34.8°C 67.9°F19.9°C 42% 12.3 mph NE19.8 kmh NE 26.8 mph43.1 kmh 29.09 in985.1 mb 0.00 in0.0 mm 0.00 in/hr0.0 mm/hr 0.00 in0.0 mm
01:57 PM 94.6°F34.8°C 67.9°F19.9°C 42% 14.3 mph NE23.0 kmh NE 26.8 mph43.1 kmh 29.09 in985.1 mb 0.00 in0.0 mm 0.00 in/hr0.0 mm/hr 0.00 in0.0 mm
01:56 PM 94.5°F34.7°C 67.7°F19.8°C 42% 21.0 mph NE33.8 kmh NE 26.8 mph43.1 kmh 29.09 in985.1 mb 0.00 in0.0 mm 0.00 in/hr0.0 mm/hr 0.00 in0.0 mm
01:55 PM 94.5°F34.7°C 67.6°F19.8°C 42% 14.8 mph NE23.8 kmh NE 26.8 mph43.1 kmh 29.10 in985.4 mb 0.00 in0.0 mm 0.00 in/hr0.0 mm/hr 0.00 in0.0 mm
01:54 PM 94.3°F34.6°C 67.6°F19.8°C 42% 15.2 mph NE24.5 kmh NE 26.8 mph43.1 kmh 29.09 in985.1 mb 0.00 in0.0 mm 0.00 in/hr0.0 mm/hr 0.00 in0.0 mm
01:53 PM 94.3°F34.6°C 67.6°F19.8°C 42% 18.8 mph NE30.3 kmh NE 26.8 mph43.1 kmh 29.10 in985.4 mb 0.00 in0.0 mm 0.00 in/hr0.0 mm/hr 0.00 in0.0 mm
01:52 PM 94.3°F34.6°C 68.2°F20.1°C 43% 14.8 mph NE23.8 kmh NE 26.8 mph43.1 kmh 29.10 in985.4 mb 0.00 in0.0 mm 0.00 in/hr0.0 mm/hr 0.00 in0.0 mm
01:51 PM 94.1°F34.5°C 68.1°F20.1°C 43% 17.2 mph NE27.7 kmh NE 25.1 mph40.4 kmh 29.10 in985.4 mb 0.00 in0.0 mm 0.00 in/hr0.0 mm/hr 0.00 in0.0 mm
01:50 PM 93.9°F34.4°C 67.9°F19.9°C 43% 10.3 mph NE16.6 kmh NE 24.6 mph39.6 kmh 29.09 in985.1 mb 0.00 in0.0 mm 0.00 in/hr0.0 mm/hr 0.00 in0.0 mm
01:49 PM 93.9°F34.4°C 67.9°F19.9°C 43% 16.1 mph NE25.9 kmh NE 24.6 mph39.6 kmh 29.09 in985.1 mb 0.00 in0.0 mm 0.00 in/hr0.0 mm/hr 0.00 in0.0 mm
01:48 PM 93.9°F34.4°C 67.9°F19.9°C 43% 21.5 mph NE34.6 kmh NE 24.6 mph39.6 kmh 29.10 in985.4 mb 0.00 in0.0 mm 0.00 in/hr0.0 mm/hr 0.00 in0.0 mm
01:47 PM 93.9°F34.4°C 68.6°F20.3°C 44% 14.8 mph NE23.8 kmh NE 24.6 mph39.6 kmh 29.10 in985.4 mb 0.00 in0.0 mm 0.00 in/hr0.0 mm/hr 0.00 in0.0 mm
01:46 PM 93.9°F34.4°C 68.6°F20.3°C 44% 12.1 mph NE19.5 kmh NE 24.6 mph39.6 kmh 29.09 in985.1 mb 0.00 in0.0 mm 0.00 in/hr0.0 mm/hr 0.00 in0.0 mm
01:45 PM 93.9°F34.4°C 68.6°F20.3°C 44% 12.8 mph NE20.6 kmh NE 24.6 mph39.6 kmh 29.09 in985.1 mb 0.00 in0.0 mm 0.00 in/hr0.0 mm/hr 0.00 in0.0 mm
01:44 PM 93.9°F34.4°C 68.6°F20.3°C 44% 14.3 mph NE23.0 kmh NE 24.6 mph39.6 kmh 29.09 in985.1 mb 0.00 in0.0 mm 0.00 in/hr0.0 mm/hr 0.00 in0.0 mm
01:43 PM 93.9°F34.4°C 67.9°F19.9°C 43% 10.7 mph NE17.2 kmh NE 24.6 mph39.6 kmh 29.09 in985.1 mb 0.00 in0.0 mm 0.00 in/hr0.0 mm/hr 0.00 in0.0 mm
01:42 PM 93.9°F34.4°C 67.9°F19.9°C 43% 12.5 mph NE20.1 kmh NE 21.0 mph33.8 kmh 29.09 in985.1 mb 0.00 in0.0 mm 0.00 in/hr0.0 mm/hr 0.00 in0.0 mm
01:41 PM 93.9°F34.4°C 67.9°F19.9°C 43% 16.1 mph ENE25.9 kmh ENE 21.0 mph33.8 kmh 29.09 in985.1 mb 0.00 in0.0 mm 0.00 in/hr0.0 mm/hr 0.00 in0.0 mm
01:40 PM 93.9°F34.4°C 67.9°F19.9°C 43% 11.0 mph ENE17.7 kmh ENE 21.0 mph33.8 kmh 29.09 in985.1 mb 0.00 in0.0 mm 0.00 in/hr0.0 mm/hr 0.00 in0.0 mm
01:39 PM 94.1°F34.5°C 68.1°F20.1°C 43% 12.5 mph NE20.1 kmh NE 21.0 mph33.8 kmh 29.09 in985.1 mb 0.00 in0.0 mm 0.00 in/hr0.0 mm/hr 0.00 in0.0 mm
01:38 PM 94.3°F34.6°C 68.2°F20.1°C 43% 10.5 mph NE16.9 kmh NE 21.9 mph35.2 kmh 29.10 in985.4 mb 0.00 in0.0 mm 0.00 in/hr0.0 mm/hr 0.00 in0.0 mm
01:37 PM 94.3°F34.6°C 68.2°F20.1°C 43% 11.6 mph NE18.7 kmh NE 21.9 mph35.2 kmh 29.10 in985.4 mb 0.00 in0.0 mm 0.00 in/hr0.0 mm/hr 0.00 in0.0 mm
01:36 PM 94.3°F34.6°C 68.4°F20.2°C 43% 12.1 mph NE19.5 kmh NE 22.1 mph35.6 kmh 29.10 in985.4 mb 0.00 in0.0 mm 0.00 in/hr0.0 mm/hr 0.00 in0.0 mm
01:35 PM 94.5°F34.7°C 68.4°F20.2°C 43% 15.9 mph NE25.6 kmh NE 22.1 mph35.6 kmh 29.09 in985.1 mb 0.00 in0.0 mm 0.00 in/hr0.0 mm/hr 0.00 in0.0 mm
01:34 PM 94.6°F34.8°C 68.6°F20.3°C 43% 9.4 mph NE15.1 kmh NE 22.1 mph35.6 kmh 29.09 in985.1 mb 0.00 in0.0 mm 0.00 in/hr0.0 mm/hr 0.00 in0.0 mm
01:33 PM 94.6°F34.8°C 68.6°F20.3°C 43% 19.7 mph NE31.7 kmh NE 22.1 mph35.6 kmh 29.10 in985.4 mb 0.00 in0.0 mm 0.00 in/hr0.0 mm/hr 0.00 in0.0 mm
01:32 PM 94.6°F34.8°C 69.2°F20.7°C 44% 11.4 mph NE18.3 kmh NE 22.1 mph35.6 kmh 29.09 in985.1 mb 0.00 in0.0 mm 0.00 in/hr0.0 mm/hr 0.00 in0.0 mm
01:31 PM 94.6°F34.8°C 69.2°F20.7°C 44% 15.7 mph NE25.3 kmh NE 22.1 mph35.6 kmh 29.09 in985.1 mb 0.00 in0.0 mm 0.00 in/hr0.0 mm/hr 0.00 in0.0 mm
01:30 PM 94.6°F34.8°C 69.2°F20.7°C 44% 14.3 mph NE23.0 kmh NE 22.1 mph35.6 kmh 29.09 in985.1 mb 0.00 in0.0 mm 0.00 in/hr0.0 mm/hr 0.00 in0.0 mm
01:29 PM 94.6°F34.8°C 69.2°F20.7°C 44% 12.1 mph NE19.5 kmh NE 22.1 mph35.6 kmh 29.09 in985.1 mb 0.00 in0.0 mm 0.00 in/hr0.0 mm/hr 0.00 in0.0 mm
01:28 PM 94.6°F34.8°C 69.2°F20.7°C 44% 14.1 mph NE22.7 kmh NE 22.1 mph35.6 kmh 29.09 in985.1 mb 0.00 in0.0 mm 0.00 in/hr0.0 mm/hr 0.00 in0.0 mm
01:27 PM 94.6°F34.8°C 69.2°F20.7°C 44% 7.6 mph ENE12.2 kmh ENE 22.1 mph35.6 kmh 29.09 in985.1 mb 0.00 in0.0 mm 0.00 in/hr0.0 mm/hr 0.00 in0.0 mm
01:26 PM 94.5°F34.7°C 69.1°F20.6°C 44% 11.6 mph ENE18.7 kmh ENE 21.3 mph34.3 kmh 29.09 in985.1 mb 0.00 in0.0 mm 0.00 in/hr0.0 mm/hr 0.00 in0.0 mm
01:25 PM 94.5°F34.7°C 69.1°F20.6°C 44% 14.8 mph ENE23.8 kmh ENE 21.3 mph34.3 kmh 29.09 in985.1 mb 0.00 in0.0 mm 0.00 in/hr0.0 mm/hr 0.00 in0.0 mm
01:24 PM 94.3°F34.6°C 68.9°F20.5°C 44% 16.3 mph ENE26.2 kmh ENE 21.3 mph34.3 kmh 29.09 in985.1 mb 0.00 in0.0 mm 0.00 in/hr0.0 mm/hr 0.00 in0.0 mm
01:23 PM 94.3°F34.6°C 68.9°F20.5°C 44% 20.1 mph ENE32.3 kmh ENE 21.3 mph34.3 kmh 29.09 in985.1 mb 0.00 in0.0 mm 0.00 in/hr0.0 mm/hr 0.00 in0.0 mm
01:22 PM 94.3°F34.6°C 68.9°F20.5°C 44% 13.4 mph ENE21.6 kmh ENE 21.3 mph34.3 kmh 29.09 in985.1 mb 0.00 in0.0 mm 0.00 in/hr0.0 mm/hr 0.00 in0.0 mm
01:21 PM 94.1°F34.5°C 68.7°F20.4°C 44% 14.1 mph ENE22.7 kmh ENE 21.3 mph34.3 kmh 29.09 in985.1 mb 0.00 in0.0 mm 0.00 in/hr0.0 mm/hr 0.00 in0.0 mm
01:20 PM 94.1°F34.5°C 69.4°F20.8°C 45% 18.8 mph ENE30.3 kmh ENE 21.0 mph33.8 kmh 29.09 in985.1 mb 0.00 in0.0 mm 0.00 in/hr0.0 mm/hr 0.00 in0.0 mm
01:19 PM 93.9°F34.4°C 69.2°F20.7°C 45% 16.3 mph ENE26.2 kmh ENE 21.0 mph33.8 kmh 29.09 in985.1 mb 0.00 in0.0 mm 0.00 in/hr0.0 mm/hr 0.00 in0.0 mm
01:18 PM 93.9°F34.4°C 69.2°F20.7°C 45% 11.2 mph ENE18.0 kmh ENE 21.0 mph33.8 kmh 29.09 in985.1 mb 0.00 in0.0 mm 0.00 in/hr0.0 mm/hr 0.00 in0.0 mm
01:17 PM 93.7°F34.3°C 69.0°F20.6°C 45% 19.2 mph ENE30.9 kmh ENE 21.0 mph33.8 kmh 29.09 in985.1 mb 0.00 in0.0 mm 0.00 in/hr0.0 mm/hr 0.00 in0.0 mm
01:16 PM 93.7°F34.3°C 69.0°F20.6°C 45% 20.6 mph ENE33.2 kmh ENE 20.6 mph33.2 kmh 29.09 in985.1 mb 0.00 in0.0 mm 0.00 in/hr0.0 mm/hr 0.00 in0.0 mm
01:15 PM 93.7°F34.3°C 69.0°F20.6°C 45% 14.3 mph ENE23.0 kmh ENE 20.6 mph33.2 kmh 29.09 in985.1 mb 0.00 in0.0 mm 0.00 in/hr0.0 mm/hr 0.00 in0.0 mm
01:14 PM 93.6°F34.2°C 68.9°F20.5°C 45% 12.5 mph ENE20.1 kmh ENE 20.6 mph33.2 kmh 29.09 in985.1 mb 0.00 in0.0 mm 0.00 in/hr0.0 mm/hr 0.00 in0.0 mm
01:13 PM 93.6°F34.2°C 68.9°F20.5°C 45% 12.5 mph NE20.1 kmh NE 20.6 mph33.2 kmh 29.09 in985.1 mb 0.00 in0.0 mm 0.00 in/hr0.0 mm/hr 0.00 in0.0 mm
01:12 PM 93.4°F34.1°C 68.7°F20.4°C 45% 10.1 mph NE16.3 kmh NE 20.6 mph33.2 kmh 29.09 in985.1 mb 0.00 in0.0 mm 0.00 in/hr0.0 mm/hr 0.00 in0.0 mm
01:11 PM 93.4°F34.1°C 69.3°F20.7°C 46% 12.1 mph NE19.5 kmh NE 20.6 mph33.2 kmh 29.09 in985.1 mb 0.00 in0.0 mm 0.00 in/hr0.0 mm/hr 0.00 in0.0 mm
01:10 PM 93.2°F34.0°C 69.2°F20.7°C 46% 12.1 mph NE19.5 kmh NE 20.6 mph33.2 kmh 29.09 in985.1 mb 0.00 in0.0 mm 0.00 in/hr0.0 mm/hr 0.00 in0.0 mm
01:09 PM 93.0°F33.9°C 69.0°F20.6°C 46% 15.4 mph NE24.8 kmh NE 20.6 mph33.2 kmh 29.09 in985.1 mb 0.00 in0.0 mm 0.00 in/hr0.0 mm/hr 0.00 in0.0 mm
01:08 PM 93.0°F33.9°C 69.0°F20.6°C 46% 12.8 mph NE20.6 kmh NE 20.6 mph33.2 kmh 29.09 in985.1 mb 0.00 in0.0 mm 0.00 in/hr0.0 mm/hr 0.00 in0.0 mm
01:07 PM 93.0°F33.9°C 69.0°F20.6°C 46% 11.2 mph NE18.0 kmh NE 20.6 mph33.2 kmh 29.09 in985.1 mb 0.00 in0.0 mm 0.00 in/hr0.0 mm/hr 0.00 in0.0 mm
01:06 PM 93.0°F33.9°C 69.0°F20.6°C 46% 13.0 mph NE20.9 kmh NE 25.3 mph40.7 kmh 29.09 in985.1 mb 0.00 in0.0 mm 0.00 in/hr0.0 mm/hr 0.00 in0.0 mm
01:05 PM 93.0°F33.9°C 69.0°F20.6°C 46% 10.3 mph NE16.6 kmh NE 25.3 mph40.7 kmh 29.09 in985.1 mb 0.00 in0.0 mm 0.00 in/hr0.0 mm/hr 0.00 in0.0 mm
01:04 PM 92.8°F33.8°C 68.9°F20.5°C 46% 15.4 mph NE24.8 kmh NE 25.3 mph40.7 kmh 29.09 in985.1 mb 0.00 in0.0 mm 0.00 in/hr0.0 mm/hr 0.00 in0.0 mm
01:03 PM 92.8°F33.8°C 68.9°F20.5°C 46% 13.4 mph NE21.6 kmh NE 25.3 mph40.7 kmh 29.09 in985.1 mb 0.00 in0.0 mm 0.00 in/hr0.0 mm/hr 0.00 in0.0 mm
01:02 PM 92.8°F33.8°C 68.9°F20.5°C 46% 13.6 mph NE21.9 kmh NE 25.3 mph40.7 kmh 29.09 in985.1 mb 0.00 in0.0 mm 0.00 in/hr0.0 mm/hr 0.00 in0.0 mm
01:01 PM 92.8°F33.8°C 68.9°F20.5°C 46% 15.0 mph NE24.1 kmh NE 25.3 mph40.7 kmh 29.09 in985.1 mb 0.00 in0.0 mm 0.00 in/hr0.0 mm/hr 0.00 in0.0 mm
01:00 PM 92.8°F33.8°C 68.9°F20.5°C 46% 11.4 mph NE18.3 kmh NE 25.3 mph40.7 kmh 29.09 in985.1 mb 0.00 in0.0 mm 0.00 in/hr0.0 mm/hr 0.00 in0.0 mm
12:59 PM 92.8°F33.8°C 68.9°F20.5°C 46% 14.8 mph NE23.8 kmh NE 25.3 mph40.7 kmh 29.09 in985.1 mb 0.00 in0.0 mm 0.00 in/hr0.0 mm/hr 0.00 in0.0 mm
12:58 PM 92.7°F33.7°C 68.7°F20.4°C 46% 10.5 mph NE16.9 kmh NE 25.3 mph40.7 kmh 29.09 in985.1 mb 0.00 in0.0 mm 0.00 in/hr0.0 mm/hr 0.00 in0.0 mm
12:57 PM 92.7°F33.7°C 68.7°F20.4°C 46% 13.4 mph NE21.6 kmh NE 25.3 mph40.7 kmh 29.09 in985.1 mb 0.00 in0.0 mm 0.00 in/hr0.0 mm/hr 0.00 in0.0 mm
12:56 PM 92.7°F33.7°C 68.7°F20.4°C 46% 11.6 mph NE18.7 kmh NE 19.2 mph30.9 kmh 29.10 in985.4 mb 0.00 in0.0 mm 0.00 in/hr0.0 mm/hr 0.00 in0.0 mm
12:55 PM 92.5°F33.6°C 68.5°F20.3°C 46% 10.1 mph NE16.3 kmh NE 19.2 mph30.9 kmh 29.10 in985.4 mb 0.00 in0.0 mm 0.00 in/hr0.0 mm/hr 0.00 in0.0 mm
12:54 PM 92.5°F33.6°C 68.5°F20.3°C 46% 10.5 mph NE16.9 kmh NE 19.2 mph30.9 kmh 29.10 in985.4 mb 0.00 in0.0 mm 0.00 in/hr0.0 mm/hr 0.00 in0.0 mm
12:53 PM 92.5°F33.6°C 68.5°F20.3°C 46% 11.9 mph NE19.2 kmh NE 23.0 mph37.0 kmh 29.10 in985.4 mb 0.00 in0.0 mm 0.00 in/hr0.0 mm/hr 0.00 in0.0 mm
12:52 PM 92.5°F33.6°C 68.5°F20.3°C 46% 7.2 mph NE11.6 kmh NE 23.0 mph37.0 kmh 29.10 in985.4 mb 0.00 in0.0 mm 0.00 in/hr0.0 mm/hr 0.00 in0.0 mm
12:51 PM 92.5°F33.6°C 68.5°F20.3°C 46% 5.4 mph NE8.7 kmh NE 23.0 mph37.0 kmh 29.11 in985.8 mb 0.00 in0.0 mm 0.00 in/hr0.0 mm/hr 0.00 in0.0 mm
12:50 PM 92.3°F33.5°C 68.4°F20.2°C 46% 10.7 mph NE17.2 kmh NE 23.0 mph37.0 kmh 29.10 in985.4 mb 0.00 in0.0 mm 0.00 in/hr0.0 mm/hr 0.00 in0.0 mm
12:49 PM 92.3°F33.5°C 68.4°F20.2°C 46% 16.6 mph NE26.7 kmh NE 23.0 mph37.0 kmh 29.10 in985.4 mb 0.00 in0.0 mm 0.00 in/hr0.0 mm/hr 0.00 in0.0 mm
12:48 PM 92.3°F33.5°C 69.0°F20.6°C 47% 14.5 mph NE23.3 kmh NE 26.2 mph42.2 kmh 29.10 in985.4 mb 0.00 in0.0 mm 0.00 in/hr0.0 mm/hr 0.00 in0.0 mm
12:47 PM 92.1°F33.4°C 68.9°F20.5°C 47% 16.3 mph NE26.2 kmh NE 26.2 mph42.2 kmh 29.11 in985.8 mb 0.00 in0.0 mm 0.00 in/hr0.0 mm/hr 0.00 in0.0 mm
12:46 PM 92.1°F33.4°C 68.9°F20.5°C 47% 15.9 mph NE25.6 kmh NE 26.2 mph42.2 kmh 29.11 in985.8 mb 0.00 in0.0 mm 0.00 in/hr0.0 mm/hr 0.00 in0.0 mm
12:45 PM 91.9°F33.3°C 68.7°F20.4°C 47% 13.2 mph NE21.2 kmh NE 26.2 mph42.2 kmh 29.10 in985.4 mb 0.00 in0.0 mm 0.00 in/hr0.0 mm/hr 0.00 in0.0 mm
12:44 PM 91.9°F33.3°C 68.7°F20.4°C 47% 23.0 mph NE37.0 kmh NE 26.2 mph42.2 kmh 29.10 in985.4 mb 0.00 in0.0 mm 0.00 in/hr0.0 mm/hr 0.00 in0.0 mm
12:43 PM 91.9°F33.3°C 68.7°F20.4°C 47% 19.9 mph NE32.0 kmh NE 26.2 mph42.2 kmh 29.10 in985.4 mb 0.00 in0.0 mm 0.00 in/hr0.0 mm/hr 0.00 in0.0 mm
12:42 PM 91.9°F33.3°C 68.7°F20.4°C 47% 10.5 mph NE16.9 kmh NE 26.2 mph42.2 kmh 29.10 in985.4 mb 0.00 in0.0 mm 0.00 in/hr0.0 mm/hr 0.00 in0.0 mm
12:41 PM 91.8°F33.2°C 68.5°F20.3°C 47% 13.0 mph NE20.9 kmh NE 26.2 mph42.2 kmh 29.11 in985.8 mb 0.00 in0.0 mm 0.00 in/hr0.0 mm/hr 0.00 in0.0 mm
12:40 PM 91.8°F33.2°C 68.5°F20.3°C 47% 11.6 mph NE18.7 kmh NE 26.2 mph42.2 kmh 29.11 in985.8 mb 0.00 in0.0 mm 0.00 in/hr0.0 mm/hr 0.00 in0.0 mm
12:39 PM 91.6°F33.1°C 68.4°F20.2°C 47% 17.7 mph NE28.5 kmh NE 26.2 mph42.2 kmh 29.11 in985.8 mb 0.00 in0.0 mm 0.00 in/hr0.0 mm/hr 0.00 in0.0 mm
12:38 PM 91.6°F33.1°C 68.4°F20.2°C 47% 12.3 mph NE19.8 kmh NE 19.2 mph30.9 kmh 29.11 in985.8 mb 0.00 in0.0 mm 0.00 in/hr0.0 mm/hr 0.00 in0.0 mm
12:37 PM 91.6°F33.1°C 68.4°F20.2°C 47% 10.1 mph NE16.3 kmh NE 19.2 mph30.9 kmh 29.11 in985.8 mb 0.00 in0.0 mm 0.00 in/hr0.0 mm/hr 0.00 in0.0 mm
12:36 PM 91.6°F33.1°C 68.4°F20.2°C 47% 9.6 mph NE15.4 kmh NE 19.2 mph30.9 kmh 29.11 in985.8 mb 0.00 in0.0 mm 0.00 in/hr0.0 mm/hr 0.00 in0.0 mm
12:35 PM 91.6°F33.1°C 68.4°F20.2°C 47% 11.9 mph NE19.2 kmh NE 19.2 mph30.9 kmh 29.11 in985.8 mb 0.00 in0.0 mm 0.00 in/hr0.0 mm/hr 0.00 in0.0 mm
12:34 PM 91.6°F33.1°C 68.4°F20.2°C 47% 10.3 mph NE16.6 kmh NE 19.2 mph30.9 kmh 29.11 in985.8 mb 0.00 in0.0 mm 0.00 in/hr0.0 mm/hr 0.00 in0.0 mm
12:33 PM 91.6°F33.1°C 68.4°F20.2°C 47% 11.0 mph NE17.7 kmh NE 19.2 mph30.9 kmh 29.11 in985.8 mb 0.00 in0.0 mm 0.00 in/hr0.0 mm/hr 0.00 in0.0 mm
12:32 PM 91.8°F33.2°C 68.5°F20.3°C 47% 12.3 mph NE19.8 kmh NE 19.2 mph30.9 kmh 29.11 in985.8 mb 0.00 in0.0 mm 0.00 in/hr0.0 mm/hr 0.00 in0.0 mm
12:31 PM 91.8°F33.2°C 68.5°F20.3°C 47% 19.2 mph NE30.9 kmh NE 19.2 mph30.9 kmh 29.11 in985.8 mb 0.00 in0.0 mm 0.00 in/hr0.0 mm/hr 0.00 in0.0 mm
12:30 PM 91.8°F33.2°C 68.5°F20.3°C 47% 9.2 mph NE14.8 kmh NE 18.8 mph30.3 kmh 29.11 in985.8 mb 0.00 in0.0 mm 0.00 in/hr0.0 mm/hr 0.00 in0.0 mm
12:29 PM 91.8°F33.2°C 68.5°F20.3°C 47% 13.4 mph NE21.6 kmh NE 18.8 mph30.3 kmh 29.11 in985.8 mb 0.00 in0.0 mm 0.00 in/hr0.0 mm/hr 0.00 in0.0 mm
12:28 PM 91.8°F33.2°C 68.5°F20.3°C 47% 11.2 mph NE18.0 kmh NE 19.7 mph31.7 kmh 29.11 in985.8 mb 0.00 in0.0 mm 0.00 in/hr0.0 mm/hr 0.00 in0.0 mm
12:27 PM 91.8°F33.2°C 68.5°F20.3°C 47% 11.0 mph NE17.7 kmh NE 19.7 mph31.7 kmh 29.11 in985.8 mb 0.00 in0.0 mm 0.00 in/hr0.0 mm/hr 0.00 in0.0 mm
12:26 PM 91.8°F33.2°C 68.5°F20.3°C 47% 10.3 mph NE16.6 kmh NE 19.7 mph31.7 kmh 29.11 in985.8 mb 0.00 in0.0 mm 0.00 in/hr0.0 mm/hr 0.00 in0.0 mm
12:25 PM 91.8°F33.2°C 69.2°F20.7°C 48% 10.5 mph NE16.9 kmh NE 19.7 mph31.7 kmh 29.11 in985.8 mb 0.00 in0.0 mm 0.00 in/hr0.0 mm/hr 0.00 in0.0 mm
12:24 PM 91.6°F33.1°C 69.0°F20.6°C 48% 13.4 mph NE21.6 kmh NE 19.7 mph31.7 kmh 29.11 in985.8 mb 0.00 in0.0 mm 0.00 in/hr0.0 mm/hr 0.00 in0.0 mm
12:23 PM 91.6°F33.1°C 69.0°F20.6°C 48% 12.3 mph NE19.8 kmh NE 19.7 mph31.7 kmh 29.11 in985.8 mb 0.00 in0.0 mm 0.00 in/hr0.0 mm/hr 0.00 in0.0 mm
12:22 PM 91.6°F33.1°C 69.0°F20.6°C 48% 15.4 mph NE24.8 kmh NE 19.7 mph31.7 kmh 29.10 in985.4 mb 0.00 in0.0 mm 0.00 in/hr0.0 mm/hr 0.00 in0.0 mm
12:21 PM 91.6°F33.1°C 69.0°F20.6°C 48% 8.7 mph NE14.0 kmh NE 19.7 mph31.7 kmh 29.10 in985.4 mb 0.00 in0.0 mm 0.00 in/hr0.0 mm/hr 0.00 in0.0 mm
12:20 PM 91.2°F32.9°C 68.7°F20.4°C 48% 15.0 mph NE24.1 kmh NE 19.7 mph31.7 kmh 29.10 in985.4 mb 0.00 in0.0 mm 0.00 in/hr0.0 mm/hr 0.00 in0.0 mm
12:19 PM 91.2°F32.9°C 68.7°F20.4°C 48% 17.4 mph NE28.0 kmh NE 19.7 mph31.7 kmh 29.11 in985.8 mb 0.00 in0.0 mm 0.00 in/hr0.0 mm/hr 0.00 in0.0 mm
12:18 PM 91.0°F32.8°C 68.5°F20.3°C 48% 17.4 mph NE28.0 kmh NE 19.0 mph30.6 kmh 29.11 in985.8 mb 0.00 in0.0 mm 0.00 in/hr0.0 mm/hr 0.00 in0.0 mm
12:17 PM 90.9°F32.7°C 69.0°F20.6°C 49% 12.1 mph NE19.5 kmh NE 17.4 mph28.0 kmh 29.11 in985.8 mb 0.00 in0.0 mm 0.00 in/hr0.0 mm/hr 0.00 in0.0 mm
12:16 PM 90.7°F32.6°C 68.9°F20.5°C 49% 13.0 mph NE20.9 kmh NE 17.4 mph28.0 kmh 29.11 in985.8 mb 0.00 in0.0 mm 0.00 in/hr0.0 mm/hr 0.00 in0.0 mm
12:15 PM 90.5°F32.5°C 68.7°F20.4°C 49% 11.9 mph NE19.2 kmh NE 17.4 mph28.0 kmh 29.11 in985.8 mb 0.00 in0.0 mm 0.00 in/hr0.0 mm/hr 0.00 in0.0 mm
12:14 PM 90.3°F32.4°C 68.5°F20.3°C 49% 8.3 mph NE13.4 kmh NE 17.4 mph28.0 kmh 29.11 in985.8 mb 0.00 in0.0 mm 0.00 in/hr0.0 mm/hr 0.00 in0.0 mm
12:13 PM 90.1°F32.3°C 68.4°F20.2°C 49% 14.1 mph NNE22.7 kmh NNE 17.4 mph28.0 kmh 29.11 in985.8 mb 0.00 in0.0 mm 0.00 in/hr0.0 mm/hr 0.00 in0.0 mm
12:12 PM 90.0°F32.2°C 68.2°F20.1°C 49% 16.1 mph NNE25.9 kmh NNE 17.4 mph28.0 kmh 29.11 in985.8 mb 0.00 in0.0 mm 0.00 in/hr0.0 mm/hr 0.00 in0.0 mm
12:11 PM 89.8°F32.1°C 68.1°F20.1°C 49% 7.8 mph NE12.6 kmh NE 17.4 mph28.0 kmh 29.12 in986.1 mb 0.00 in0.0 mm 0.00 in/hr0.0 mm/hr 0.00 in0.0 mm
12:10 PM 89.8°F32.1°C 68.1°F20.1°C 49% 8.9 mph NE14.3 kmh NE 17.9 mph28.8 kmh 29.12 in986.1 mb 0.00 in0.0 mm 0.00 in/hr0.0 mm/hr 0.00 in0.0 mm
12:09 PM 89.4°F31.9°C 67.7°F19.8°C 49% 11.2 mph NE18.0 kmh NE 20.6 mph33.2 kmh 29.12 in986.1 mb 0.00 in0.0 mm 0.00 in/hr0.0 mm/hr 0.00 in0.0 mm
12:08 PM 89.4°F31.9°C 67.7°F19.8°C 49% 13.2 mph NE21.2 kmh NE 20.6 mph33.2 kmh 29.12 in986.1 mb 0.00 in0.0 mm 0.00 in/hr0.0 mm/hr 0.00 in0.0 mm
12:07 PM 89.4°F31.9°C 68.4°F20.2°C 50% 13.2 mph NE21.2 kmh NE 20.6 mph33.2 kmh 29.12 in986.1 mb 0.00 in0.0 mm 0.00 in/hr0.0 mm/hr 0.00 in0.0 mm
12:06 PM 89.2°F31.8°C 67.6°F19.8°C 49% 5.4 mph NE8.7 kmh NE 20.6 mph33.2 kmh 29.12 in986.1 mb 0.00 in0.0 mm 0.00 in/hr0.0 mm/hr 0.00 in0.0 mm
12:05 PM 89.2°F31.8°C 67.6°F19.8°C 49% 7.4 mph NE11.9 kmh NE 20.6 mph33.2 kmh 29.12 in986.1 mb 0.00 in0.0 mm 0.00 in/hr0.0 mm/hr 0.00 in0.0 mm
12:04 PM 89.2°F31.8°C 67.6°F19.8°C 49% 8.3 mph NE13.4 kmh NE 20.6 mph33.2 kmh 29.12 in986.1 mb 0.00 in0.0 mm 0.00 in/hr0.0 mm/hr 0.00 in0.0 mm
12:03 PM 89.2°F31.8°C 67.6°F19.8°C 49% 9.4 mph NE15.1 kmh NE 20.6 mph33.2 kmh 29.12 in986.1 mb 0.00 in0.0 mm 0.00 in/hr0.0 mm/hr 0.00 in0.0 mm
12:02 PM 89.2°F31.8°C 67.6°F19.8°C 49% 12.8 mph NE20.6 kmh NE 20.6 mph33.2 kmh 29.11 in985.8 mb 0.00 in0.0 mm 0.00 in/hr0.0 mm/hr 0.00 in0.0 mm
12:01 PM 89.2°F31.8°C 67.6°F19.8°C 49% 17.9 mph NE28.8 kmh NE 20.6 mph33.2 kmh 29.12 in986.1 mb 0.00 in0.0 mm 0.00 in/hr0.0 mm/hr 0.00 in0.0 mm
12:00 PM 89.1°F31.7°C 67.4°F19.7°C 49% 15.2 mph NE24.5 kmh NE 20.6 mph33.2 kmh 29.12 in986.1 mb 0.00 in0.0 mm 0.00 in/hr0.0 mm/hr 0.00 in0.0 mm
11:59 AM 89.1°F31.7°C 67.4°F19.7°C 49% 7.4 mph NE11.9 kmh NE 15.9 mph25.6 kmh 29.12 in986.1 mb 0.00 in0.0 mm 0.00 in/hr0.0 mm/hr 0.00 in0.0 mm
11:58 AM 89.1°F31.7°C 67.2°F19.6°C 49% 14.5 mph NNE23.3 kmh NNE 15.9 mph25.6 kmh 29.12 in986.1 mb 0.00 in0.0 mm 0.00 in/hr0.0 mm/hr 0.00 in0.0 mm
11:57 AM 88.9°F31.6°C 67.2°F19.6°C 49% 12.3 mph NNE19.8 kmh NNE 15.9 mph25.6 kmh 29.12 in986.1 mb 0.00 in0.0 mm 0.00 in/hr0.0 mm/hr 0.00 in0.0 mm
11:56 AM 88.9°F31.6°C 67.9°F19.9°C 50% 9.2 mph NNE14.8 kmh NNE 15.9 mph25.6 kmh 29.12 in986.1 mb 0.00 in0.0 mm 0.00 in/hr0.0 mm/hr 0.00 in0.0 mm
11:55 AM 88.9°F31.6°C 67.9°F19.9°C 50% 8.3 mph NNE13.4 kmh NNE 17.2 mph27.7 kmh 29.12 in986.1 mb 0.00 in0.0 mm 0.00 in/hr0.0 mm/hr 0.00 in0.0 mm
11:54 AM 88.9°F31.6°C 67.9°F19.9°C 50% 10.5 mph NNE16.9 kmh NNE 17.2 mph27.7 kmh 29.12 in986.1 mb 0.00 in0.0 mm 0.00 in/hr0.0 mm/hr 0.00 in0.0 mm
11:53 AM 88.9°F31.6°C 67.9°F19.9°C 50% 3.1 mph NNE5.0 kmh NNE 17.9 mph28.8 kmh 29.12 in986.1 mb 0.00 in0.0 mm 0.00 in/hr0.0 mm/hr 0.00 in0.0 mm
11:52 AM 88.7°F31.5°C 67.7°F19.8°C 50% 8.7 mph NNE14.0 kmh NNE 17.9 mph28.8 kmh 29.12 in986.1 mb 0.00 in0.0 mm 0.00 in/hr0.0 mm/hr 0.00 in0.0 mm
11:51 AM 88.7°F31.5°C 67.7°F19.8°C 50% 6.7 mph NNE10.8 kmh NNE 17.9 mph28.8 kmh 29.12 in986.1 mb 0.00 in0.0 mm 0.00 in/hr0.0 mm/hr 0.00 in0.0 mm
11:50 AM 88.7°F31.5°C 67.7°F19.8°C 50% 11.2 mph NNE18.0 kmh NNE 17.9 mph28.8 kmh 29.12 in986.1 mb 0.00 in0.0 mm 0.00 in/hr0.0 mm/hr 0.00 in0.0 mm
11:49 AM 88.7°F31.5°C 67.7°F19.8°C 50% 14.3 mph NNE23.0 kmh NNE 17.9 mph28.8 kmh 29.12 in986.1 mb 0.00 in0.0 mm 0.00 in/hr0.0 mm/hr 0.00 in0.0 mm
11:48 AM 88.7°F31.5°C 67.7°F19.8°C 50% 11.9 mph NNE19.2 kmh NNE 17.9 mph28.8 kmh 29.12 in986.1 mb 0.00 in0.0 mm 0.00 in/hr0.0 mm/hr 0.00 in0.0 mm
11:47 AM 88.7°F31.5°C 67.7°F19.8°C 50% 9.4 mph NNE15.1 kmh NNE 17.9 mph28.8 kmh 29.12 in986.1 mb 0.00 in0.0 mm 0.00 in/hr0.0 mm/hr 0.00 in0.0 mm
11:46 AM 88.7°F31.5°C 67.7°F19.8°C 50% 13.2 mph NNE21.2 kmh NNE 17.9 mph28.8 kmh 29.12 in986.1 mb 0.00 in0.0 mm 0.00 in/hr0.0 mm/hr 0.00 in0.0 mm
11:45 AM 88.7°F31.5°C 67.7°F19.8°C 50% 10.7 mph NNE17.2 kmh NNE 17.9 mph28.8 kmh 29.12 in986.1 mb 0.00 in0.0 mm 0.00 in/hr0.0 mm/hr 0.00 in0.0 mm
11:44 AM 88.5°F31.4°C 67.6°F19.8°C 50% 14.3 mph NNE23.0 kmh NNE 17.9 mph28.8 kmh 29.12 in986.1 mb 0.00 in0.0 mm 0.00 in/hr0.0 mm/hr 0.00 in0.0 mm
11:43 AM 88.5°F31.4°C 67.6°F19.8°C 50% 17.9 mph NNE28.8 kmh NNE 17.9 mph28.8 kmh 29.12 in986.1 mb 0.00 in0.0 mm 0.00 in/hr0.0 mm/hr 0.00 in0.0 mm
11:42 AM 88.5°F31.4°C 67.6°F19.8°C 50% 10.1 mph NNE16.3 kmh NNE 17.2 mph27.7 kmh 29.12 in986.1 mb 0.00 in0.0 mm 0.00 in/hr0.0 mm/hr 0.00 in0.0 mm
11:41 AM 88.5°F31.4°C 67.6°F19.8°C 50% 13.4 mph NNE21.6 kmh NNE 17.2 mph27.7 kmh 29.12 in986.1 mb 0.00 in0.0 mm 0.00 in/hr0.0 mm/hr 0.00 in0.0 mm
11:40 AM 88.5°F31.4°C 67.6°F19.8°C 50% 11.6 mph NNE18.7 kmh NNE 17.2 mph27.7 kmh 29.13 in986.5 mb 0.00 in0.0 mm 0.00 in/hr0.0 mm/hr 0.00 in0.0 mm
11:39 AM 88.5°F31.4°C 67.6°F19.8°C 50% 11.6 mph NNE18.7 kmh NNE 17.2 mph27.7 kmh 29.12 in986.1 mb 0.00 in0.0 mm 0.00 in/hr0.0 mm/hr 0.00 in0.0 mm
11:38 AM 88.5°F31.4°C 67.6°F19.8°C 50% 13.4 mph N21.6 kmh N 13.9 mph22.4 kmh 29.13 in986.5 mb 0.00 in0.0 mm 0.00 in/hr0.0 mm/hr 0.00 in0.0 mm
11:37 AM 88.5°F31.4°C 67.6°F19.8°C 50% 10.1 mph N16.3 kmh N 13.4 mph21.6 kmh 29.14 in986.8 mb 0.00 in0.0 mm 0.00 in/hr0.0 mm/hr 0.00 in0.0 mm
11:36 AM 88.3°F31.3°C 67.4°F19.7°C 50% 7.6 mph N12.2 kmh N 13.4 mph21.6 kmh 29.13 in986.5 mb 0.00 in0.0 mm 0.00 in/hr0.0 mm/hr 0.00 in0.0 mm
11:35 AM 88.3°F31.3°C 67.4°F19.7°C 50% 8.5 mph N13.7 kmh N 11.9 mph19.2 kmh 29.14 in986.8 mb 0.00 in0.0 mm 0.00 in/hr0.0 mm/hr 0.00 in0.0 mm
11:34 AM 88.3°F31.3°C 67.4°F19.7°C 50% 7.2 mph N11.6 kmh N 14.5 mph23.3 kmh 29.13 in986.5 mb 0.00 in0.0 mm 0.00 in/hr0.0 mm/hr 0.00 in0.0 mm
11:33 AM 88.2°F31.2°C 67.2°F19.6°C 50% 4.5 mph N7.2 kmh N 14.8 mph23.8 kmh 29.13 in986.5 mb 0.00 in0.0 mm 0.00 in/hr0.0 mm/hr 0.00 in0.0 mm
11:32 AM 88.2°F31.2°C 67.2°F19.6°C 50% 5.1 mph N8.2 kmh N 14.8 mph23.8 kmh 29.13 in986.5 mb 0.00 in0.0 mm 0.00 in/hr0.0 mm/hr 0.00 in0.0 mm
11:31 AM 88.2°F31.2°C 67.2°F19.6°C 50% 6.3 mph N10.1 kmh N 16.1 mph25.9 kmh 29.13 in986.5 mb 0.00 in0.0 mm 0.00 in/hr0.0 mm/hr 0.00 in0.0 mm
11:30 AM 88.0°F31.1°C 67.1°F19.5°C 50% 8.3 mph N13.4 kmh N 16.1 mph25.9 kmh 29.13 in986.5 mb 0.00 in0.0 mm 0.00 in/hr0.0 mm/hr 0.00 in0.0 mm
11:29 AM 88.0°F31.1°C 67.1°F19.5°C 50% 7.4 mph N11.9 kmh N 16.1 mph25.9 kmh 29.14 in986.8 mb 0.00 in0.0 mm 0.00 in/hr0.0 mm/hr 0.00 in0.0 mm
11:28 AM 88.2°F31.2°C 67.2°F19.6°C 50% 9.8 mph N15.8 kmh N 16.1 mph25.9 kmh 29.13 in986.5 mb 0.00 in0.0 mm 0.00 in/hr0.0 mm/hr 0.00 in0.0 mm
11:27 AM 88.2°F31.2°C 67.2°F19.6°C 50% 10.7 mph NNE17.2 kmh NNE 16.1 mph25.9 kmh 29.13 in986.5 mb 0.00 in0.0 mm 0.00 in/hr0.0 mm/hr 0.00 in0.0 mm
11:26 AM 88.2°F31.2°C 66.6°F19.2°C 49% 9.6 mph N15.4 kmh N 16.1 mph25.9 kmh 29.13 in986.5 mb 0.00 in0.0 mm 0.00 in/hr0.0 mm/hr 0.00 in0.0 mm
11:25 AM 88.2°F31.2°C 66.6°F19.2°C 49% 11.4 mph N18.3 kmh N 16.1 mph25.9 kmh 29.13 in986.5 mb 0.00 in0.0 mm 0.00 in/hr0.0 mm/hr 0.00 in0.0 mm
11:24 AM 88.3°F31.3°C 66.8°F19.3°C 49% 14.1 mph N22.7 kmh N 16.1 mph25.9 kmh 29.13 in986.5 mb 0.00 in0.0 mm 0.00 in/hr0.0 mm/hr 0.00 in0.0 mm
11:23 AM 88.3°F31.3°C 66.8°F19.3°C 49% 6.7 mph N10.8 kmh N 16.1 mph25.9 kmh 29.13 in986.5 mb 0.00 in0.0 mm 0.00 in/hr0.0 mm/hr 0.00 in0.0 mm
11:22 AM 88.3°F31.3°C 66.8°F19.3°C 49% 9.8 mph N15.8 kmh N 16.1 mph25.9 kmh 29.13 in986.5 mb 0.00 in0.0 mm 0.00 in/hr0.0 mm/hr 0.00 in0.0 mm
11:21 AM 88.3°F31.3°C 66.8°F19.3°C 49% 13.2 mph N21.2 kmh N 15.0 mph24.1 kmh 29.13 in986.5 mb 0.00 in0.0 mm 0.00 in/hr0.0 mm/hr 0.00 in0.0 mm
11:20 AM 88.3°F31.3°C 66.8°F19.3°C 49% 11.6 mph N18.7 kmh N 15.0 mph24.1 kmh 29.13 in986.5 mb 0.00 in0.0 mm 0.00 in/hr0.0 mm/hr 0.00 in0.0 mm
11:19 AM 88.5°F31.4°C 66.9°F19.4°C 49% 8.3 mph NNW13.4 kmh NNW 15.0 mph24.1 kmh 29.14 in986.8 mb 0.00 in0.0 mm 0.00 in/hr0.0 mm/hr 0.00 in0.0 mm
11:18 AM 88.5°F31.4°C 67.6°F19.8°C 50% 12.3 mph NNW19.8 kmh NNW 15.0 mph24.1 kmh 29.14 in986.8 mb 0.00 in0.0 mm 0.00 in/hr0.0 mm/hr 0.00 in0.0 mm
11:17 AM 88.5°F31.4°C 66.9°F19.4°C 49% 7.2 mph NW11.6 kmh NW 15.0 mph24.1 kmh 29.14 in986.8 mb 0.00 in0.0 mm 0.00 in/hr0.0 mm/hr 0.00 in0.0 mm
11:16 AM 88.5°F31.4°C 66.9°F19.4°C 49% 9.6 mph NW15.4 kmh NW 16.3 mph26.2 kmh 29.15 in987.1 mb 0.00 in0.0 mm 0.00 in/hr0.0 mm/hr 0.00 in0.0 mm
11:15 AM 88.5°F31.4°C 66.9°F19.4°C 49% 4.3 mph NW6.9 kmh NW 16.3 mph26.2 kmh 29.14 in986.8 mb 0.00 in0.0 mm 0.00 in/hr0.0 mm/hr 0.00 in0.0 mm
11:14 AM 88.5°F31.4°C 66.9°F19.4°C 49% 1.6 mph NNW2.6 kmh NNW 16.3 mph26.2 kmh 29.15 in987.1 mb 0.00 in0.0 mm 0.00 in/hr0.0 mm/hr 0.00 in0.0 mm
11:13 AM 88.5°F31.4°C 66.9°F19.4°C 49% 6.9 mph NNW11.1 kmh NNW 16.3 mph26.2 kmh 29.15 in987.1 mb 0.00 in0.0 mm 0.00 in/hr0.0 mm/hr 0.00 in0.0 mm
11:12 AM 88.5°F31.4°C 66.9°F19.4°C 49% 10.1 mph NNW16.3 kmh NNW 16.3 mph26.2 kmh 29.14 in986.8 mb 0.00 in0.0 mm 0.00 in/hr0.0 mm/hr 0.00 in0.0 mm
11:11 AM 88.7°F31.5°C 67.7°F19.8°C 50% 10.1 mph NW16.3 kmh NW 16.3 mph26.2 kmh 29.15 in987.1 mb 0.00 in0.0 mm 0.00 in/hr0.0 mm/hr 0.00 in0.0 mm
11:10 AM 88.5°F31.4°C 67.6°F19.8°C 50% 6.9 mph NW11.1 kmh NW 16.3 mph26.2 kmh 29.14 in986.8 mb 0.00 in0.0 mm 0.00 in/hr0.0 mm/hr 0.00 in0.0 mm
11:09 AM 88.5°F31.4°C 67.6°F19.8°C 50% 7.4 mph NW11.9 kmh NW 19.5 mph31.4 kmh 29.14 in986.8 mb 0.00 in0.0 mm 0.00 in/hr0.0 mm/hr 0.00 in0.0 mm
11:08 AM 88.5°F31.4°C 67.6°F19.8°C 50% 11.4 mph NW18.3 kmh NW 19.5 mph31.4 kmh 29.14 in986.8 mb 0.00 in0.0 mm 0.00 in/hr0.0 mm/hr 0.00 in0.0 mm
11:07 AM 88.5°F31.4°C 67.6°F19.8°C 50% 15.0 mph NW24.1 kmh NW 19.5 mph31.4 kmh 29.14 in986.8 mb 0.00 in0.0 mm 0.00 in/hr0.0 mm/hr 0.00 in0.0 mm
11:06 AM 88.5°F31.4°C 67.6°F19.8°C 50% 13.6 mph NW21.9 kmh NW 19.5 mph31.4 kmh 29.14 in986.8 mb 0.00 in0.0 mm 0.00 in/hr0.0 mm/hr 0.00 in0.0 mm
11:05 AM 88.5°F31.4°C 67.6°F19.8°C 50% 15.2 mph NW24.5 kmh NW 19.5 mph31.4 kmh 29.15 in987.1 mb 0.00 in0.0 mm 0.00 in/hr0.0 mm/hr 0.00 in0.0 mm
11:04 AM 88.5°F31.4°C 67.6°F19.8°C 50% 7.8 mph NW12.6 kmh NW 21.7 mph34.9 kmh 29.15 in987.1 mb 0.00 in0.0 mm 0.00 in/hr0.0 mm/hr 0.00 in0.0 mm
11:03 AM 88.5°F31.4°C 67.6°F19.8°C 50% 7.8 mph WNW12.6 kmh WNW 21.7 mph34.9 kmh 29.15 in987.1 mb 0.00 in0.0 mm 0.00 in/hr0.0 mm/hr 0.00 in0.0 mm
11:02 AM 88.5°F31.4°C 67.6°F19.8°C 50% 9.8 mph WNW15.8 kmh WNW 21.7 mph34.9 kmh 29.15 in987.1 mb 0.00 in0.0 mm 0.00 in/hr0.0 mm/hr 0.00 in0.0 mm
11:01 AM 88.5°F31.4°C 67.6°F19.8°C 50% 10.3 mph NW16.6 kmh NW 21.7 mph34.9 kmh 29.16 in987.5 mb 0.00 in0.0 mm 0.00 in/hr0.0 mm/hr 0.00 in0.0 mm
11:00 AM 88.5°F31.4°C 67.6°F19.8°C 50% 11.9 mph NW19.2 kmh NW 21.7 mph34.9 kmh 29.16 in987.5 mb 0.00 in0.0 mm 0.00 in/hr0.0 mm/hr 0.00 in0.0 mm
10:59 AM 88.5°F31.4°C 67.4°F19.7°C 50% 11.0 mph NW17.7 kmh NW 21.7 mph34.9 kmh 29.16 in987.5 mb 0.00 in0.0 mm 0.00 in/hr0.0 mm/hr 0.00 in0.0 mm
10:58 AM 88.3°F31.3°C 67.4°F19.7°C 50% 7.4 mph NW11.9 kmh NW 21.7 mph34.9 kmh 29.15 in987.1 mb 0.00 in0.0 mm 0.00 in/hr0.0 mm/hr 0.00 in0.0 mm
10:57 AM 88.3°F31.3°C 67.4°F19.7°C 50% 8.7 mph NW14.0 kmh NW 21.7 mph34.9 kmh 29.16 in987.5 mb 0.00 in0.0 mm 0.00 in/hr0.0 mm/hr 0.00 in0.0 mm
10:56 AM 88.3°F31.3°C 67.4°F19.7°C 50% 10.3 mph NW16.6 kmh NW 21.7 mph34.9 kmh 29.16 in987.5 mb 0.00 in0.0 mm 0.00 in/hr0.0 mm/hr 0.00 in0.0 mm
10:55 AM 88.3°F31.3°C 67.4°F19.7°C 50% 15.4 mph NW24.8 kmh NW 22.8 mph36.7 kmh 29.16 in987.5 mb 0.00 in0.0 mm 0.00 in/hr0.0 mm/hr 0.00 in0.0 mm
10:54 AM 88.3°F31.3°C 67.4°F19.7°C 50% 14.1 mph NW22.7 kmh NW 22.8 mph36.7 kmh 29.16 in987.5 mb 0.00 in0.0 mm 0.00 in/hr0.0 mm/hr 0.00 in0.0 mm
10:53 AM 88.5°F31.4°C 67.6°F19.8°C 50% 12.5 mph NW20.1 kmh NW 22.8 mph36.7 kmh 29.16 in987.5 mb 0.00 in0.0 mm 0.00 in/hr0.0 mm/hr 0.00 in0.0 mm
10:52 AM 88.5°F31.4°C 67.6°F19.8°C 50% 8.5 mph NW13.7 kmh NW 22.8 mph36.7 kmh 29.15 in987.1 mb 0.00 in0.0 mm 0.00 in/hr0.0 mm/hr 0.00 in0.0 mm
10:51 AM 88.5°F31.4°C 67.6°F19.8°C 50% 15.9 mph NW25.6 kmh NW 22.8 mph36.7 kmh 29.15 in987.1 mb 0.00 in0.0 mm 0.00 in/hr0.0 mm/hr 0.00 in0.0 mm
10:50 AM 88.5°F31.4°C 67.6°F19.8°C 50% 9.2 mph NW14.8 kmh NW 22.8 mph36.7 kmh 29.15 in987.1 mb 0.00 in0.0 mm 0.00 in/hr0.0 mm/hr 0.00 in0.0 mm
10:49 AM 88.5°F31.4°C 67.6°F19.8°C 50% 13.9 mph NW22.4 kmh NW 22.8 mph36.7 kmh 29.15 in987.1 mb 0.00 in0.0 mm 0.00 in/hr0.0 mm/hr 0.00 in0.0 mm
10:48 AM 88.5°F31.4°C 67.6°F19.8°C 50% 12.1 mph NW19.5 kmh NW 22.8 mph36.7 kmh 29.16 in987.5 mb 0.00 in0.0 mm 0.00 in/hr0.0 mm/hr 0.00 in0.0 mm
10:47 AM 88.5°F31.4°C 67.6°F19.8°C 50% 14.5 mph NW23.3 kmh NW 22.8 mph36.7 kmh 29.15 in987.1 mb 0.00 in0.0 mm 0.00 in/hr0.0 mm/hr 0.00 in0.0 mm
10:46 AM 88.5°F31.4°C 67.6°F19.8°C 50% 19.2 mph NW30.9 kmh NW 22.8 mph36.7 kmh 29.15 in987.1 mb 0.00 in0.0 mm 0.00 in/hr0.0 mm/hr 0.00 in0.0 mm
10:45 AM 88.5°F31.4°C 67.6°F19.8°C 50% 9.6 mph NW15.4 kmh NW 22.1 mph35.6 kmh 29.16 in987.5 mb 0.00 in0.0 mm 0.00 in/hr0.0 mm/hr 0.00 in0.0 mm
10:44 AM 88.7°F31.5°C 67.7°F19.8°C 50% 21.5 mph NW34.6 kmh NW 22.6 mph36.4 kmh 29.16 in987.5 mb 0.00 in0.0 mm 0.00 in/hr0.0 mm/hr 0.00 in0.0 mm
10:43 AM 88.5°F31.4°C 67.6°F19.8°C 50% 15.0 mph NW24.1 kmh NW 22.6 mph36.4 kmh 29.16 in987.5 mb 0.00 in0.0 mm 0.00 in/hr0.0 mm/hr 0.00 in0.0 mm
10:42 AM 88.7°F31.5°C 67.7°F19.8°C 50% 14.8 mph NW23.8 kmh NW 22.6 mph36.4 kmh 29.15 in987.1 mb 0.00 in0.0 mm 0.00 in/hr0.0 mm/hr 0.00 in0.0 mm
10:41 AM 88.7°F31.5°C 67.7°F19.8°C 50% 9.8 mph NW15.8 kmh NW 22.6 mph36.4 kmh 29.15 in987.1 mb 0.00 in0.0 mm 0.00 in/hr0.0 mm/hr 0.00 in0.0 mm
10:40 AM 88.7°F31.5°C 67.7°F19.8°C 50% 8.3 mph NW13.4 kmh NW 22.6 mph36.4 kmh 29.16 in987.5 mb 0.00 in0.0 mm 0.00 in/hr0.0 mm/hr 0.00 in0.0 mm
10:39 AM 88.7°F31.5°C 67.7°F19.8°C 50% 9.4 mph NW15.1 kmh NW 22.6 mph36.4 kmh 29.16 in987.5 mb 0.00 in0.0 mm 0.00 in/hr0.0 mm/hr 0.00 in0.0 mm
10:38 AM 88.9°F31.6°C 67.9°F19.9°C 50% 19.9 mph NW32.0 kmh NW 22.6 mph36.4 kmh 29.15 in987.1 mb 0.00 in0.0 mm 0.00 in/hr0.0 mm/hr 0.00 in0.0 mm
10:37 AM 88.9°F31.6°C 67.9°F19.9°C 50% 18.3 mph NW29.5 kmh NW 22.6 mph36.4 kmh 29.16 in987.5 mb 0.00 in0.0 mm 0.00 in/hr0.0 mm/hr 0.00 in0.0 mm
10:36 AM 88.9°F31.6°C 67.9°F19.9°C 50% 5.6 mph NW9.0 kmh NW 25.9 mph41.7 kmh 29.16 in987.5 mb 0.00 in0.0 mm 0.00 in/hr0.0 mm/hr 0.00 in0.0 mm
10:35 AM 88.9°F31.6°C 67.9°F19.9°C 50% 8.7 mph NW14.0 kmh NW 25.9 mph41.7 kmh 29.16 in987.5 mb 0.00 in0.0 mm 0.00 in/hr0.0 mm/hr 0.00 in0.0 mm
10:34 AM 88.9°F31.6°C 67.9°F19.9°C 50% 6.9 mph NW11.1 kmh NW 25.9 mph41.7 kmh 29.16 in987.5 mb 0.00 in0.0 mm 0.00 in/hr0.0 mm/hr 0.00 in0.0 mm
10:33 AM 88.9°F31.6°C 67.9°F19.9°C 50% 18.3 mph NW29.5 kmh NW 25.9 mph41.7 kmh 29.16 in987.5 mb 0.00 in0.0 mm 0.00 in/hr0.0 mm/hr 0.00 in0.0 mm
10:32 AM 88.9°F31.6°C 67.9°F19.9°C 50% 7.8 mph NW12.6 kmh NW 25.9 mph41.7 kmh 29.16 in987.5 mb 0.00 in0.0 mm 0.00 in/hr0.0 mm/hr 0.00 in0.0 mm
10:31 AM 88.9°F31.6°C 67.2°F19.6°C 49% 10.3 mph NW16.6 kmh NW 25.9 mph41.7 kmh 29.16 in987.5 mb 0.00 in0.0 mm 0.00 in/hr0.0 mm/hr 0.00 in0.0 mm
10:30 AM 88.9°F31.6°C 67.2°F19.6°C 49% 19.5 mph NW31.4 kmh NW 25.9 mph41.7 kmh 29.16 in987.5 mb 0.00 in0.0 mm 0.00 in/hr0.0 mm/hr 0.00 in0.0 mm
10:29 AM 88.9°F31.6°C 67.2°F19.6°C 49% 13.9 mph NW22.4 kmh NW 25.9 mph41.7 kmh 29.15 in987.1 mb 0.00 in0.0 mm 0.00 in/hr0.0 mm/hr 0.00 in0.0 mm
10:28 AM 89.1°F31.7°C 67.4°F19.7°C 49% 8.3 mph NW13.4 kmh NW 25.9 mph41.7 kmh 29.15 in987.1 mb 0.00 in0.0 mm 0.00 in/hr0.0 mm/hr 0.00 in0.0 mm
10:27 AM 89.2°F31.8°C 67.6°F19.8°C 49% 14.3 mph NW23.0 kmh NW 25.9 mph41.7 kmh 29.15 in987.1 mb 0.00 in0.0 mm 0.00 in/hr0.0 mm/hr 0.00 in0.0 mm
10:26 AM 89.2°F31.8°C 67.6°F19.8°C 49% 13.9 mph NW22.4 kmh NW 21.7 mph34.9 kmh 29.15 in987.1 mb 0.00 in0.0 mm 0.00 in/hr0.0 mm/hr 0.00 in0.0 mm
10:25 AM 89.4°F31.9°C 67.7°F19.8°C 49% 11.9 mph NW19.2 kmh NW 21.7 mph34.9 kmh 29.15 in987.1 mb 0.00 in0.0 mm 0.00 in/hr0.0 mm/hr 0.00 in0.0 mm
10:24 AM 89.4°F31.9°C 67.7°F19.8°C 49% 16.6 mph NW26.7 kmh NW 21.7 mph34.9 kmh 29.15 in987.1 mb 0.00 in0.0 mm 0.00 in/hr0.0 mm/hr 0.00 in0.0 mm
10:23 AM 89.4°F31.9°C 67.7°F19.8°C 49% 12.8 mph NW20.6 kmh NW 21.7 mph34.9 kmh 29.15 in987.1 mb 0.00 in0.0 mm 0.00 in/hr0.0 mm/hr 0.00 in0.0 mm
10:22 AM 89.8°F32.1°C 68.1°F20.1°C 49% 13.4 mph NW21.6 kmh NW 21.7 mph34.9 kmh 29.15 in987.1 mb 0.00 in0.0 mm 0.00 in/hr0.0 mm/hr 0.00 in0.0 mm
10:21 AM 89.8°F32.1°C 68.1°F20.1°C 49% 16.3 mph NW26.2 kmh NW 19.7 mph31.7 kmh 29.15 in987.1 mb 0.00 in0.0 mm 0.00 in/hr0.0 mm/hr 0.00 in0.0 mm
10:20 AM 90.0°F32.2°C 68.2°F20.1°C 49% 14.5 mph NW23.3 kmh NW 19.7 mph31.7 kmh 29.15 in987.1 mb 0.00 in0.0 mm 0.00 in/hr0.0 mm/hr 0.00 in0.0 mm
10:19 AM 90.1°F32.3°C 67.7°F19.8°C 48% 12.5 mph NW20.1 kmh NW 19.7 mph31.7 kmh 29.15 in987.1 mb 0.00 in0.0 mm 0.00 in/hr0.0 mm/hr 0.00 in0.0 mm
10:18 AM 90.1°F32.3°C 67.7°F19.8°C 48% 10.7 mph NW17.2 kmh NW 19.7 mph31.7 kmh 29.15 in987.1 mb 0.00 in0.0 mm 0.00 in/hr0.0 mm/hr 0.00 in0.0 mm
10:17 AM 90.3°F32.4°C 67.9°F19.9°C 48% 13.4 mph NW21.6 kmh NW 19.7 mph31.7 kmh 29.15 in987.1 mb 0.00 in0.0 mm 0.00 in/hr0.0 mm/hr 0.00 in0.0 mm
10:16 AM 90.5°F32.5°C 68.1°F20.1°C 48% 14.8 mph NW23.8 kmh NW 19.7 mph31.7 kmh 29.15 in987.1 mb 0.00 in0.0 mm 0.00 in/hr0.0 mm/hr 0.00 in0.0 mm
10:15 AM 90.7°F32.6°C 68.2°F20.1°C 48% 8.1 mph NW13.0 kmh NW 16.8 mph27.0 kmh 29.15 in987.1 mb 0.00 in0.0 mm 0.00 in/hr0.0 mm/hr 0.00 in0.0 mm
10:14 AM 90.9°F32.7°C 68.4°F20.2°C 48% 10.7 mph NW17.2 kmh NW 17.7 mph28.5 kmh 29.15 in987.1 mb 0.00 in0.0 mm 0.00 in/hr0.0 mm/hr 0.00 in0.0 mm
10:13 AM 91.0°F32.8°C 68.5°F20.3°C 48% 6.5 mph NW10.5 kmh NW 17.7 mph28.5 kmh 29.14 in986.8 mb 0.00 in0.0 mm 0.00 in/hr0.0 mm/hr 0.00 in0.0 mm
10:12 AM 91.2°F32.9°C 68.7°F20.4°C 48% 10.3 mph NNW16.6 kmh NNW 17.7 mph28.5 kmh 29.14 in986.8 mb 0.00 in0.0 mm 0.00 in/hr0.0 mm/hr 0.00 in0.0 mm
10:11 AM 91.2°F32.9°C 68.7°F20.4°C 48% 8.7 mph NNW14.0 kmh NNW 17.7 mph28.5 kmh 29.14 in986.8 mb 0.00 in0.0 mm 0.00 in/hr0.0 mm/hr 0.00 in0.0 mm
10:10 AM 91.6°F33.1°C 69.0°F20.6°C 48% 8.5 mph NNW13.7 kmh NNW 17.7 mph28.5 kmh 29.13 in986.5 mb 0.00 in0.0 mm 0.00 in/hr0.0 mm/hr 0.00 in0.0 mm
10:09 AM 91.8°F33.2°C 69.2°F20.7°C 48% 10.7 mph NNW17.2 kmh NNW 17.7 mph28.5 kmh 29.14 in986.8 mb 0.00 in0.0 mm 0.00 in/hr0.0 mm/hr 0.00 in0.0 mm
10:08 AM 91.9°F33.3°C 69.3°F20.7°C 48% 5.6 mph NNW9.0 kmh NNW 17.7 mph28.5 kmh 29.14 in986.8 mb 0.00 in0.0 mm 0.00 in/hr0.0 mm/hr 0.00 in0.0 mm
10:07 AM 91.9°F33.3°C 68.7°F20.4°C 48% 7.8 mph NNW12.6 kmh NNW 17.7 mph28.5 kmh 29.14 in986.8 mb 0.00 in0.0 mm 0.00 in/hr0.0 mm/hr 0.00 in0.0 mm
10:06 AM 92.1°F33.4°C 68.9°F20.5°C 47% 14.3 mph NNW23.0 kmh NNW 17.7 mph28.5 kmh 29.14 in986.8 mb 0.00 in0.0 mm 0.00 in/hr0.0 mm/hr 0.00 in0.0 mm
10:05 AM 92.1°F33.4°C 68.9°F20.5°C 47% 15.7 mph NNW25.3 kmh NNW 17.7 mph28.5 kmh 29.15 in987.1 mb 0.00 in0.0 mm 0.00 in/hr0.0 mm/hr 0.00 in0.0 mm
10:04 AM 92.3°F33.5°C 69.0°F20.6°C 47% 11.9 mph NNW19.2 kmh NNW 16.6 mph26.7 kmh 29.14 in986.8 mb 0.00 in0.0 mm 0.00 in/hr0.0 mm/hr 0.00 in0.0 mm
10:03 AM 92.3°F33.5°C 69.7°F20.9°C 48% 13.9 mph N22.4 kmh N 16.6 mph26.7 kmh 29.14 in986.8 mb 0.00 in0.0 mm 0.00 in/hr0.0 mm/hr 0.00 in0.0 mm
10:02 AM 92.5°F33.6°C 69.8°F21.0°C 48% 11.9 mph N19.2 kmh N 16.6 mph26.7 kmh 29.14 in986.8 mb 0.00 in0.0 mm 0.00 in/hr0.0 mm/hr 0.00 in0.0 mm
10:01 AM 92.3°F33.5°C 69.0°F20.6°C 48% 12.3 mph N19.8 kmh N 17.7 mph28.5 kmh 29.14 in986.8 mb 0.00 in0.0 mm 0.00 in/hr0.0 mm/hr 0.00 in0.0 mm
10:00 AM 92.3°F33.5°C 69.0°F20.6°C 47% 10.3 mph N16.6 kmh N 17.7 mph28.5 kmh 29.13 in986.5 mb 0.00 in0.0 mm 0.00 in/hr0.0 mm/hr 0.00 in0.0 mm
09:59 AM 92.5°F33.6°C 69.2°F20.7°C 47% 11.2 mph N18.0 kmh N 17.7 mph28.5 kmh 29.13 in986.5 mb 0.00 in0.0 mm 0.00 in/hr0.0 mm/hr 0.00 in0.0 mm
09:58 AM 92.5°F33.6°C 69.2°F20.7°C 47% 7.2 mph NNE11.6 kmh NNE 17.7 mph28.5 kmh 29.13 in986.5 mb 0.00 in0.0 mm 0.00 in/hr0.0 mm/hr 0.00 in0.0 mm
09:57 AM 92.5°F33.6°C 69.2°F20.7°C 47% 8.7 mph NNE14.0 kmh NNE 17.7 mph28.5 kmh 29.12 in986.1 mb 0.00 in0.0 mm 0.00 in/hr0.0 mm/hr 0.00 in0.0 mm
09:56 AM 92.5°F33.6°C 69.2°F20.7°C 47% 7.2 mph NNE11.6 kmh NNE 17.7 mph28.5 kmh 29.12 in986.1 mb 0.00 in0.0 mm 0.00 in/hr0.0 mm/hr 0.00 in0.0 mm
09:55 AM 92.5°F33.6°C 69.2°F20.7°C 47% 14.1 mph NE22.7 kmh NE 17.7 mph28.5 kmh 29.11 in985.8 mb 0.00 in0.0 mm 0.00 in/hr0.0 mm/hr 0.00 in0.0 mm
09:54 AM 92.5°F33.6°C 69.2°F20.7°C 47% 12.5 mph NE20.1 kmh NE 17.7 mph28.5 kmh 29.11 in985.8 mb 0.00 in0.0 mm 0.00 in/hr0.0 mm/hr 0.00 in0.0 mm
09:53 AM 92.5°F33.6°C 69.2°F20.7°C 47% 12.5 mph NE20.1 kmh NE 17.7 mph28.5 kmh 29.11 in985.8 mb 0.00 in0.0 mm 0.00 in/hr0.0 mm/hr 0.00 in0.0 mm
09:52 AM 92.5°F33.6°C 69.2°F20.7°C 47% 13.2 mph NE21.2 kmh NE 17.7 mph28.5 kmh 29.11 in985.8 mb 0.00 in0.0 mm 0.00 in/hr0.0 mm/hr 0.00 in0.0 mm
09:51 AM 92.7°F33.7°C 69.3°F20.7°C 47% 12.5 mph NE20.1 kmh NE 15.2 mph24.5 kmh 29.11 in985.8 mb 0.00 in0.0 mm 0.00 in/hr0.0 mm/hr 0.00 in0.0 mm
09:50 AM 92.8°F33.8°C 69.5°F20.8°C 47% 7.2 mph NE11.6 kmh NE 17.0 mph27.4 kmh 29.11 in985.8 mb 0.00 in0.0 mm 0.00 in/hr0.0 mm/hr 0.00 in0.0 mm
09:49 AM 92.8°F33.8°C 69.5°F20.8°C 47% 6.9 mph NE11.1 kmh NE 17.0 mph27.4 kmh 29.11 in985.8 mb 0.00 in0.0 mm 0.00 in/hr0.0 mm/hr 0.00 in0.0 mm
09:48 AM 92.8°F33.8°C 69.5°F20.8°C 47% 10.7 mph NE17.2 kmh NE 17.0 mph27.4 kmh 29.11 in985.8 mb 0.00 in0.0 mm 0.00 in/hr0.0 mm/hr 0.00 in0.0 mm
09:47 AM 92.8°F33.8°C 69.5°F20.8°C 47% 8.7 mph NE14.0 kmh NE 17.0 mph27.4 kmh 29.11 in985.8 mb 0.00 in0.0 mm 0.00 in/hr0.0 mm/hr 0.00 in0.0 mm
09:46 AM 92.8°F33.8°C 69.5°F20.8°C 47% 9.4 mph NE15.1 kmh NE 17.0 mph27.4 kmh 29.11 in985.8 mb 0.00 in0.0 mm 0.00 in/hr0.0 mm/hr 0.00 in0.0 mm
09:45 AM 92.8°F33.8°C 69.5°F20.8°C 47% 7.6 mph NE12.2 kmh NE 17.0 mph27.4 kmh 29.11 in985.8 mb 0.00 in0.0 mm 0.00 in/hr0.0 mm/hr 0.00 in0.0 mm
09:44 AM 92.8°F33.8°C 69.5°F20.8°C 47% 7.6 mph NE12.2 kmh NE 17.0 mph27.4 kmh 29.11 in985.8 mb 0.00 in0.0 mm 0.00 in/hr0.0 mm/hr 0.00 in0.0 mm
09:43 AM 92.8°F33.8°C 69.5°F20.8°C 47% 7.2 mph NE11.6 kmh NE 17.0 mph27.4 kmh 29.11 in985.8 mb 0.00 in0.0 mm 0.00 in/hr0.0 mm/hr 0.00 in0.0 mm
09:42 AM 92.8°F33.8°C 69.5°F20.8°C 47% 8.7 mph NE14.0 kmh NE 17.0 mph27.4 kmh 29.11 in985.8 mb 0.00 in0.0 mm 0.00 in/hr0.0 mm/hr 0.00 in0.0 mm
09:41 AM 92.8°F33.8°C 69.5°F20.8°C 47% 11.0 mph NE17.7 kmh NE 17.0 mph27.4 kmh 29.11 in985.8 mb 0.00 in0.0 mm 0.00 in/hr0.0 mm/hr 0.00 in0.0 mm
09:40 AM 92.8°F33.8°C 69.5°F20.8°C 47% 10.7 mph NE17.2 kmh NE 17.0 mph27.4 kmh 29.11 in985.8 mb 0.00 in0.0 mm 0.00 in/hr0.0 mm/hr 0.00 in0.0 mm
09:39 AM 92.7°F33.7°C 69.3°F20.7°C 47% 6.0 mph NE9.7 kmh NE 17.0 mph27.4 kmh 29.10 in985.4 mb 0.00 in0.0 mm 0.00 in/hr0.0 mm/hr 0.00 in0.0 mm
09:38 AM 92.5°F33.6°C 69.8°F21.0°C 48% 6.9 mph NE11.1 kmh NE 17.0 mph27.4 kmh 29.11 in985.8 mb 0.00 in0.0 mm 0.00 in/hr0.0 mm/hr 0.00 in0.0 mm
09:37 AM 92.3°F33.5°C 69.7°F20.9°C 48% 8.1 mph NE13.0 kmh NE 17.0 mph27.4 kmh 29.11 in985.8 mb 0.00 in0.0 mm 0.00 in/hr0.0 mm/hr 0.00 in0.0 mm
09:36 AM 92.1°F33.4°C 69.5°F20.8°C 48% 9.2 mph NE14.8 kmh NE 17.0 mph27.4 kmh 29.11 in985.8 mb 0.00 in0.0 mm 0.00 in/hr0.0 mm/hr 0.00 in0.0 mm
09:35 AM 91.9°F33.3°C 69.3°F20.7°C 48% 8.9 mph NE14.3 kmh NE 17.0 mph27.4 kmh 29.11 in985.8 mb 0.00 in0.0 mm 0.00 in/hr0.0 mm/hr 0.00 in0.0 mm
09:34 AM 91.9°F33.3°C 69.3°F20.7°C 48% 17.0 mph NE27.4 kmh NE 17.0 mph27.4 kmh 29.11 in985.8 mb 0.00 in0.0 mm 0.00 in/hr0.0 mm/hr 0.00 in0.0 mm
09:33 AM 91.8°F33.2°C 69.8°F21.0°C 49% 10.5 mph NE16.9 kmh NE 13.4 mph21.6 kmh 29.10 in985.4 mb 0.00 in0.0 mm 0.00 in/hr0.0 mm/hr 0.00 in0.0 mm
09:32 AM 91.6°F33.1°C 69.7°F20.9°C 49% 10.5 mph NE16.9 kmh NE 13.4 mph21.6 kmh 29.10 in985.4 mb 0.00 in0.0 mm 0.00 in/hr0.0 mm/hr 0.00 in0.0 mm
09:31 AM 91.4°F33.0°C 69.5°F20.8°C 49% 8.5 mph NE13.7 kmh NE 13.4 mph21.6 kmh 29.10 in985.4 mb 0.00 in0.0 mm 0.00 in/hr0.0 mm/hr 0.00 in0.0 mm
09:30 AM 91.2°F32.9°C 69.3°F20.7°C 49% 9.6 mph NE15.4 kmh NE 13.4 mph21.6 kmh 29.10 in985.4 mb 0.00 in0.0 mm 0.00 in/hr0.0 mm/hr 0.00 in0.0 mm
09:29 AM 91.0°F32.8°C 69.2°F20.7°C 49% 10.5 mph NE16.9 kmh NE 13.4 mph21.6 kmh 29.10 in985.4 mb 0.00 in0.0 mm 0.00 in/hr0.0 mm/hr 0.00 in0.0 mm
09:28 AM 91.0°F32.8°C 69.2°F20.7°C 49% 6.0 mph NE9.7 kmh NE 13.4 mph21.6 kmh 29.10 in985.4 mb 0.00 in0.0 mm 0.00 in/hr0.0 mm/hr 0.00 in0.0 mm
09:27 AM 90.9°F32.7°C 69.0°F20.6°C 49% 9.4 mph NE15.1 kmh NE 14.5 mph23.3 kmh 29.11 in985.8 mb 0.00 in0.0 mm 0.00 in/hr0.0 mm/hr 0.00 in0.0 mm
09:26 AM 90.7°F32.6°C 69.5°F20.8°C 50% 9.8 mph NE15.8 kmh NE 14.8 mph23.8 kmh 29.11 in985.8 mb 0.00 in0.0 mm 0.00 in/hr0.0 mm/hr 0.00 in0.0 mm
09:25 AM 90.5°F32.5°C 69.3°F20.7°C 50% 6.5 mph NE10.5 kmh NE 16.3 mph26.2 kmh 29.10 in985.4 mb 0.00 in0.0 mm 0.00 in/hr0.0 mm/hr 0.00 in0.0 mm
09:24 AM 90.3°F32.4°C 69.2°F20.7°C 50% 9.4 mph NE15.1 kmh NE 16.3 mph26.2 kmh 29.10 in985.4 mb 0.00 in0.0 mm 0.00 in/hr0.0 mm/hr 0.00 in0.0 mm
09:23 AM 90.3°F32.4°C 69.2°F20.7°C 50% 10.1 mph NE16.3 kmh NE 16.3 mph26.2 kmh 29.10 in985.4 mb 0.00 in0.0 mm 0.00 in/hr0.0 mm/hr 0.00 in0.0 mm
09:22 AM 90.1°F32.3°C 69.0°F20.6°C 50% 9.6 mph NE15.4 kmh NE 16.3 mph26.2 kmh 29.10 in985.4 mb 0.00 in0.0 mm 0.00 in/hr0.0 mm/hr 0.00 in0.0 mm
09:21 AM 90.1°F32.3°C 69.0°F20.6°C 50% 9.6 mph NE15.4 kmh NE 16.3 mph26.2 kmh 29.10 in985.4 mb 0.00 in0.0 mm 0.00 in/hr0.0 mm/hr 0.00 in0.0 mm
09:20 AM 90.0°F32.2°C 68.9°F20.5°C 50% 8.3 mph NE13.4 kmh NE 16.3 mph26.2 kmh 29.10 in985.4 mb 0.00 in0.0 mm 0.00 in/hr0.0 mm/hr 0.00 in0.0 mm
09:19 AM 89.8°F32.1°C 68.7°F20.4°C 50% 9.6 mph NE15.4 kmh NE 16.3 mph26.2 kmh 29.10 in985.4 mb 0.00 in0.0 mm 0.00 in/hr0.0 mm/hr 0.00 in0.0 mm
09:18 AM 89.6°F32.0°C 69.1°F20.6°C 51% 14.5 mph NE23.3 kmh NE 16.3 mph26.2 kmh 29.10 in985.4 mb 0.00 in0.0 mm 0.00 in/hr0.0 mm/hr 0.00 in0.0 mm
09:17 AM 89.4°F31.9°C 68.9°F20.5°C 51% 14.5 mph NE23.3 kmh NE 16.3 mph26.2 kmh 29.10 in985.4 mb 0.00 in0.0 mm 0.00 in/hr0.0 mm/hr 0.00 in0.0 mm
09:16 AM 89.2°F31.8°C 68.8°F20.4°C 51% 9.8 mph NE15.8 kmh NE 16.3 mph26.2 kmh 29.10 in985.4 mb 0.00 in0.0 mm 0.00 in/hr0.0 mm/hr 0.00 in0.0 mm
09:15 AM 89.2°F31.8°C 68.8°F20.4°C 51% 13.2 mph NE21.2 kmh NE 15.4 mph24.8 kmh 29.10 in985.4 mb 0.00 in0.0 mm 0.00 in/hr0.0 mm/hr 0.00 in0.0 mm
09:14 AM 88.9°F31.6°C 69.0°F20.6°C 52% 10.3 mph NE16.6 kmh NE 15.4 mph24.8 kmh 29.10 in985.4 mb 0.00 in0.0 mm 0.00 in/hr0.0 mm/hr 0.00 in0.0 mm
09:13 AM 88.7°F31.5°C 68.8°F20.4°C 52% 12.3 mph NE19.8 kmh NE 15.4 mph24.8 kmh 29.09 in985.1 mb 0.00 in0.0 mm 0.00 in/hr0.0 mm/hr 0.00 in0.0 mm
09:12 AM 88.5°F31.4°C 68.6°F20.3°C 52% 7.8 mph NE12.6 kmh NE 15.4 mph24.8 kmh 29.09 in985.1 mb 0.00 in0.0 mm 0.00 in/hr0.0 mm/hr 0.00 in0.0 mm
09:11 AM 88.3°F31.3°C 68.5°F20.3°C 52% 9.2 mph NE14.8 kmh NE 15.4 mph24.8 kmh 29.09 in985.1 mb 0.00 in0.0 mm 0.00 in/hr0.0 mm/hr 0.00 in0.0 mm
09:10 AM 88.0°F31.1°C 68.7°F20.4°C 53% 5.8 mph NE9.3 kmh NE 15.4 mph24.8 kmh 29.09 in985.1 mb 0.00 in0.0 mm 0.00 in/hr0.0 mm/hr 0.00 in0.0 mm
09:09 AM 88.0°F31.1°C 68.7°F20.4°C 53% 8.7 mph NE14.0 kmh NE 15.4 mph24.8 kmh 29.09 in985.1 mb 0.00 in0.0 mm 0.00 in/hr0.0 mm/hr 0.00 in0.0 mm
09:08 AM 87.6°F30.9°C 68.4°F20.2°C 53% 5.6 mph NE9.0 kmh NE 15.4 mph24.8 kmh 29.09 in985.1 mb 0.00 in0.0 mm 0.00 in/hr0.0 mm/hr 0.00 in0.0 mm
09:07 AM 87.6°F30.9°C 68.4°F20.2°C 53% 8.3 mph NE13.4 kmh NE 15.4 mph24.8 kmh 29.10 in985.4 mb 0.00 in0.0 mm 0.00 in/hr0.0 mm/hr 0.00 in0.0 mm
09:06 AM 87.4°F30.8°C 68.2°F20.1°C 53% 8.3 mph NE13.4 kmh NE 15.4 mph24.8 kmh 29.10 in985.4 mb 0.00 in0.0 mm 0.00 in/hr0.0 mm/hr 0.00 in0.0 mm
09:05 AM 87.3°F30.7°C 68.0°F20.0°C 53% 8.1 mph NE13.0 kmh NE 15.4 mph24.8 kmh 29.10 in985.4 mb 0.00 in0.0 mm 0.00 in/hr0.0 mm/hr 0.00 in0.0 mm
09:04 AM 87.1°F30.6°C 67.9°F19.9°C 53% 8.1 mph NE13.0 kmh NE 18.8 mph30.3 kmh 29.10 in985.4 mb 0.00 in0.0 mm 0.00 in/hr0.0 mm/hr 0.00 in0.0 mm
09:03 AM 86.9°F30.5°C 68.2°F20.1°C 54% 7.4 mph NE11.9 kmh NE 18.8 mph30.3 kmh 29.10 in985.4 mb 0.00 in0.0 mm 0.00 in/hr0.0 mm/hr 0.00 in0.0 mm
09:02 AM 86.7°F30.4°C 68.1°F20.1°C 54% 11.4 mph NE18.3 kmh NE 18.8 mph30.3 kmh 29.10 in985.4 mb 0.00 in0.0 mm 0.00 in/hr0.0 mm/hr 0.00 in0.0 mm
09:01 AM 86.7°F30.4°C 68.1°F20.1°C 54% 12.3 mph NE19.8 kmh NE 18.8 mph30.3 kmh 29.10 in985.4 mb 0.00 in0.0 mm 0.00 in/hr0.0 mm/hr 0.00 in0.0 mm
09:00 AM 86.5°F30.3°C 67.9°F19.9°C 54% 9.8 mph NE15.8 kmh NE 18.8 mph30.3 kmh 29.10 in985.4 mb 0.00 in0.0 mm 0.00 in/hr0.0 mm/hr 0.00 in0.0 mm
08:59 AM 86.4°F30.2°C 67.7°F19.8°C 54% 11.0 mph NE17.7 kmh NE 18.8 mph30.3 kmh 29.10 in985.4 mb 0.00 in0.0 mm 0.00 in/hr0.0 mm/hr 0.00 in0.0 mm
08:58 AM 86.2°F30.1°C 67.6°F19.8°C 54% 11.6 mph NE18.7 kmh NE 18.8 mph30.3 kmh 29.10 in985.4 mb 0.00 in0.0 mm 0.00 in/hr0.0 mm/hr 0.00 in0.0 mm
08:57 AM 86.0°F30.0°C 67.4°F19.7°C 54% 9.8 mph NE15.8 kmh NE 18.8 mph30.3 kmh 29.10 in985.4 mb 0.00 in0.0 mm 0.00 in/hr0.0 mm/hr 0.00 in0.0 mm
08:56 AM 85.8°F29.9°C 67.2°F19.6°C 54% 14.3 mph NE23.0 kmh NE 18.8 mph30.3 kmh 29.10 in985.4 mb 0.00 in0.0 mm 0.00 in/hr0.0 mm/hr 0.00 in0.0 mm
08:55 AM 85.8°F29.9°C 67.2°F19.6°C 54% 4.7 mph NE7.6 kmh NE 18.8 mph30.3 kmh 29.11 in985.8 mb 0.00 in0.0 mm 0.00 in/hr0.0 mm/hr 0.00 in0.0 mm
08:54 AM 85.8°F29.9°C 67.2°F19.6°C 54% 10.5 mph NE16.9 kmh NE 22.8 mph36.7 kmh 29.11 in985.8 mb 0.00 in0.0 mm 0.00 in/hr0.0 mm/hr 0.00 in0.0 mm
08:53 AM 85.8°F29.9°C 67.2°F19.6°C 54% 5.8 mph NE9.3 kmh NE 22.8 mph36.7 kmh 29.11 in985.8 mb 0.00 in0.0 mm 0.00 in/hr0.0 mm/hr 0.00 in0.0 mm
08:52 AM 85.8°F29.9°C 67.2°F19.6°C 54% 11.9 mph NE19.2 kmh NE 22.8 mph36.7 kmh 29.12 in986.1 mb 0.00 in0.0 mm 0.00 in/hr0.0 mm/hr 0.00 in0.0 mm
08:51 AM 85.8°F29.9°C 67.2°F19.6°C 54% 12.8 mph NE20.6 kmh NE 22.8 mph36.7 kmh 29.11 in985.8 mb 0.00 in0.0 mm 0.00 in/hr0.0 mm/hr 0.00 in0.0 mm
08:50 AM 85.8°F29.9°C 67.2°F19.6°C 54% 16.6 mph NE26.7 kmh NE 22.8 mph36.7 kmh 29.11 in985.8 mb 0.00 in0.0 mm 0.00 in/hr0.0 mm/hr 0.00 in0.0 mm
08:49 AM 85.8°F29.9°C 67.2°F19.6°C 54% 9.8 mph NE15.8 kmh NE 22.8 mph36.7 kmh 29.11 in985.8 mb 0.00 in0.0 mm 0.00 in/hr0.0 mm/hr 0.00 in0.0 mm
08:48 AM 85.8°F29.9°C 67.2°F19.6°C 54% 8.1 mph NE13.0 kmh NE 22.8 mph36.7 kmh 29.11 in985.8 mb 0.00 in0.0 mm 0.00 in/hr0.0 mm/hr 0.00 in0.0 mm
08:47 AM 85.8°F29.9°C 67.2°F19.6°C 54% 11.9 mph NE19.2 kmh NE 22.8 mph36.7 kmh 29.11 in985.8 mb 0.00 in0.0 mm 0.00 in/hr0.0 mm/hr 0.00 in0.0 mm
08:46 AM 85.8°F29.9°C 67.2°F19.6°C 54% 14.3 mph NE23.0 kmh NE 22.8 mph36.7 kmh 29.11 in985.8 mb 0.00 in0.0 mm 0.00 in/hr0.0 mm/hr 0.00 in0.0 mm
08:45 AM 85.8°F29.9°C 67.2°F19.6°C 54% 22.8 mph NE36.7 kmh NE 22.8 mph36.7 kmh 29.11 in985.8 mb 0.00 in0.0 mm 0.00 in/hr0.0 mm/hr 0.00 in0.0 mm
08:44 AM 85.8°F29.9°C 67.7°F19.8°C 55% 15.0 mph NE24.1 kmh NE 23.0 mph37.0 kmh 29.11 in985.8 mb 0.00 in0.0 mm 0.00 in/hr0.0 mm/hr 0.00 in0.0 mm
08:43 AM 85.8°F29.9°C 67.7°F19.8°C 55% 15.0 mph NE24.1 kmh NE 23.0 mph37.0 kmh 29.11 in985.8 mb 0.00 in0.0 mm 0.00 in/hr0.0 mm/hr 0.00 in0.0 mm
08:42 AM 85.8°F29.9°C 67.7°F19.8°C 55% 14.5 mph NE23.3 kmh NE 23.0 mph37.0 kmh 29.11 in985.8 mb 0.00 in0.0 mm 0.00 in/hr0.0 mm/hr 0.00 in0.0 mm
08:41 AM 85.6°F29.8°C 67.6°F19.8°C 55% 21.0 mph NE33.8 kmh NE 23.0 mph37.0 kmh 29.11 in985.8 mb 0.00 in0.0 mm 0.00 in/hr0.0 mm/hr 0.00 in0.0 mm
08:40 AM 85.6°F29.8°C 67.6°F19.8°C 55% 18.3 mph NE29.5 kmh NE 23.0 mph37.0 kmh 29.11 in985.8 mb 0.00 in0.0 mm 0.00 in/hr0.0 mm/hr 0.00 in0.0 mm
08:39 AM 85.6°F29.8°C 67.6°F19.8°C 55% 16.1 mph NE25.9 kmh NE 23.0 mph37.0 kmh 29.11 in985.8 mb 0.00 in0.0 mm 0.00 in/hr0.0 mm/hr 0.00 in0.0 mm
08:38 AM 85.6°F29.8°C 67.6°F19.8°C 55% 8.3 mph NE13.4 kmh NE 23.0 mph37.0 kmh 29.11 in985.8 mb 0.00 in0.0 mm 0.00 in/hr0.0 mm/hr 0.00 in0.0 mm
08:37 AM 85.3°F29.6°C 67.3°F19.6°C 55% 11.9 mph NE19.2 kmh NE 23.0 mph37.0 kmh 29.11 in985.8 mb 0.00 in0.0 mm 0.00 in/hr0.0 mm/hr 0.00 in0.0 mm
08:36 AM 85.3°F29.6°C 67.3°F19.6°C 55% 12.3 mph NE19.8 kmh NE 23.0 mph37.0 kmh 29.11 in985.8 mb 0.00 in0.0 mm 0.00 in/hr0.0 mm/hr 0.00 in0.0 mm
08:35 AM 85.3°F29.6°C 67.8°F19.9°C 56% 11.4 mph NE18.3 kmh NE 23.0 mph37.0 kmh 29.11 in985.8 mb 0.00 in0.0 mm 0.00 in/hr0.0 mm/hr 0.00 in0.0 mm
08:34 AM 85.1°F29.5°C 67.6°F19.8°C 56% 23.0 mph NE37.0 kmh NE 23.0 mph37.0 kmh 29.11 in985.8 mb 0.00 in0.0 mm 0.00 in/hr0.0 mm/hr 0.00 in0.0 mm
08:33 AM 84.9°F29.4°C 67.5°F19.7°C 56% 18.6 mph NE29.9 kmh NE 20.6 mph33.2 kmh 29.11 in985.8 mb 0.00 in0.0 mm 0.00 in/hr0.0 mm/hr 0.00 in0.0 mm
08:32 AM 84.9°F29.4°C 67.5°F19.7°C 56% 20.1 mph NE32.3 kmh NE 20.1 mph32.3 kmh 29.11 in985.8 mb 0.00 in0.0 mm 0.00 in/hr0.0 mm/hr 0.00 in0.0 mm
08:31 AM 84.7°F29.3°C 67.3°F19.6°C 56% 7.2 mph NE11.6 kmh NE 18.6 mph29.9 kmh 29.11 in985.8 mb 0.00 in0.0 mm 0.00 in/hr0.0 mm/hr 0.00 in0.0 mm
08:30 AM 84.7°F29.3°C 67.7°F19.8°C 57% 17.0 mph NE27.4 kmh NE 18.6 mph29.9 kmh 29.11 in985.8 mb 0.00 in0.0 mm 0.00 in/hr0.0 mm/hr 0.00 in0.0 mm
08:29 AM 84.6°F29.2°C 67.7°F19.8°C 57% 10.5 mph NE16.9 kmh NE 18.3 mph29.5 kmh 29.11 in985.8 mb 0.00 in0.0 mm 0.00 in/hr0.0 mm/hr 0.00 in0.0 mm
08:28 AM 84.4°F29.1°C 67.5°F19.7°C 57% 11.2 mph NE18.0 kmh NE 20.1 mph32.3 kmh 29.11 in985.8 mb 0.00 in0.0 mm 0.00 in/hr0.0 mm/hr 0.00 in0.0 mm
08:27 AM 84.4°F29.1°C 67.5°F19.7°C 57% 14.5 mph NE23.3 kmh NE 20.1 mph32.3 kmh 29.11 in985.8 mb 0.00 in0.0 mm 0.00 in/hr0.0 mm/hr 0.00 in0.0 mm
08:26 AM 84.0°F28.9°C 67.2°F19.6°C 57% 8.1 mph NE13.0 kmh NE 20.1 mph32.3 kmh 29.11 in985.8 mb 0.00 in0.0 mm 0.00 in/hr0.0 mm/hr 0.00 in0.0 mm
08:25 AM 84.0°F28.9°C 67.2°F19.6°C 57% 10.7 mph NE17.2 kmh NE 20.1 mph32.3 kmh 29.11 in985.8 mb 0.00 in0.0 mm 0.00 in/hr0.0 mm/hr 0.00 in0.0 mm
08:24 AM 83.8°F28.8°C 67.0°F19.4°C 57% 13.6 mph NE21.9 kmh NE 20.1 mph32.3 kmh 29.11 in985.8 mb 0.00 in0.0 mm 0.00 in/hr0.0 mm/hr 0.00 in0.0 mm
08:23 AM 83.8°F28.8°C 67.5°F19.7°C 58% 12.5 mph NE20.1 kmh NE 20.1 mph32.3 kmh 29.10 in985.4 mb 0.00 in0.0 mm 0.00 in/hr0.0 mm/hr 0.00 in0.0 mm
08:22 AM 83.8°F28.8°C 67.5°F19.7°C 58% 12.1 mph NE19.5 kmh NE 20.8 mph33.5 kmh 29.10 in985.4 mb 0.00 in0.0 mm 0.00 in/hr0.0 mm/hr 0.00 in0.0 mm
08:21 AM 83.5°F28.6°C 67.1°F19.5°C 58% 17.4 mph NE28.0 kmh NE 21.3 mph34.3 kmh 29.10 in985.4 mb 0.00 in0.0 mm 0.00 in/hr0.0 mm/hr 0.00 in0.0 mm
08:20 AM 83.5°F28.6°C 67.1°F19.5°C 58% 8.9 mph NE14.3 kmh NE 21.3 mph34.3 kmh 29.10 in985.4 mb 0.00 in0.0 mm 0.00 in/hr0.0 mm/hr 0.00 in0.0 mm
08:19 AM 83.3°F28.5°C 67.0°F19.4°C 58% 10.1 mph NE16.3 kmh NE 21.3 mph34.3 kmh 29.10 in985.4 mb 0.00 in0.0 mm 0.00 in/hr0.0 mm/hr 0.00 in0.0 mm
08:18 AM 83.3°F28.5°C 67.0°F19.4°C 58% 12.3 mph NE19.8 kmh NE 21.3 mph34.3 kmh 29.10 in985.4 mb 0.00 in0.0 mm 0.00 in/hr0.0 mm/hr 0.00 in0.0 mm
08:17 AM 83.1°F28.4°C 66.8°F19.3°C 58% 10.7 mph NE17.2 kmh NE 21.3 mph34.3 kmh 29.10 in985.4 mb 0.00 in0.0 mm 0.00 in/hr0.0 mm/hr 0.00 in0.0 mm
08:16 AM 83.1°F28.4°C 66.8°F19.3°C 58% 16.3 mph NE26.2 kmh NE 21.3 mph34.3 kmh 29.10 in985.4 mb 0.00 in0.0 mm 0.00 in/hr0.0 mm/hr 0.00 in0.0 mm
08:15 AM 83.1°F28.4°C 66.8°F19.3°C 58% 10.3 mph NE16.6 kmh NE 21.3 mph34.3 kmh 29.10 in985.4 mb 0.00 in0.0 mm 0.00 in/hr0.0 mm/hr 0.00 in0.0 mm
08:14 AM 82.9°F28.3°C 67.1°F19.5°C 59% 13.2 mph NE21.2 kmh NE 21.3 mph34.3 kmh 29.10 in985.4 mb 0.00 in0.0 mm 0.00 in/hr0.0 mm/hr 0.00 in0.0 mm
08:13 AM 82.9°F28.3°C 67.1°F19.5°C 59% 9.8 mph NE15.8 kmh NE 21.3 mph34.3 kmh 29.10 in985.4 mb 0.00 in0.0 mm 0.00 in/hr0.0 mm/hr 0.00 in0.0 mm
08:12 AM 82.8°F28.2°C 66.9°F19.4°C 59% 13.2 mph NE21.2 kmh NE 21.3 mph34.3 kmh 29.11 in985.8 mb 0.00 in0.0 mm 0.00 in/hr0.0 mm/hr 0.00 in0.0 mm
08:11 AM 82.6°F28.1°C 66.8°F19.3°C 59% 19.0 mph NE30.6 kmh NE 20.6 mph33.2 kmh 29.11 in985.8 mb 0.00 in0.0 mm 0.00 in/hr0.0 mm/hr 0.00 in0.0 mm
08:10 AM 82.6°F28.1°C 66.8°F19.3°C 59% 19.2 mph NE30.9 kmh NE 20.6 mph33.2 kmh 29.11 in985.8 mb 0.00 in0.0 mm 0.00 in/hr0.0 mm/hr 0.00 in0.0 mm
08:09 AM 82.4°F28.0°C 66.6°F19.2°C 59% 9.6 mph NE15.4 kmh NE 20.6 mph33.2 kmh 29.10 in985.4 mb 0.00 in0.0 mm 0.00 in/hr0.0 mm/hr 0.00 in0.0 mm
08:08 AM 82.2°F27.9°C 66.9°F19.4°C 60% 14.1 mph NE22.7 kmh NE 20.6 mph33.2 kmh 29.11 in985.8 mb 0.00 in0.0 mm 0.00 in/hr0.0 mm/hr 0.00 in0.0 mm
08:07 AM 82.2°F27.9°C 66.4°F19.1°C 59% 15.0 mph NE24.1 kmh NE 20.6 mph33.2 kmh 29.11 in985.8 mb 0.00 in0.0 mm 0.00 in/hr0.0 mm/hr 0.00 in0.0 mm
08:06 AM 82.0°F27.8°C 66.3°F19.1°C 59% 13.2 mph NE21.2 kmh NE 20.4 mph32.8 kmh 29.11 in985.8 mb 0.00 in0.0 mm 0.00 in/hr0.0 mm/hr 0.00 in0.0 mm
08:05 AM 82.0°F27.8°C 66.8°F19.3°C 60% 9.2 mph NE14.8 kmh NE 20.4 mph32.8 kmh 29.11 in985.8 mb 0.00 in0.0 mm 0.00 in/hr0.0 mm/hr 0.00 in0.0 mm
08:04 AM 81.9°F27.7°C 66.6°F19.2°C 60% 15.4 mph NE24.8 kmh NE 20.4 mph32.8 kmh 29.11 in985.8 mb 0.00 in0.0 mm 0.00 in/hr0.0 mm/hr 0.00 in0.0 mm
08:03 AM 81.7°F27.6°C 66.5°F19.2°C 60% 8.9 mph NE14.3 kmh NE 20.4 mph32.8 kmh 29.11 in985.8 mb 0.00 in0.0 mm 0.00 in/hr0.0 mm/hr 0.00 in0.0 mm
08:02 AM 81.7°F27.6°C 66.5°F19.2°C 60% 10.1 mph NE16.3 kmh NE 20.4 mph32.8 kmh 29.11 in985.8 mb 0.00 in0.0 mm 0.00 in/hr0.0 mm/hr 0.00 in0.0 mm
08:01 AM 81.7°F27.6°C 66.5°F19.2°C 60% 5.4 mph NE8.7 kmh NE 20.4 mph32.8 kmh 29.11 in985.8 mb 0.00 in0.0 mm 0.00 in/hr0.0 mm/hr 0.00 in0.0 mm
08:00 AM 81.7°F27.6°C 66.5°F19.2°C 60% 9.8 mph NE15.8 kmh NE 20.4 mph32.8 kmh 29.10 in985.4 mb 0.00 in0.0 mm 0.00 in/hr0.0 mm/hr 0.00 in0.0 mm
07:59 AM 81.7°F27.6°C 66.5°F19.2°C 60% 12.5 mph NE20.1 kmh NE 20.4 mph32.8 kmh 29.10 in985.4 mb 0.00 in0.0 mm 0.00 in/hr0.0 mm/hr 0.00 in0.0 mm
07:58 AM 81.7°F27.6°C 66.5°F19.2°C 60% 12.1 mph NE19.5 kmh NE 20.4 mph32.8 kmh 29.11 in985.8 mb 0.00 in0.0 mm 0.00 in/hr0.0 mm/hr 0.00 in0.0 mm
07:57 AM 81.7°F27.6°C 66.5°F19.2°C 60% 13.4 mph NE21.6 kmh NE 20.4 mph32.8 kmh 29.11 in985.8 mb 0.00 in0.0 mm 0.00 in/hr0.0 mm/hr 0.00 in0.0 mm
07:56 AM 81.7°F27.6°C 66.5°F19.2°C 60% 11.6 mph NE18.7 kmh NE 20.4 mph32.8 kmh 29.11 in985.8 mb 0.00 in0.0 mm 0.00 in/hr0.0 mm/hr 0.00 in0.0 mm
07:55 AM 81.7°F27.6°C 66.5°F19.2°C 60% 13.0 mph NE20.9 kmh NE 20.4 mph32.8 kmh 29.11 in985.8 mb 0.00 in0.0 mm 0.00 in/hr0.0 mm/hr 0.00 in0.0 mm
07:54 AM 81.7°F27.6°C 66.5°F19.2°C 60% 14.8 mph NE23.8 kmh NE 19.2 mph30.9 kmh 29.11 in985.8 mb 0.00 in0.0 mm 0.00 in/hr0.0 mm/hr 0.00 in0.0 mm
07:53 AM 81.7°F27.6°C 66.5°F19.2°C 60% 11.9 mph NE19.2 kmh NE 19.2 mph30.9 kmh 29.11 in985.8 mb 0.00 in0.0 mm 0.00 in/hr0.0 mm/hr 0.00 in0.0 mm
07:52 AM 81.7°F27.6°C 66.5°F19.2°C 60% 11.4 mph NE18.3 kmh NE 19.2 mph30.9 kmh 29.11 in985.8 mb 0.00 in0.0 mm 0.00 in/hr0.0 mm/hr 0.00 in0.0 mm
07:51 AM 81.7°F27.6°C 66.5°F19.2°C 60% 12.3 mph NE19.8 kmh NE 19.2 mph30.9 kmh 29.11 in985.8 mb 0.00 in0.0 mm 0.00 in/hr0.0 mm/hr 0.00 in0.0 mm
07:50 AM 81.7°F27.6°C 66.5°F19.2°C 60% 13.0 mph NE20.9 kmh NE 19.2 mph30.9 kmh 29.11 in985.8 mb 0.00 in0.0 mm 0.00 in/hr0.0 mm/hr 0.00 in0.0 mm
07:49 AM 81.7°F27.6°C 66.5°F19.2°C 60% 14.1 mph NE22.7 kmh NE 19.2 mph30.9 kmh 29.11 in985.8 mb 0.00 in0.0 mm 0.00 in/hr0.0 mm/hr 0.00 in0.0 mm
07:48 AM 81.7°F27.6°C 66.5°F19.2°C 60% 14.8 mph NE23.8 kmh NE 19.2 mph30.9 kmh 29.11 in985.8 mb 0.00 in0.0 mm 0.00 in/hr0.0 mm/hr 0.00 in0.0 mm
07:47 AM 81.5°F27.5°C 66.3°F19.1°C 60% 10.1 mph NE16.3 kmh NE 17.9 mph28.8 kmh 29.11 in985.8 mb 0.00 in0.0 mm 0.00 in/hr0.0 mm/hr 0.00 in0.0 mm
07:46 AM 81.5°F27.5°C 66.3°F19.1°C 60% 11.6 mph NE18.7 kmh NE 17.9 mph28.8 kmh 29.11 in985.8 mb 0.00 in0.0 mm 0.00 in/hr0.0 mm/hr 0.00 in0.0 mm
07:45 AM 81.3°F27.4°C 66.1°F18.9°C 60% 13.2 mph NE21.2 kmh NE 17.9 mph28.8 kmh 29.11 in985.8 mb 0.00 in0.0 mm 0.00 in/hr0.0 mm/hr 0.00 in0.0 mm
07:44 AM 81.3°F27.4°C 66.1°F18.9°C 60% 8.3 mph NE13.4 kmh NE 17.9 mph28.8 kmh 29.10 in985.4 mb 0.00 in0.0 mm 0.00 in/hr0.0 mm/hr 0.00 in0.0 mm
07:43 AM 81.3°F27.4°C 66.6°F19.2°C 61% 8.1 mph NE13.0 kmh NE 17.9 mph28.8 kmh 29.11 in985.8 mb 0.00 in0.0 mm 0.00 in/hr0.0 mm/hr 0.00 in0.0 mm
07:42 AM 81.3°F27.4°C 66.6°F19.2°C 61% 15.0 mph NE24.1 kmh NE 17.9 mph28.8 kmh 29.10 in985.4 mb 0.00 in0.0 mm 0.00 in/hr0.0 mm/hr 0.00 in0.0 mm
07:41 AM 81.1°F27.3°C 66.4°F19.1°C 61% 8.9 mph NE14.3 kmh NE 17.9 mph28.8 kmh 29.11 in985.8 mb 0.00 in0.0 mm 0.00 in/hr0.0 mm/hr 0.00 in0.0 mm
07:40 AM 81.1°F27.3°C 66.4°F19.1°C 61% 14.1 mph NE22.7 kmh NE 17.9 mph28.8 kmh 29.10 in985.4 mb 0.00 in0.0 mm 0.00 in/hr0.0 mm/hr 0.00 in0.0 mm
07:39 AM 81.0°F27.2°C 66.7°F19.3°C 62% 13.4 mph NE21.6 kmh NE 17.9 mph28.8 kmh 29.10 in985.4 mb 0.00 in0.0 mm 0.00 in/hr0.0 mm/hr 0.00 in0.0 mm
07:38 AM 81.0°F27.2°C 66.7°F19.3°C 62% 15.0 mph NE24.1 kmh NE 15.0 mph24.1 kmh 29.10 in985.4 mb 0.00 in0.0 mm 0.00 in/hr0.0 mm/hr 0.00 in0.0 mm
07:37 AM 80.8°F27.1°C 66.5°F19.2°C 62% 13.4 mph NE21.6 kmh NE 14.3 mph23.0 kmh 29.11 in985.8 mb 0.00 in0.0 mm 0.00 in/hr0.0 mm/hr 0.00 in0.0 mm
07:36 AM 80.8°F27.1°C 66.5°F19.2°C 62% 7.8 mph NE12.6 kmh NE 14.3 mph23.0 kmh 29.10 in985.4 mb 0.00 in0.0 mm 0.00 in/hr0.0 mm/hr 0.00 in0.0 mm
07:35 AM 80.6°F27.0°C 66.4°F19.1°C 62% 8.1 mph NE13.0 kmh NE 14.3 mph23.0 kmh 29.10 in985.4 mb 0.00 in0.0 mm 0.00 in/hr0.0 mm/hr 0.00 in0.0 mm
07:34 AM 80.4°F26.9°C 66.2°F19.0°C 62% 10.7 mph NE17.2 kmh NE 14.3 mph23.0 kmh 29.10 in985.4 mb 0.00 in0.0 mm 0.00 in/hr0.0 mm/hr 0.00 in0.0 mm
07:33 AM 80.4°F26.9°C 66.2°F19.0°C 62% 10.5 mph NE16.9 kmh NE 14.3 mph23.0 kmh 29.10 in985.4 mb 0.00 in0.0 mm 0.00 in/hr0.0 mm/hr 0.00 in0.0 mm
07:32 AM 80.2°F26.8°C 66.0°F18.9°C 62% 13.2 mph NE21.2 kmh NE 14.3 mph23.0 kmh 29.10 in985.4 mb 0.00 in0.0 mm 0.00 in/hr0.0 mm/hr 0.00 in0.0 mm
07:31 AM 80.2°F26.8°C 66.5°F19.2°C 63% 5.8 mph NE9.3 kmh NE 14.3 mph23.0 kmh 29.10 in985.4 mb 0.00 in0.0 mm 0.00 in/hr0.0 mm/hr 0.00 in0.0 mm
07:30 AM 80.2°F26.8°C 66.5°F19.2°C 63% 12.1 mph NE19.5 kmh NE 14.3 mph23.0 kmh 29.10 in985.4 mb 0.00 in0.0 mm 0.00 in/hr0.0 mm/hr 0.00 in0.0 mm
07:29 AM 80.1°F26.7°C 66.3°F19.1°C 63% 12.1 mph NE19.5 kmh NE 14.3 mph23.0 kmh 29.10 in985.4 mb 0.00 in0.0 mm 0.00 in/hr0.0 mm/hr 0.00 in0.0 mm
07:28 AM 79.9°F26.6°C 66.1°F18.9°C 63% 14.3 mph NE23.0 kmh NE 14.3 mph23.0 kmh 29.10 in985.4 mb 0.00 in0.0 mm 0.00 in/hr0.0 mm/hr 0.00 in0.0 mm
07:27 AM 79.7°F26.5°C 66.0°F18.9°C 63% 7.4 mph NE11.9 kmh NE 13.4 mph21.6 kmh 29.10 in985.4 mb 0.00 in0.0 mm 0.00 in/hr0.0 mm/hr 0.00 in0.0 mm
07:26 AM 79.7°F26.5°C 66.0°F18.9°C 63% 11.2 mph NE18.0 kmh NE 12.8 mph20.6 kmh 29.10 in985.4 mb 0.00 in0.0 mm 0.00 in/hr0.0 mm/hr 0.00 in0.0 mm
07:25 AM 79.5°F26.4°C 66.3°F19.1°C 64% 10.1 mph NE16.3 kmh NE 12.5 mph20.1 kmh 29.10 in985.4 mb 0.00 in0.0 mm 0.00 in/hr0.0 mm/hr 0.00 in0.0 mm
07:24 AM 79.5°F26.4°C 66.3°F19.1°C 64% 6.9 mph NE11.1 kmh NE 12.5 mph20.1 kmh 29.09 in985.1 mb 0.00 in0.0 mm 0.00 in/hr0.0 mm/hr 0.00 in0.0 mm
07:23 AM 79.3°F26.3°C 66.1°F18.9°C 64% 6.9 mph NE11.1 kmh NE 12.5 mph20.1 kmh 29.10 in985.4 mb 0.00 in0.0 mm 0.00 in/hr0.0 mm/hr 0.00 in0.0 mm
07:22 AM 79.3°F26.3°C 66.1°F18.9°C 64% 1.6 mph NE2.6 kmh NE 12.5 mph20.1 kmh 29.10 in985.4 mb 0.00 in0.0 mm 0.00 in/hr0.0 mm/hr 0.00 in0.0 mm
07:21 AM 79.2°F26.2°C 65.9°F18.8°C 64% 5.8 mph NE9.3 kmh NE 12.5 mph20.1 kmh 29.10 in985.4 mb 0.00 in0.0 mm 0.00 in/hr0.0 mm/hr 0.00 in0.0 mm
07:20 AM 79.2°F26.2°C 65.9°F18.8°C 64% 10.3 mph NE16.6 kmh NE 12.5 mph20.1 kmh 29.09 in985.1 mb 0.00 in0.0 mm 0.00 in/hr0.0 mm/hr 0.00 in0.0 mm
07:19 AM 79.0°F26.1°C 66.2°F19.0°C 65% 8.7 mph NE14.0 kmh NE 15.7 mph25.3 kmh 29.10 in985.4 mb 0.00 in0.0 mm 0.00 in/hr0.0 mm/hr 0.00 in0.0 mm
07:18 AM 79.0°F26.1°C 66.2°F19.0°C 65% 8.9 mph NE14.3 kmh NE 15.7 mph25.3 kmh 29.10 in985.4 mb 0.00 in0.0 mm 0.00 in/hr0.0 mm/hr 0.00 in0.0 mm
07:17 AM 78.8°F26.0°C 66.0°F18.9°C 65% 6.7 mph NE10.8 kmh NE 15.7 mph25.3 kmh 29.10 in985.4 mb 0.00 in0.0 mm 0.00 in/hr0.0 mm/hr 0.00 in0.0 mm
07:16 AM 78.6°F25.9°C 65.8°F18.8°C 65% 12.5 mph NE20.1 kmh NE 15.7 mph25.3 kmh 29.10 in985.4 mb 0.00 in0.0 mm 0.00 in/hr0.0 mm/hr 0.00 in0.0 mm
07:15 AM 78.6°F25.9°C 65.8°F18.8°C 65% 10.1 mph NE16.3 kmh NE 15.7 mph25.3 kmh 29.10 in985.4 mb 0.00 in0.0 mm 0.00 in/hr0.0 mm/hr 0.00 in0.0 mm
07:14 AM 78.6°F25.9°C 65.8°F18.8°C 65% 12.1 mph NE19.5 kmh NE 15.7 mph25.3 kmh 29.10 in985.4 mb 0.00 in0.0 mm 0.00 in/hr0.0 mm/hr 0.00 in0.0 mm
07:13 AM 78.6°F25.9°C 65.8°F18.8°C 65% 11.9 mph NE19.2 kmh NE 15.7 mph25.3 kmh 29.10 in985.4 mb 0.00 in0.0 mm 0.00 in/hr0.0 mm/hr 0.00 in0.0 mm
07:12 AM 78.6°F25.9°C 65.8°F18.8°C 65% 10.1 mph NE16.3 kmh NE 15.7 mph25.3 kmh 29.10 in985.4 mb 0.00 in0.0 mm 0.00 in/hr0.0 mm/hr 0.00 in0.0 mm
07:11 AM 78.4°F25.8°C 65.7°F18.7°C 65% 9.8 mph NE15.8 kmh NE 15.7 mph25.3 kmh 29.10 in985.4 mb 0.00 in0.0 mm 0.00 in/hr0.0 mm/hr 0.00 in0.0 mm
07:10 AM 78.4°F25.8°C 65.7°F18.7°C 65% 10.1 mph NE16.3 kmh NE 15.7 mph25.3 kmh 29.10 in985.4 mb 0.00 in0.0 mm 0.00 in/hr0.0 mm/hr 0.00 in0.0 mm
07:09 AM 78.1°F25.6°C 65.8°F18.8°C 66% 13.2 mph NE21.2 kmh NE 15.2 mph24.5 kmh 29.09 in985.1 mb 0.00 in0.0 mm 0.00 in/hr0.0 mm/hr 0.00 in0.0 mm
07:08 AM 78.1°F25.6°C 65.8°F18.8°C 66% 9.8 mph NE15.8 kmh NE 15.2 mph24.5 kmh 29.10 in985.4 mb 0.00 in0.0 mm 0.00 in/hr0.0 mm/hr 0.00 in0.0 mm
07:07 AM 78.1°F25.6°C 65.8°F18.8°C 66% 7.6 mph NE12.2 kmh NE 15.2 mph24.5 kmh 29.09 in985.1 mb 0.00 in0.0 mm 0.00 in/hr0.0 mm/hr 0.00 in0.0 mm
07:06 AM 78.1°F25.6°C 65.8°F18.8°C 66% 10.5 mph NE16.9 kmh NE 15.2 mph24.5 kmh 29.10 in985.4 mb 0.00 in0.0 mm 0.00 in/hr0.0 mm/hr 0.00 in0.0 mm
07:05 AM 77.9°F25.5°C 65.6°F18.7°C 66% 5.4 mph NE8.7 kmh NE 15.2 mph24.5 kmh 29.09 in985.1 mb 0.00 in0.0 mm 0.00 in/hr0.0 mm/hr 0.00 in0.0 mm
07:04 AM 77.9°F25.5°C 65.6°F18.7°C 66% 9.2 mph NE14.8 kmh NE 15.2 mph24.5 kmh 29.10 in985.4 mb 0.00 in0.0 mm 0.00 in/hr0.0 mm/hr 0.00 in0.0 mm
07:03 AM 77.9°F25.5°C 65.6°F18.7°C 66% 8.1 mph NE13.0 kmh NE 15.4 mph24.8 kmh 29.10 in985.4 mb 0.00 in0.0 mm 0.00 in/hr0.0 mm/hr 0.00 in0.0 mm
07:02 AM 77.7°F25.4°C 65.4°F18.6°C 66% 11.4 mph NE18.3 kmh NE 18.3 mph29.5 kmh 29.09 in985.1 mb 0.00 in0.0 mm 0.00 in/hr0.0 mm/hr 0.00 in0.0 mm
07:01 AM 77.7°F25.4°C 65.9°F18.8°C 67% 15.2 mph NE24.5 kmh NE 18.3 mph29.5 kmh 29.10 in985.4 mb 0.00 in0.0 mm 0.00 in/hr0.0 mm/hr 0.00 in0.0 mm
07:00 AM 77.7°F25.4°C 65.9°F18.8°C 67% 14.1 mph NE22.7 kmh NE 18.3 mph29.5 kmh 29.10 in985.4 mb 0.00 in0.0 mm 0.00 in/hr0.0 mm/hr 0.00 in0.0 mm
06:59 AM 77.7°F25.4°C 65.9°F18.8°C 67% 6.0 mph NE9.7 kmh NE 18.3 mph29.5 kmh 29.10 in985.4 mb 0.00 in0.0 mm 0.00 in/hr0.0 mm/hr 0.00 in0.0 mm
06:58 AM 77.5°F25.3°C 65.7°F18.7°C 67% 6.7 mph NE10.8 kmh NE 18.3 mph29.5 kmh 29.10 in985.4 mb 0.00 in0.0 mm 0.00 in/hr0.0 mm/hr 0.00 in0.0 mm
06:57 AM 77.5°F25.3°C 65.7°F18.7°C 67% 8.3 mph NE13.4 kmh NE 18.3 mph29.5 kmh 29.10 in985.4 mb 0.00 in0.0 mm 0.00 in/hr0.0 mm/hr 0.00 in0.0 mm
06:56 AM 77.5°F25.3°C 65.7°F18.7°C 67% 4.3 mph NE6.9 kmh NE 18.3 mph29.5 kmh 29.10 in985.4 mb 0.00 in0.0 mm 0.00 in/hr0.0 mm/hr 0.00 in0.0 mm
06:55 AM 77.5°F25.3°C 65.7°F18.7°C 67% 7.8 mph NNE12.6 kmh NNE 18.3 mph29.5 kmh 29.10 in985.4 mb 0.00 in0.0 mm 0.00 in/hr0.0 mm/hr 0.00 in0.0 mm
06:54 AM 77.5°F25.3°C 65.7°F18.7°C 67% 8.3 mph NNE13.4 kmh NNE 18.3 mph29.5 kmh 29.10 in985.4 mb 0.00 in0.0 mm 0.00 in/hr0.0 mm/hr 0.00 in0.0 mm
06:53 AM 77.5°F25.3°C 65.7°F18.7°C 67% 14.5 mph NNE23.3 kmh NNE 18.3 mph29.5 kmh 29.10 in985.4 mb 0.00 in0.0 mm 0.00 in/hr0.0 mm/hr 0.00 in0.0 mm
06:52 AM 77.5°F25.3°C 65.7°F18.7°C 67% 13.0 mph NNE20.9 kmh NNE 15.2 mph24.5 kmh 29.10 in985.4 mb 0.00 in0.0 mm 0.00 in/hr0.0 mm/hr 0.00 in0.0 mm
06:51 AM 77.5°F25.3°C 65.7°F18.7°C 67% 7.8 mph NNE12.6 kmh NNE 15.2 mph24.5 kmh 29.10 in985.4 mb 0.00 in0.0 mm 0.00 in/hr0.0 mm/hr 0.00 in0.0 mm
06:50 AM 77.5°F25.3°C 65.7°F18.7°C 67% 8.9 mph NNE14.3 kmh NNE 15.9 mph25.6 kmh 29.10 in985.4 mb 0.00 in0.0 mm 0.00 in/hr0.0 mm/hr 0.00 in0.0 mm
06:49 AM 77.5°F25.3°C 65.7°F18.7°C 67% 6.5 mph NNE10.5 kmh NNE 15.9 mph25.6 kmh 29.10 in985.4 mb 0.00 in0.0 mm 0.00 in/hr0.0 mm/hr 0.00 in0.0 mm
06:48 AM 77.5°F25.3°C 65.7°F18.7°C 67% 7.2 mph NNE11.6 kmh NNE 15.9 mph25.6 kmh 29.10 in985.4 mb 0.00 in0.0 mm 0.00 in/hr0.0 mm/hr 0.00 in0.0 mm
06:47 AM 77.5°F25.3°C 65.7°F18.7°C 67% 7.2 mph NNE11.6 kmh NNE 15.9 mph25.6 kmh 29.10 in985.4 mb 0.00 in0.0 mm 0.00 in/hr0.0 mm/hr 0.00 in0.0 mm
06:46 AM 77.5°F25.3°C 65.7°F18.7°C 67% 8.9 mph NNE14.3 kmh NNE 15.9 mph25.6 kmh 29.09 in985.1 mb 0.00 in0.0 mm 0.00 in/hr0.0 mm/hr 0.00 in0.0 mm
06:45 AM 77.5°F25.3°C 65.7°F18.7°C 67% 10.1 mph NNE16.3 kmh NNE 15.9 mph25.6 kmh 29.09 in985.1 mb 0.00 in0.0 mm 0.00 in/hr0.0 mm/hr 0.00 in0.0 mm
06:44 AM 77.5°F25.3°C 65.7°F18.7°C 67% 8.7 mph NNE14.0 kmh NNE 15.9 mph25.6 kmh 29.10 in985.4 mb 0.00 in0.0 mm 0.00 in/hr0.0 mm/hr 0.00 in0.0 mm
06:43 AM 77.5°F25.3°C 65.7°F18.7°C 67% 10.3 mph N16.6 kmh N 15.9 mph25.6 kmh 29.09 in985.1 mb 0.00 in0.0 mm 0.00 in/hr0.0 mm/hr 0.00 in0.0 mm
06:42 AM 77.5°F25.3°C 65.7°F18.7°C 67% 8.7 mph N14.0 kmh N 15.9 mph25.6 kmh 29.10 in985.4 mb 0.00 in0.0 mm 0.00 in/hr0.0 mm/hr 0.00 in0.0 mm
06:41 AM 77.5°F25.3°C 65.7°F18.7°C 67% 12.5 mph N20.1 kmh N 15.9 mph25.6 kmh 29.10 in985.4 mb 0.00 in0.0 mm 0.00 in/hr0.0 mm/hr 0.00 in0.0 mm
06:40 AM 77.5°F25.3°C 65.7°F18.7°C 67% 11.4 mph NNE18.3 kmh NNE 15.7 mph25.3 kmh 29.10 in985.4 mb 0.00 in0.0 mm 0.00 in/hr0.0 mm/hr 0.00 in0.0 mm
06:39 AM 77.5°F25.3°C 65.7°F18.7°C 67% 13.4 mph NNE21.6 kmh NNE 15.7 mph25.3 kmh 29.10 in985.4 mb 0.00 in0.0 mm 0.00 in/hr0.0 mm/hr 0.00 in0.0 mm
06:38 AM 77.5°F25.3°C 65.7°F18.7°C 67% 13.9 mph N22.4 kmh N 15.7 mph25.3 kmh 29.09 in985.1 mb 0.00 in0.0 mm 0.00 in/hr0.0 mm/hr 0.00 in0.0 mm
06:37 AM 77.5°F25.3°C 65.7°F18.7°C 67% 11.2 mph N18.0 kmh N 15.7 mph25.3 kmh 29.10 in985.4 mb 0.00 in0.0 mm 0.00 in/hr0.0 mm/hr 0.00 in0.0 mm
06:36 AM 77.5°F25.3°C 65.7°F18.7°C 67% 14.3 mph N23.0 kmh N 15.7 mph25.3 kmh 29.09 in985.1 mb 0.00 in0.0 mm 0.00 in/hr0.0 mm/hr 0.00 in0.0 mm
06:35 AM 77.5°F25.3°C 65.7°F18.7°C 67% 15.7 mph N25.3 kmh N 15.7 mph25.3 kmh 29.09 in985.1 mb 0.00 in0.0 mm 0.00 in/hr0.0 mm/hr 0.00 in0.0 mm
06:34 AM 77.5°F25.3°C 65.7°F18.7°C 67% 9.4 mph N15.1 kmh N 15.7 mph25.3 kmh 29.09 in985.1 mb 0.00 in0.0 mm 0.00 in/hr0.0 mm/hr 0.00 in0.0 mm
06:33 AM 77.7°F25.4°C 65.9°F18.8°C 67% 8.1 mph N13.0 kmh N 15.7 mph25.3 kmh 29.09 in985.1 mb 0.00 in0.0 mm 0.00 in/hr0.0 mm/hr 0.00 in0.0 mm
06:32 AM 77.7°F25.4°C 65.9°F18.8°C 67% 8.9 mph N14.3 kmh N 15.7 mph25.3 kmh 29.09 in985.1 mb 0.00 in0.0 mm 0.00 in/hr0.0 mm/hr 0.00 in0.0 mm
06:31 AM 77.7°F25.4°C 65.9°F18.8°C 67% 9.6 mph N15.4 kmh N 15.7 mph25.3 kmh 29.09 in985.1 mb 0.00 in0.0 mm 0.00 in/hr0.0 mm/hr 0.00 in0.0 mm
06:30 AM 77.7°F25.4°C 65.9°F18.8°C 67% 10.3 mph N16.6 kmh N 15.7 mph25.3 kmh 29.09 in985.1 mb 0.00 in0.0 mm 0.00 in/hr0.0 mm/hr 0.00 in0.0 mm
06:29 AM 77.7°F25.4°C 65.9°F18.8°C 67% 15.2 mph N24.5 kmh N 15.7 mph25.3 kmh 29.09 in985.1 mb 0.00 in0.0 mm 0.00 in/hr0.0 mm/hr 0.00 in0.0 mm
06:28 AM 77.7°F25.4°C 65.9°F18.8°C 67% 9.4 mph N15.1 kmh N 15.7 mph25.3 kmh 29.09 in985.1 mb 0.00 in0.0 mm 0.00 in/hr0.0 mm/hr 0.00 in0.0 mm
06:27 AM 77.7°F25.4°C 65.9°F18.8°C 67% 9.2 mph N14.8 kmh N 15.7 mph25.3 kmh 29.09 in985.1 mb 0.00 in0.0 mm 0.00 in/hr0.0 mm/hr 0.00 in0.0 mm
06:26 AM 77.7°F25.4°C 65.9°F18.8°C 67% 12.8 mph N20.6 kmh N 14.3 mph23.0 kmh 29.09 in985.1 mb 0.00 in0.0 mm 0.00 in/hr0.0 mm/hr 0.00 in0.0 mm
06:25 AM 77.7°F25.4°C 65.9°F18.8°C 67% 8.3 mph N13.4 kmh N 14.3 mph23.0 kmh 29.09 in985.1 mb 0.00 in0.0 mm 0.00 in/hr0.0 mm/hr 0.00 in0.0 mm
06:24 AM 77.7°F25.4°C 65.9°F18.8°C 67% 7.6 mph N12.2 kmh N 14.3 mph23.0 kmh 29.09 in985.1 mb 0.00 in0.0 mm 0.00 in/hr0.0 mm/hr 0.00 in0.0 mm
06:23 AM 77.7°F25.4°C 65.9°F18.8°C 67% 8.7 mph N14.0 kmh N 14.3 mph23.0 kmh 29.09 in985.1 mb 0.00 in0.0 mm 0.00 in/hr0.0 mm/hr 0.00 in0.0 mm
06:22 AM 77.7°F25.4°C 65.9°F18.8°C 67% 10.7 mph N17.2 kmh N 14.3 mph23.0 kmh 29.09 in985.1 mb 0.00 in0.0 mm 0.00 in/hr0.0 mm/hr 0.00 in0.0 mm
06:21 AM 77.7°F25.4°C 65.9°F18.8°C 67% 13.4 mph N21.6 kmh N 14.3 mph23.0 kmh 29.09 in985.1 mb 0.00 in0.0 mm 0.00 in/hr0.0 mm/hr 0.00 in0.0 mm
06:20 AM 77.7°F25.4°C 65.9°F18.8°C 67% 8.7 mph N14.0 kmh N 14.3 mph23.0 kmh 29.09 in985.1 mb 0.00 in0.0 mm 0.00 in/hr0.0 mm/hr 0.00 in0.0 mm
06:19 AM 77.9°F25.5°C 66.0°F18.9°C 67% 10.7 mph N17.2 kmh N 14.3 mph23.0 kmh 29.09 in985.1 mb 0.00 in0.0 mm 0.00 in/hr0.0 mm/hr 0.00 in0.0 mm
06:18 AM 77.9°F25.5°C 66.0°F18.9°C 67% 10.1 mph N16.3 kmh N 12.8 mph20.6 kmh 29.09 in985.1 mb 0.00 in0.0 mm 0.00 in/hr0.0 mm/hr 0.00 in0.0 mm
06:17 AM 77.9°F25.5°C 66.0°F18.9°C 67% 10.3 mph N16.6 kmh N 11.9 mph19.2 kmh 29.09 in985.1 mb 0.00 in0.0 mm 0.00 in/hr0.0 mm/hr 0.00 in0.0 mm
06:16 AM 77.9°F25.5°C 66.0°F18.9°C 67% 9.8 mph N15.8 kmh N 11.9 mph19.2 kmh 29.09 in985.1 mb 0.00 in0.0 mm 0.00 in/hr0.0 mm/hr 0.00 in0.0 mm
06:15 AM 77.9°F25.5°C 66.0°F18.9°C 67% 8.7 mph N14.0 kmh N 11.9 mph19.2 kmh 29.10 in985.4 mb 0.00 in0.0 mm 0.00 in/hr0.0 mm/hr 0.00 in0.0 mm
06:14 AM 77.9°F25.5°C 66.0°F18.9°C 67% 10.5 mph N16.9 kmh N 13.2 mph21.2 kmh 29.09 in985.1 mb 0.00 in0.0 mm 0.00 in/hr0.0 mm/hr 0.00 in0.0 mm
06:13 AM 77.9°F25.5°C 66.0°F18.9°C 67% 9.8 mph N15.8 kmh N 14.5 mph23.3 kmh 29.09 in985.1 mb 0.00 in0.0 mm 0.00 in/hr0.0 mm/hr 0.00 in0.0 mm
06:12 AM 78.1°F25.6°C 66.2°F19.0°C 67% 8.1 mph N13.0 kmh N 14.5 mph23.3 kmh 29.09 in985.1 mb 0.00 in0.0 mm 0.00 in/hr0.0 mm/hr 0.00 in0.0 mm
06:11 AM 78.1°F25.6°C 66.2°F19.0°C 67% 9.4 mph N15.1 kmh N 14.5 mph23.3 kmh 29.10 in985.4 mb 0.00 in0.0 mm 0.00 in/hr0.0 mm/hr 0.00 in0.0 mm
06:10 AM 78.1°F25.6°C 66.2°F19.0°C 67% 9.8 mph N15.8 kmh N 14.5 mph23.3 kmh 29.09 in985.1 mb 0.00 in0.0 mm 0.00 in/hr0.0 mm/hr 0.00 in0.0 mm
06:09 AM 78.1°F25.6°C 66.2°F19.0°C 67% 9.4 mph N15.1 kmh N 14.5 mph23.3 kmh 29.09 in985.1 mb 0.00 in0.0 mm 0.00 in/hr0.0 mm/hr 0.00 in0.0 mm
06:08 AM 78.1°F25.6°C 66.2°F19.0°C 67% 8.7 mph N14.0 kmh N 14.5 mph23.3 kmh 29.09 in985.1 mb 0.00 in0.0 mm 0.00 in/hr0.0 mm/hr 0.00 in0.0 mm
06:07 AM 78.1°F25.6°C 66.2°F19.0°C 67% 8.3 mph N13.4 kmh N 14.5 mph23.3 kmh 29.09 in985.1 mb 0.00 in0.0 mm 0.00 in/hr0.0 mm/hr 0.00 in0.0 mm
06:06 AM 78.1°F25.6°C 66.2°F19.0°C 67% 7.6 mph N12.2 kmh N 14.5 mph23.3 kmh 29.09 in985.1 mb 0.00 in0.0 mm 0.00 in/hr0.0 mm/hr 0.00 in0.0 mm
06:05 AM 78.1°F25.6°C 66.2°F19.0°C 67% 12.5 mph N20.1 kmh N 14.5 mph23.3 kmh 29.09 in985.1 mb 0.00 in0.0 mm 0.00 in/hr0.0 mm/hr 0.00 in0.0 mm
06:04 AM 78.1°F25.6°C 66.2°F19.0°C 67% 13.4 mph N21.6 kmh N 14.5 mph23.3 kmh 29.09 in985.1 mb 0.00 in0.0 mm 0.00 in/hr0.0 mm/hr 0.00 in0.0 mm
06:03 AM 78.1°F25.6°C 66.2°F19.0°C 67% 8.5 mph N13.7 kmh N 12.8 mph20.6 kmh 29.09 in985.1 mb 0.00 in0.0 mm 0.00 in/hr0.0 mm/hr 0.00 in0.0 mm
06:02 AM 78.3°F25.7°C 66.4°F19.1°C 67% 6.9 mph N11.1 kmh N 12.8 mph20.6 kmh 29.09 in985.1 mb 0.00 in0.0 mm 0.00 in/hr0.0 mm/hr 0.00 in0.0 mm
06:01 AM 78.3°F25.7°C 66.4°F19.1°C 67% 10.5 mph N16.9 kmh N 12.3 mph19.8 kmh 29.08 in984.8 mb 0.00 in0.0 mm 0.00 in/hr0.0 mm/hr 0.00 in0.0 mm
06:00 AM 78.3°F25.7°C 66.4°F19.1°C 67% 10.5 mph N16.9 kmh N 12.3 mph19.8 kmh 29.08 in984.8 mb 0.00 in0.0 mm 0.00 in/hr0.0 mm/hr 0.00 in0.0 mm
05:59 AM 78.3°F25.7°C 66.4°F19.1°C 67% 6.7 mph N10.8 kmh N 12.3 mph19.8 kmh 29.08 in984.8 mb 0.00 in0.0 mm 0.00 in/hr0.0 mm/hr 0.00 in0.0 mm
05:58 AM 78.4°F25.8°C 66.5°F19.2°C 67% 8.9 mph N14.3 kmh N 12.3 mph19.8 kmh 29.08 in984.8 mb 0.00 in0.0 mm 0.00 in/hr0.0 mm/hr 0.00 in0.0 mm
05:57 AM 78.4°F25.8°C 66.5°F19.2°C 67% 8.3 mph N13.4 kmh N 12.3 mph19.8 kmh 29.08 in984.8 mb 0.00 in0.0 mm 0.00 in/hr0.0 mm/hr 0.00 in0.0 mm
05:56 AM 78.4°F25.8°C 66.5°F19.2°C 67% 11.6 mph N18.7 kmh N 12.3 mph19.8 kmh 29.08 in984.8 mb 0.00 in0.0 mm 0.00 in/hr0.0 mm/hr 0.00 in0.0 mm
05:55 AM 78.4°F25.8°C 66.5°F19.2°C 67% 9.8 mph N15.8 kmh N 12.3 mph19.8 kmh 29.08 in984.8 mb 0.00 in0.0 mm 0.00 in/hr0.0 mm/hr 0.00 in0.0 mm
05:54 AM 78.4°F25.8°C 66.5°F19.2°C 67% 8.9 mph N14.3 kmh N 12.3 mph19.8 kmh 29.08 in984.8 mb 0.00 in0.0 mm 0.00 in/hr0.0 mm/hr 0.00 in0.0 mm
05:53 AM 78.4°F25.8°C 66.5°F19.2°C 67% 5.8 mph N9.3 kmh N 12.1 mph19.5 kmh 29.08 in984.8 mb 0.00 in0.0 mm 0.00 in/hr0.0 mm/hr 0.00 in0.0 mm
05:52 AM 78.4°F25.8°C 66.5°F19.2°C 67% 8.5 mph N13.7 kmh N 12.1 mph19.5 kmh 29.07 in984.4 mb 0.00 in0.0 mm 0.00 in/hr0.0 mm/hr 0.00 in0.0 mm
05:51 AM 78.4°F25.8°C 66.5°F19.2°C 67% 9.2 mph N14.8 kmh N 10.5 mph16.9 kmh 29.07 in984.4 mb 0.00 in0.0 mm 0.00 in/hr0.0 mm/hr 0.00 in0.0 mm
05:50 AM 78.4°F25.8°C 66.1°F18.9°C 66% 6.5 mph N10.5 kmh N 10.5 mph16.9 kmh 29.07 in984.4 mb 0.00 in0.0 mm 0.00 in/hr0.0 mm/hr 0.00 in0.0 mm
05:49 AM 78.4°F25.8°C 66.1°F18.9°C 66% 8.7 mph N14.0 kmh N 10.5 mph16.9 kmh 29.07 in984.4 mb 0.00 in0.0 mm 0.00 in/hr0.0 mm/hr 0.00 in0.0 mm
05:48 AM 78.6°F25.9°C 66.3°F19.1°C 66% 9.2 mph N14.8 kmh N 10.5 mph16.9 kmh 29.07 in984.4 mb 0.00 in0.0 mm 0.00 in/hr0.0 mm/hr 0.00 in0.0 mm
05:47 AM 78.6°F25.9°C 66.7°F19.3°C 67% 8.9 mph N14.3 kmh N 10.5 mph16.9 kmh 29.07 in984.4 mb 0.00 in0.0 mm 0.00 in/hr0.0 mm/hr 0.00 in0.0 mm
05:46 AM 78.6°F25.9°C 66.3°F19.1°C 66% 7.4 mph N11.9 kmh N 10.5 mph16.9 kmh 29.07 in984.4 mb 0.00 in0.0 mm 0.00 in/hr0.0 mm/hr 0.00 in0.0 mm
05:45 AM 78.6°F25.9°C 66.7°F19.3°C 67% 7.2 mph N11.6 kmh N 10.5 mph16.9 kmh 29.07 in984.4 mb 0.00 in0.0 mm 0.00 in/hr0.0 mm/hr 0.00 in0.0 mm
05:44 AM 78.6°F25.9°C 66.7°F19.3°C 67% 7.4 mph NNE11.9 kmh NNE 10.5 mph16.9 kmh 29.07 in984.4 mb 0.00 in0.0 mm 0.00 in/hr0.0 mm/hr 0.00 in0.0 mm
05:43 AM 78.6°F25.9°C 66.7°F19.3°C 67% 6.5 mph NNE10.5 kmh NNE 11.2 mph18.0 kmh 29.07 in984.4 mb 0.00 in0.0 mm 0.00 in/hr0.0 mm/hr 0.00 in0.0 mm
05:42 AM 78.6°F25.9°C 66.7°F19.3°C 67% 7.4 mph N11.9 kmh N 11.2 mph18.0 kmh 29.07 in984.4 mb 0.00 in0.0 mm 0.00 in/hr0.0 mm/hr 0.00 in0.0 mm
05:41 AM 78.6°F25.9°C 66.7°F19.3°C 67% 5.8 mph N9.3 kmh N 11.2 mph18.0 kmh 29.07 in984.4 mb 0.00 in0.0 mm 0.00 in/hr0.0 mm/hr 0.00 in0.0 mm
05:40 AM 78.6°F25.9°C 66.7°F19.3°C 67% 6.3 mph N10.1 kmh N 11.2 mph18.0 kmh 29.07 in984.4 mb 0.00 in0.0 mm 0.00 in/hr0.0 mm/hr 0.00 in0.0 mm
05:39 AM 78.6°F25.9°C 66.7°F19.3°C 67% 6.5 mph N10.5 kmh N 11.2 mph18.0 kmh 29.07 in984.4 mb 0.00 in0.0 mm 0.00 in/hr0.0 mm/hr 0.00 in0.0 mm
05:38 AM 78.6°F25.9°C 66.3°F19.1°C 66% 7.4 mph N11.9 kmh N 11.2 mph18.0 kmh 29.07 in984.4 mb 0.00 in0.0 mm 0.00 in/hr0.0 mm/hr 0.00 in0.0 mm
05:37 AM 78.6°F25.9°C 66.3°F19.1°C 66% 5.8 mph N9.3 kmh N 11.2 mph18.0 kmh 29.07 in984.4 mb 0.00 in0.0 mm 0.00 in/hr0.0 mm/hr 0.00 in0.0 mm
05:36 AM 78.6°F25.9°C 66.3°F19.1°C 66% 5.8 mph N9.3 kmh N 11.2 mph18.0 kmh 29.07 in984.4 mb 0.00 in0.0 mm 0.00 in/hr0.0 mm/hr 0.00 in0.0 mm
05:35 AM 78.6°F25.9°C 66.7°F19.3°C 67% 5.1 mph N8.2 kmh N 11.2 mph18.0 kmh 29.07 in984.4 mb 0.00 in0.0 mm 0.00 in/hr0.0 mm/hr 0.00 in0.0 mm
05:34 AM 78.6°F25.9°C 66.7°F19.3°C 67% 7.8 mph N12.6 kmh N 11.2 mph18.0 kmh 29.07 in984.4 mb 0.00 in0.0 mm 0.00 in/hr0.0 mm/hr 0.00 in0.0 mm
05:33 AM 78.6°F25.9°C 66.7°F19.3°C 67% 8.5 mph N13.7 kmh N 9.6 mph15.4 kmh 29.07 in984.4 mb 0.00 in0.0 mm 0.00 in/hr0.0 mm/hr 0.00 in0.0 mm
05:32 AM 78.6°F25.9°C 66.7°F19.3°C 67% 5.6 mph N9.0 kmh N 9.6 mph15.4 kmh 29.07 in984.4 mb 0.00 in0.0 mm 0.00 in/hr0.0 mm/hr 0.00 in0.0 mm
05:31 AM 78.6°F25.9°C 66.7°F19.3°C 67% 6.5 mph N10.5 kmh N 9.6 mph15.4 kmh 29.07 in984.4 mb 0.00 in0.0 mm 0.00 in/hr0.0 mm/hr 0.00 in0.0 mm
05:30 AM 78.6°F25.9°C 66.3°F19.1°C 66% 5.1 mph N8.2 kmh N 9.6 mph15.4 kmh 29.07 in984.4 mb 0.00 in0.0 mm 0.00 in/hr0.0 mm/hr 0.00 in0.0 mm
05:29 AM 78.6°F25.9°C 66.3°F19.1°C 66% 5.1 mph N8.2 kmh N 9.6 mph15.4 kmh 29.07 in984.4 mb 0.00 in0.0 mm 0.00 in/hr0.0 mm/hr 0.00 in0.0 mm
05:28 AM 78.6°F25.9°C 66.3°F19.1°C 66% 5.6 mph N9.0 kmh N 9.6 mph15.4 kmh 29.07 in984.4 mb 0.00 in0.0 mm 0.00 in/hr0.0 mm/hr 0.00 in0.0 mm
05:27 AM 78.6°F25.9°C 66.3°F19.1°C 66% 4.9 mph N7.9 kmh N 8.7 mph14.0 kmh 29.07 in984.4 mb 0.00 in0.0 mm 0.00 in/hr0.0 mm/hr 0.00 in0.0 mm
05:26 AM 78.8°F26.0°C 66.5°F19.2°C 66% 5.8 mph N9.3 kmh N 8.7 mph14.0 kmh 29.07 in984.4 mb 0.00 in0.0 mm 0.00 in/hr0.0 mm/hr 0.00 in0.0 mm
05:25 AM 79.0°F26.1°C 66.6°F19.2°C 66% 3.6 mph N5.8 kmh N 7.6 mph12.2 kmh 29.07 in984.4 mb 0.00 in0.0 mm 0.00 in/hr0.0 mm/hr 0.00 in0.0 mm
05:24 AM 79.0°F26.1°C 66.6°F19.2°C 66% 3.8 mph N6.1 kmh N 9.6 mph15.4 kmh 29.07 in984.4 mb 0.00 in0.0 mm 0.00 in/hr0.0 mm/hr 0.00 in0.0 mm
05:23 AM 79.0°F26.1°C 66.6°F19.2°C 66% 4.3 mph N6.9 kmh N 9.6 mph15.4 kmh 29.07 in984.4 mb 0.00 in0.0 mm 0.00 in/hr0.0 mm/hr 0.00 in0.0 mm
05:22 AM 79.0°F26.1°C 66.6°F19.2°C 66% 2.5 mph N4.0 kmh N 9.6 mph15.4 kmh 29.07 in984.4 mb 0.00 in0.0 mm 0.00 in/hr0.0 mm/hr 0.00 in0.0 mm
05:21 AM 79.0°F26.1°C 66.6°F19.2°C 66% 5.8 mph N9.3 kmh N 9.6 mph15.4 kmh 29.07 in984.4 mb 0.00 in0.0 mm 0.00 in/hr0.0 mm/hr 0.00 in0.0 mm
05:20 AM 79.0°F26.1°C 66.6°F19.2°C 66% 6.0 mph N9.7 kmh N 9.6 mph15.4 kmh 29.07 in984.4 mb 0.00 in0.0 mm 0.00 in/hr0.0 mm/hr 0.00 in0.0 mm
05:19 AM 79.0°F26.1°C 66.6°F19.2°C 66% 4.7 mph N7.6 kmh N 9.6 mph15.4 kmh 29.07 in984.4 mb 0.00 in0.0 mm 0.00 in/hr0.0 mm/hr 0.00 in0.0 mm
05:18 AM 79.0°F26.1°C 66.6°F19.2°C 66% 3.8 mph N6.1 kmh N 9.6 mph15.4 kmh 29.07 in984.4 mb 0.00 in0.0 mm 0.00 in/hr0.0 mm/hr 0.00 in0.0 mm
05:17 AM 79.0°F26.1°C 66.6°F19.2°C 66% 4.3 mph N6.9 kmh N 9.6 mph15.4 kmh 29.07 in984.4 mb 0.00 in0.0 mm 0.00 in/hr0.0 mm/hr 0.00 in0.0 mm
05:16 AM 79.0°F26.1°C 66.6°F19.2°C 66% 4.0 mph N6.4 kmh N 9.6 mph15.4 kmh 29.07 in984.4 mb 0.00 in0.0 mm 0.00 in/hr0.0 mm/hr 0.00 in0.0 mm
05:15 AM 79.2°F26.2°C 66.8°F19.3°C 66% 6.5 mph N10.5 kmh N 9.6 mph15.4 kmh 29.07 in984.4 mb 0.00 in0.0 mm 0.00 in/hr0.0 mm/hr 0.00 in0.0 mm
05:14 AM 79.2°F26.2°C 66.4°F19.1°C 65% 6.0 mph N9.7 kmh N 8.5 mph13.7 kmh 29.07 in984.4 mb 0.00 in0.0 mm 0.00 in/hr0.0 mm/hr 0.00 in0.0 mm
05:13 AM 79.2°F26.2°C 66.8°F19.3°C 66% 4.5 mph N7.2 kmh N 8.5 mph13.7 kmh 29.07 in984.4 mb 0.00 in0.0 mm 0.00 in/hr0.0 mm/hr 0.00 in0.0 mm
05:12 AM 79.2°F26.2°C 66.8°F19.3°C 66% 4.9 mph N7.9 kmh N 8.5 mph13.7 kmh 29.07 in984.4 mb 0.00 in0.0 mm 0.00 in/hr0.0 mm/hr 0.00 in0.0 mm
05:11 AM 79.2°F26.2°C 66.8°F19.3°C 66% 3.6 mph N5.8 kmh N 8.5 mph13.7 kmh 29.07 in984.4 mb 0.00 in0.0 mm 0.00 in/hr0.0 mm/hr 0.00 in0.0 mm
05:10 AM 79.2°F26.2°C 66.8°F19.3°C 66% 6.9 mph N11.1 kmh N 9.6 mph15.4 kmh 29.07 in984.4 mb 0.00 in0.0 mm 0.00 in/hr0.0 mm/hr 0.00 in0.0 mm
05:09 AM 79.2°F26.2°C 66.8°F19.3°C 66% 5.1 mph N8.2 kmh N 9.6 mph15.4 kmh 29.07 in984.4 mb 0.00 in0.0 mm 0.00 in/hr0.0 mm/hr 0.00 in0.0 mm
05:08 AM 79.2°F26.2°C 66.8°F19.3°C 66% 4.3 mph N6.9 kmh N 9.6 mph15.4 kmh 29.07 in984.4 mb 0.00 in0.0 mm 0.00 in/hr0.0 mm/hr 0.00 in0.0 mm
05:07 AM 79.2°F26.2°C 66.8°F19.3°C 66% 6.7 mph N10.8 kmh N 9.6 mph15.4 kmh 29.07 in984.4 mb 0.00 in0.0 mm 0.00 in/hr0.0 mm/hr 0.00 in0.0 mm
05:06 AM 79.2°F26.2°C 66.8°F19.3°C 66% 4.5 mph N7.2 kmh N 9.6 mph15.4 kmh 29.07 in984.4 mb 0.00 in0.0 mm 0.00 in/hr0.0 mm/hr 0.00 in0.0 mm
05:05 AM 79.2°F26.2°C 66.8°F19.3°C 66% 5.8 mph N9.3 kmh N 9.6 mph15.4 kmh 29.06 in984.1 mb 0.00 in0.0 mm 0.00 in/hr0.0 mm/hr 0.00 in0.0 mm
05:04 AM 79.2°F26.2°C 66.8°F19.3°C 66% 4.3 mph N6.9 kmh N 9.6 mph15.4 kmh 29.07 in984.4 mb 0.00 in0.0 mm 0.00 in/hr0.0 mm/hr 0.00 in0.0 mm
05:03 AM 79.3°F26.3°C 67.0°F19.4°C 66% 6.9 mph N11.1 kmh N 9.6 mph15.4 kmh 29.07 in984.4 mb 0.00 in0.0 mm 0.00 in/hr0.0 mm/hr 0.00 in0.0 mm
05:02 AM 79.3°F26.3°C 67.0°F19.4°C 66% 1.8 mph N2.9 kmh N 9.6 mph15.4 kmh 29.07 in984.4 mb 0.00 in0.0 mm 0.00 in/hr0.0 mm/hr 0.00 in0.0 mm
05:01 AM 79.3°F26.3°C 67.0°F19.4°C 66% 4.3 mph N6.9 kmh N 9.6 mph15.4 kmh 29.06 in984.1 mb 0.00 in0.0 mm 0.00 in/hr0.0 mm/hr 0.00 in0.0 mm
05:00 AM 79.3°F26.3°C 67.0°F19.4°C 66% 9.2 mph N14.8 kmh N 10.1 mph16.3 kmh 29.06 in984.1 mb 0.00 in0.0 mm 0.00 in/hr0.0 mm/hr 0.00 in0.0 mm
04:59 AM 79.3°F26.3°C 67.0°F19.4°C 66% 9.6 mph N15.4 kmh N 10.1 mph16.3 kmh 29.07 in984.4 mb 0.00 in0.0 mm 0.00 in/hr0.0 mm/hr 0.00 in0.0 mm
04:58 AM 79.3°F26.3°C 67.0°F19.4°C 66% 6.3 mph N10.1 kmh N 10.1 mph16.3 kmh 29.06 in984.1 mb 0.00 in0.0 mm 0.00 in/hr0.0 mm/hr 0.00 in0.0 mm
04:57 AM 79.3°F26.3°C 67.4°F19.7°C 67% 4.3 mph N6.9 kmh N 10.1 mph16.3 kmh 29.06 in984.1 mb 0.00 in0.0 mm 0.00 in/hr0.0 mm/hr 0.00 in0.0 mm
04:56 AM 79.3°F26.3°C 67.4°F19.7°C 67% 3.4 mph N5.5 kmh N 10.1 mph16.3 kmh 29.06 in984.1 mb 0.00 in0.0 mm 0.00 in/hr0.0 mm/hr 0.00 in0.0 mm
04:55 AM 79.3°F26.3°C 67.4°F19.7°C 67% 6.3 mph N10.1 kmh N 10.1 mph16.3 kmh 29.06 in984.1 mb 0.00 in0.0 mm 0.00 in/hr0.0 mm/hr 0.00 in0.0 mm
04:54 AM 79.3°F26.3°C 67.4°F19.7°C 67% 8.3 mph N13.4 kmh N 10.1 mph16.3 kmh 29.06 in984.1 mb 0.00 in0.0 mm 0.00 in/hr0.0 mm/hr 0.00 in0.0 mm
04:53 AM 79.5°F26.4°C 67.6°F19.8°C 67% 6.7 mph N10.8 kmh N 10.1 mph16.3 kmh 29.06 in984.1 mb 0.00 in0.0 mm 0.00 in/hr0.0 mm/hr 0.00 in0.0 mm
04:52 AM 79.5°F26.4°C 67.6°F19.8°C 67% 6.0 mph N9.7 kmh N 10.1 mph16.3 kmh 29.06 in984.1 mb 0.00 in0.0 mm 0.00 in/hr0.0 mm/hr 0.00 in0.0 mm
04:51 AM 79.5°F26.4°C 67.6°F19.8°C 67% 5.1 mph N8.2 kmh N 10.1 mph16.3 kmh 29.06 in984.1 mb 0.00 in0.0 mm 0.00 in/hr0.0 mm/hr 0.00 in0.0 mm
04:50 AM 79.5°F26.4°C 67.6°F19.8°C 67% 10.1 mph N16.3 kmh N 10.1 mph16.3 kmh 29.06 in984.1 mb 0.00 in0.0 mm 0.00 in/hr0.0 mm/hr 0.00 in0.0 mm
04:49 AM 79.5°F26.4°C 67.6°F19.8°C 67% 6.0 mph N9.7 kmh N 8.9 mph14.3 kmh 29.06 in984.1 mb 0.00 in0.0 mm 0.00 in/hr0.0 mm/hr 0.00 in0.0 mm
04:48 AM 79.5°F26.4°C 67.1°F19.5°C 66% 8.3 mph N13.4 kmh N 8.9 mph14.3 kmh 29.06 in984.1 mb 0.00 in0.0 mm 0.00 in/hr0.0 mm/hr 0.00 in0.0 mm
04:47 AM 79.5°F26.4°C 67.1°F19.5°C 66% 4.3 mph N6.9 kmh N 8.9 mph14.3 kmh 29.06 in984.1 mb 0.00 in0.0 mm 0.00 in/hr0.0 mm/hr 0.00 in0.0 mm
04:46 AM 79.5°F26.4°C 67.1°F19.5°C 66% 5.6 mph N9.0 kmh N 8.9 mph14.3 kmh 29.06 in984.1 mb 0.00 in0.0 mm 0.00 in/hr0.0 mm/hr 0.00 in0.0 mm
04:45 AM 79.5°F26.4°C 67.1°F19.5°C 66% 5.6 mph N9.0 kmh N 8.9 mph14.3 kmh 29.05 in983.7 mb 0.00 in0.0 mm 0.00 in/hr0.0 mm/hr 0.00 in0.0 mm
04:44 AM 79.5°F26.4°C 67.3°F19.6°C 66% 3.1 mph N5.0 kmh N 8.9 mph14.3 kmh 29.05 in983.7 mb 0.00 in0.0 mm 0.00 in/hr0.0 mm/hr 0.00 in0.0 mm
04:43 AM 79.7°F26.5°C 67.3°F19.6°C 66% 6.3 mph N10.1 kmh N 8.9 mph14.3 kmh 29.05 in983.7 mb 0.00 in0.0 mm 0.00 in/hr0.0 mm/hr 0.00 in0.0 mm
04:42 AM 79.7°F26.5°C 67.3°F19.6°C 66% 5.8 mph N9.3 kmh N 8.5 mph13.7 kmh 29.05 in983.7 mb 0.00 in0.0 mm 0.00 in/hr0.0 mm/hr 0.00 in0.0 mm
04:41 AM 79.7°F26.5°C 67.3°F19.6°C 66% 5.6 mph N9.0 kmh N 7.6 mph12.2 kmh 29.05 in983.7 mb 0.00 in0.0 mm 0.00 in/hr0.0 mm/hr 0.00 in0.0 mm
04:40 AM 79.7°F26.5°C 67.3°F19.6°C 66% 5.1 mph N8.2 kmh N 7.6 mph12.2 kmh 29.05 in983.7 mb 0.00 in0.0 mm 0.00 in/hr0.0 mm/hr 0.00 in0.0 mm
04:39 AM 79.7°F26.5°C 67.3°F19.6°C 66% 5.1 mph N8.2 kmh N 8.3 mph13.4 kmh 29.05 in983.7 mb 0.00 in0.0 mm 0.00 in/hr0.0 mm/hr 0.00 in0.0 mm
04:38 AM 79.9°F26.6°C 67.5°F19.7°C 66% 6.0 mph N9.7 kmh N 8.3 mph13.4 kmh 29.05 in983.7 mb 0.00 in0.0 mm 0.00 in/hr0.0 mm/hr 0.00 in0.0 mm
04:37 AM 79.9°F26.6°C 67.5°F19.7°C 66% 3.6 mph N5.8 kmh N 8.3 mph13.4 kmh 29.05 in983.7 mb 0.00 in0.0 mm 0.00 in/hr0.0 mm/hr 0.00 in0.0 mm
04:36 AM 79.9°F26.6°C 67.5°F19.7°C 66% 4.7 mph N7.6 kmh N 8.3 mph13.4 kmh 29.05 in983.7 mb 0.00 in0.0 mm 0.00 in/hr0.0 mm/hr 0.00 in0.0 mm
04:35 AM 79.9°F26.6°C 67.5°F19.7°C 66% 6.3 mph N10.1 kmh N 8.3 mph13.4 kmh 29.05 in983.7 mb 0.00 in0.0 mm 0.00 in/hr0.0 mm/hr 0.00 in0.0 mm
04:34 AM 79.9°F26.6°C 67.5°F19.7°C 66% 5.1 mph N8.2 kmh N 8.3 mph13.4 kmh 29.05 in983.7 mb 0.00 in0.0 mm 0.00 in/hr0.0 mm/hr 0.00 in0.0 mm
04:33 AM 79.9°F26.6°C 67.5°F19.7°C 66% 5.6 mph N9.0 kmh N 8.3 mph13.4 kmh 29.05 in983.7 mb 0.00 in0.0 mm 0.00 in/hr0.0 mm/hr 0.00 in0.0 mm
04:32 AM 79.9°F26.6°C 67.5°F19.7°C 66% 5.8 mph N9.3 kmh N 8.3 mph13.4 kmh 29.05 in983.7 mb 0.00 in0.0 mm 0.00 in/hr0.0 mm/hr 0.00 in0.0 mm
04:31 AM 80.1°F26.7°C 67.7°F19.8°C 66% 5.1 mph N8.2 kmh N 8.3 mph13.4 kmh 29.06 in984.1 mb 0.00 in0.0 mm 0.00 in/hr0.0 mm/hr 0.00 in0.0 mm
04:30 AM 80.1°F26.7°C 67.7°F19.8°C 66% 5.6 mph N9.0 kmh N 8.3 mph13.4 kmh 29.05 in983.7 mb 0.00 in0.0 mm 0.00 in/hr0.0 mm/hr 0.00 in0.0 mm
04:29 AM 80.1°F26.7°C 67.7°F19.8°C 66% 4.7 mph N7.6 kmh N 6.7 mph10.8 kmh 29.06 in984.1 mb 0.00 in0.0 mm 0.00 in/hr0.0 mm/hr 0.00 in0.0 mm
04:28 AM 80.2°F26.8°C 67.8°F19.9°C 66% 5.1 mph NNE8.2 kmh NNE 8.5 mph13.7 kmh 29.05 in983.7 mb 0.00 in0.0 mm 0.00 in/hr0.0 mm/hr 0.00 in0.0 mm
04:27 AM 80.2°F26.8°C 67.8°F19.9°C 66% 4.7 mph NNE7.6 kmh NNE 8.7 mph14.0 kmh 29.05 in983.7 mb 0.00 in0.0 mm 0.00 in/hr0.0 mm/hr 0.00 in0.0 mm
04:26 AM 80.2°F26.8°C 67.8°F19.9°C 66% 4.0 mph NNE6.4 kmh NNE 8.7 mph14.0 kmh 29.05 in983.7 mb 0.00 in0.0 mm 0.00 in/hr0.0 mm/hr 0.00 in0.0 mm
04:25 AM 80.2°F26.8°C 67.8°F19.9°C 66% 6.0 mph NNE9.7 kmh NNE 8.7 mph14.0 kmh 29.05 in983.7 mb 0.00 in0.0 mm 0.00 in/hr0.0 mm/hr 0.00 in0.0 mm
04:24 AM 80.2°F26.8°C 67.8°F19.9°C 66% 4.7 mph NNE7.6 kmh NNE 8.7 mph14.0 kmh 29.06 in984.1 mb 0.00 in0.0 mm 0.00 in/hr0.0 mm/hr 0.00 in0.0 mm
04:23 AM 80.2°F26.8°C 67.8°F19.9°C 66% 2.7 mph N4.3 kmh N 8.7 mph14.0 kmh 29.05 in983.7 mb 0.00 in0.0 mm 0.00 in/hr0.0 mm/hr 0.00 in0.0 mm
04:22 AM 80.2°F26.8°C 67.8°F19.9°C 66% 2.9 mph N4.7 kmh N 8.7 mph14.0 kmh 29.06 in984.1 mb 0.00 in0.0 mm 0.00 in/hr0.0 mm/hr 0.00 in0.0 mm
04:21 AM 80.4°F26.9°C 68.0°F20.0°C 66% 3.6 mph N5.8 kmh N 8.7 mph14.0 kmh 29.06 in984.1 mb 0.00 in0.0 mm 0.00 in/hr0.0 mm/hr 0.00 in0.0 mm
04:20 AM 80.2°F26.8°C 67.8°F19.9°C 66% 4.9 mph N7.9 kmh N 8.7 mph14.0 kmh 29.06 in984.1 mb 0.00 in0.0 mm 0.00 in/hr0.0 mm/hr 0.00 in0.0 mm
04:19 AM 80.4°F26.9°C 68.0°F20.0°C 66% 3.8 mph N6.1 kmh N 8.7 mph14.0 kmh 29.06 in984.1 mb 0.00 in0.0 mm 0.00 in/hr0.0 mm/hr 0.00 in0.0 mm
04:18 AM 80.4°F26.9°C 68.0°F20.0°C 66% 2.9 mph N4.7 kmh N 8.7 mph14.0 kmh 29.06 in984.1 mb 0.00 in0.0 mm 0.00 in/hr0.0 mm/hr 0.00 in0.0 mm
04:17 AM 80.4°F26.9°C 68.0°F20.0°C 66% 4.9 mph N7.9 kmh N 6.5 mph10.5 kmh 29.06 in984.1 mb 0.00 in0.0 mm 0.00 in/hr0.0 mm/hr 0.00 in0.0 mm
04:16 AM 80.4°F26.9°C 67.6°F19.8°C 65% 4.0 mph N6.4 kmh N 8.3 mph13.4 kmh 29.06 in984.1 mb 0.00 in0.0 mm 0.00 in/hr0.0 mm/hr 0.00 in0.0 mm
04:15 AM 80.4°F26.9°C 67.6°F19.8°C 65% 3.8 mph N6.1 kmh N 8.3 mph13.4 kmh 29.06 in984.1 mb 0.00 in0.0 mm 0.00 in/hr0.0 mm/hr 0.00 in0.0 mm
04:14 AM 80.4°F26.9°C 67.6°F19.8°C 65% 1.3 mph N2.1 kmh N 8.3 mph13.4 kmh 29.06 in984.1 mb 0.00 in0.0 mm 0.00 in/hr0.0 mm/hr 0.00 in0.0 mm
04:13 AM 80.4°F26.9°C 67.6°F19.8°C 65% 4.7 mph N7.6 kmh N 8.7 mph14.0 kmh 29.06 in984.1 mb 0.00 in0.0 mm 0.00 in/hr0.0 mm/hr 0.00 in0.0 mm
04:12 AM 80.4°F26.9°C 67.6°F19.8°C 65% 3.1 mph N5.0 kmh N 8.7 mph14.0 kmh 29.06 in984.1 mb 0.00 in0.0 mm 0.00 in/hr0.0 mm/hr 0.00 in0.0 mm
04:11 AM 80.4°F26.9°C 67.6°F19.8°C 65% 5.4 mph N8.7 kmh N 8.7 mph14.0 kmh 29.06 in984.1 mb 0.00 in0.0 mm 0.00 in/hr0.0 mm/hr 0.00 in0.0 mm
04:10 AM 80.4°F26.9°C 67.6°F19.8°C 65% 2.2 mph N3.5 kmh N 10.7 mph17.2 kmh 29.06 in984.1 mb 0.00 in0.0 mm 0.00 in/hr0.0 mm/hr 0.00 in0.0 mm
04:09 AM 80.4°F26.9°C 68.0°F20.0°C 66% Calm Calm 10.7 mph17.2 kmh 29.06 in984.1 mb 0.00 in0.0 mm 0.00 in/hr0.0 mm/hr 0.00 in0.0 mm
04:08 AM 80.4°F26.9°C 68.0°F20.0°C 66% Calm Calm 10.7 mph17.2 kmh 29.06 in984.1 mb 0.00 in0.0 mm 0.00 in/hr0.0 mm/hr 0.00 in0.0 mm
04:07 AM 80.4°F26.9°C 68.0°F20.0°C 66% 8.3 mph N13.4 kmh N 10.7 mph17.2 kmh 29.06 in984.1 mb 0.00 in0.0 mm 0.00 in/hr0.0 mm/hr 0.00 in0.0 mm
04:06 AM 80.4°F26.9°C 68.0°F20.0°C 66% 4.5 mph N7.2 kmh N 10.7 mph17.2 kmh 29.06 in984.1 mb 0.00 in0.0 mm 0.00 in/hr0.0 mm/hr 0.00 in0.0 mm
04:05 AM 80.6°F27.0°C 68.2°F20.1°C 66% 5.1 mph N8.2 kmh N 10.7 mph17.2 kmh 29.06 in984.1 mb 0.00 in0.0 mm 0.00 in/hr0.0 mm/hr 0.00 in0.0 mm
04:04 AM 80.6°F27.0°C 68.2°F20.1°C 66% 5.1 mph N8.2 kmh N 10.7 mph17.2 kmh 29.06 in984.1 mb 0.00 in0.0 mm 0.00 in/hr0.0 mm/hr 0.00 in0.0 mm
04:03 AM 80.8°F27.1°C 68.3°F20.2°C 66% 8.1 mph N13.0 kmh N 10.7 mph17.2 kmh 29.06 in984.1 mb 0.00 in0.0 mm 0.00 in/hr0.0 mm/hr 0.00 in0.0 mm
04:02 AM 80.8°F27.1°C 68.3°F20.2°C 66% 6.0 mph N9.7 kmh N 10.7 mph17.2 kmh 29.06 in984.1 mb 0.00 in0.0 mm 0.00 in/hr0.0 mm/hr 0.00 in0.0 mm
04:01 AM 80.8°F27.1°C 68.3°F20.2°C 66% 7.8 mph N12.6 kmh N 10.7 mph17.2 kmh 29.06 in984.1 mb 0.00 in0.0 mm 0.00 in/hr0.0 mm/hr 0.00 in0.0 mm
04:00 AM 80.8°F27.1°C 68.3°F20.2°C 66% 6.9 mph N11.1 kmh N 10.7 mph17.2 kmh 29.06 in984.1 mb 0.00 in0.0 mm 0.00 in/hr0.0 mm/hr 0.00 in0.0 mm
03:59 AM 80.8°F27.1°C 67.9°F19.9°C 65% 7.2 mph N11.6 kmh N 10.7 mph17.2 kmh 29.06 in984.1 mb 0.00 in0.0 mm 0.00 in/hr0.0 mm/hr 0.00 in0.0 mm
03:58 AM 80.8°F27.1°C 68.3°F20.2°C 66% 6.5 mph N10.5 kmh N 10.7 mph17.2 kmh 29.06 in984.1 mb 0.00 in0.0 mm 0.00 in/hr0.0 mm/hr 0.00 in0.0 mm
03:57 AM 80.8°F27.1°C 68.3°F20.2°C 66% 8.3 mph N13.4 kmh N 10.7 mph17.2 kmh 29.06 in984.1 mb 0.00 in0.0 mm 0.00 in/hr0.0 mm/hr 0.00 in0.0 mm
03:56 AM 80.8°F27.1°C 68.3°F20.2°C 66% 7.2 mph N11.6 kmh N 10.3 mph16.6 kmh 29.06 in984.1 mb 0.00 in0.0 mm 0.00 in/hr0.0 mm/hr 0.00 in0.0 mm
03:55 AM 81.0°F27.2°C 68.5°F20.3°C 66% 6.9 mph N11.1 kmh N 10.3 mph16.6 kmh 29.06 in984.1 mb 0.00 in0.0 mm 0.00 in/hr0.0 mm/hr 0.00 in0.0 mm
03:54 AM 81.0°F27.2°C 68.1°F20.1°C 65% 7.8 mph N12.6 kmh N 10.3 mph16.6 kmh 29.06 in984.1 mb 0.00 in0.0 mm 0.00 in/hr0.0 mm/hr 0.00 in0.0 mm
03:53 AM 81.0°F27.2°C 68.1°F20.1°C 65% 8.7 mph N14.0 kmh N 10.3 mph16.6 kmh 29.06 in984.1 mb 0.00 in0.0 mm 0.00 in/hr0.0 mm/hr 0.00 in0.0 mm
03:52 AM 81.0°F27.2°C 68.1°F20.1°C 65% 8.3 mph N13.4 kmh N 10.3 mph16.6 kmh 29.06 in984.1 mb 0.00 in0.0 mm 0.00 in/hr0.0 mm/hr 0.00 in0.0 mm
03:51 AM 81.0°F27.2°C 68.1°F20.1°C 65% 6.5 mph N10.5 kmh N 10.3 mph16.6 kmh 29.06 in984.1 mb 0.00 in0.0 mm 0.00 in/hr0.0 mm/hr 0.00 in0.0 mm
03:50 AM 81.1°F27.3°C 68.2°F20.1°C 65% 8.9 mph N14.3 kmh N 8.9 mph14.3 kmh 29.06 in984.1 mb 0.00 in0.0 mm 0.00 in/hr0.0 mm/hr 0.00 in0.0 mm
03:49 AM 81.1°F27.3°C 68.2°F20.1°C 65% 8.7 mph N14.0 kmh N 8.7 mph14.0 kmh 29.06 in984.1 mb 0.00 in0.0 mm 0.00 in/hr0.0 mm/hr 0.00 in0.0 mm
03:48 AM 81.1°F27.3°C 68.2°F20.1°C 65% 6.3 mph N10.1 kmh N 8.7 mph14.0 kmh 29.06 in984.1 mb 0.00 in0.0 mm 0.00 in/hr0.0 mm/hr 0.00 in0.0 mm
03:47 AM 81.1°F27.3°C 68.2°F20.1°C 65% 6.3 mph N10.1 kmh N 8.3 mph13.4 kmh 29.06 in984.1 mb 0.00 in0.0 mm 0.00 in/hr0.0 mm/hr 0.00 in0.0 mm
03:46 AM 81.1°F27.3°C 68.2°F20.1°C 65% 3.8 mph N6.1 kmh N 8.3 mph13.4 kmh 29.06 in984.1 mb 0.00 in0.0 mm 0.00 in/hr0.0 mm/hr 0.00 in0.0 mm
03:45 AM 81.1°F27.3°C 68.2°F20.1°C 65% 5.1 mph N8.2 kmh N 8.3 mph13.4 kmh 29.06 in984.1 mb 0.00 in0.0 mm 0.00 in/hr0.0 mm/hr 0.00 in0.0 mm
03:44 AM 81.1°F27.3°C 67.8°F19.9°C 64% 7.6 mph N12.2 kmh N 9.2 mph14.8 kmh 29.06 in984.1 mb 0.00 in0.0 mm 0.00 in/hr0.0 mm/hr 0.00 in0.0 mm
03:43 AM 81.1°F27.3°C 67.8°F19.9°C 64% 3.1 mph N5.0 kmh N 9.2 mph14.8 kmh 29.06 in984.1 mb 0.00 in0.0 mm 0.00 in/hr0.0 mm/hr 0.00 in0.0 mm
03:42 AM 81.1°F27.3°C 67.8°F19.9°C 64% 5.6 mph N9.0 kmh N 9.2 mph14.8 kmh 29.06 in984.1 mb 0.00 in0.0 mm 0.00 in/hr0.0 mm/hr 0.00 in0.0 mm
03:41 AM 81.3°F27.4°C 67.9°F19.9°C 64% 3.4 mph N5.5 kmh N 9.2 mph14.8 kmh 29.06 in984.1 mb 0.00 in0.0 mm 0.00 in/hr0.0 mm/hr 0.00 in0.0 mm
03:40 AM 81.3°F27.4°C 68.4°F20.2°C 65% 4.3 mph N6.9 kmh N 9.2 mph14.8 kmh 29.06 in984.1 mb 0.00 in0.0 mm 0.00 in/hr0.0 mm/hr 0.00 in0.0 mm
03:39 AM 81.3°F27.4°C 68.4°F20.2°C 65% Calm Calm 9.2 mph14.8 kmh 29.06 in984.1 mb 0.00 in0.0 mm 0.00 in/hr0.0 mm/hr 0.00 in0.0 mm
03:38 AM 81.3°F27.4°C 68.4°F20.2°C 65% 2.9 mph N4.7 kmh N 9.2 mph14.8 kmh 29.06 in984.1 mb 0.00 in0.0 mm 0.00 in/hr0.0 mm/hr 0.00 in0.0 mm
03:37 AM 81.3°F27.4°C 68.4°F20.2°C 65% 7.2 mph N11.6 kmh N 9.2 mph14.8 kmh 29.06 in984.1 mb 0.00 in0.0 mm 0.00 in/hr0.0 mm/hr 0.00 in0.0 mm
03:36 AM 81.3°F27.4°C 68.4°F20.2°C 65% 5.4 mph N8.7 kmh N 9.2 mph14.8 kmh 29.06 in984.1 mb 0.00 in0.0 mm 0.00 in/hr0.0 mm/hr 0.00 in0.0 mm
03:35 AM 81.3°F27.4°C 68.4°F20.2°C 65% 6.9 mph N11.1 kmh N 9.2 mph14.8 kmh 29.06 in984.1 mb 0.00 in0.0 mm 0.00 in/hr0.0 mm/hr 0.00 in0.0 mm
03:34 AM 81.3°F27.4°C 68.4°F20.2°C 65% 5.6 mph NNE9.0 kmh NNE 10.5 mph16.9 kmh 29.06 in984.1 mb 0.00 in0.0 mm 0.00 in/hr0.0 mm/hr 0.00 in0.0 mm
03:33 AM 81.5°F27.5°C 68.5°F20.3°C 65% 2.7 mph NNE4.3 kmh NNE 10.5 mph16.9 kmh 29.06 in984.1 mb 0.00 in0.0 mm 0.00 in/hr0.0 mm/hr 0.00 in0.0 mm
03:32 AM 81.5°F27.5°C 68.5°F20.3°C 65% 2.5 mph NNE4.0 kmh NNE 10.5 mph16.9 kmh 29.06 in984.1 mb 0.00 in0.0 mm 0.00 in/hr0.0 mm/hr 0.00 in0.0 mm
03:31 AM 81.5°F27.5°C 68.5°F20.3°C 65% 3.6 mph NNE5.8 kmh NNE 10.5 mph16.9 kmh 29.06 in984.1 mb 0.00 in0.0 mm 0.00 in/hr0.0 mm/hr 0.00 in0.0 mm
03:30 AM 81.5°F27.5°C 68.5°F20.3°C 65% 3.1 mph NNE5.0 kmh NNE 10.5 mph16.9 kmh 29.06 in984.1 mb 0.00 in0.0 mm 0.00 in/hr0.0 mm/hr 0.00 in0.0 mm
03:29 AM 81.5°F27.5°C 68.5°F20.3°C 65% 6.7 mph NNE10.8 kmh NNE 10.5 mph16.9 kmh 29.06 in984.1 mb 0.00 in0.0 mm 0.00 in/hr0.0 mm/hr 0.00 in0.0 mm
03:28 AM 81.5°F27.5°C 68.5°F20.3°C 65% 6.7 mph NNE10.8 kmh NNE 10.5 mph16.9 kmh 29.06 in984.1 mb 0.00 in0.0 mm 0.00 in/hr0.0 mm/hr 0.00 in0.0 mm
03:27 AM 81.7°F27.6°C 68.7°F20.4°C 65% 5.6 mph NNE9.0 kmh NNE 10.5 mph16.9 kmh 29.06 in984.1 mb 0.00 in0.0 mm 0.00 in/hr0.0 mm/hr 0.00 in0.0 mm
03:26 AM 81.7°F27.6°C 68.7°F20.4°C 65% 6.0 mph NNE9.7 kmh NNE 10.5 mph16.9 kmh 29.06 in984.1 mb 0.00 in0.0 mm 0.00 in/hr0.0 mm/hr 0.00 in0.0 mm
03:25 AM 81.7°F27.6°C 68.7°F20.4°C 65% 10.5 mph NNE16.9 kmh NNE 10.5 mph16.9 kmh 29.06 in984.1 mb 0.00 in0.0 mm 0.00 in/hr0.0 mm/hr 0.00 in0.0 mm
03:24 AM 81.7°F27.6°C 68.7°F20.4°C 65% 5.1 mph NNE8.2 kmh NNE 9.8 mph15.8 kmh 29.06 in984.1 mb 0.00 in0.0 mm 0.00 in/hr0.0 mm/hr 0.00 in0.0 mm
03:23 AM 81.7°F27.6°C 68.3°F20.2°C 64% 6.9 mph NNE11.1 kmh NNE 9.8 mph15.8 kmh 29.06 in984.1 mb 0.00 in0.0 mm 0.00 in/hr0.0 mm/hr 0.00 in0.0 mm
03:22 AM 81.7°F27.6°C 68.7°F20.4°C 65% 2.9 mph NNE4.7 kmh NNE 9.8 mph15.8 kmh 29.06 in984.1 mb 0.00 in0.0 mm 0.00 in/hr0.0 mm/hr 0.00 in0.0 mm
03:21 AM 81.7°F27.6°C 68.7°F20.4°C 65% 3.1 mph NNE5.0 kmh NNE 12.3 mph19.8 kmh 29.07 in984.4 mb 0.00 in0.0 mm 0.00 in/hr0.0 mm/hr 0.00 in0.0 mm
03:20 AM 81.7°F27.6°C 68.7°F20.4°C 65% 5.1 mph N8.2 kmh N 12.3 mph19.8 kmh 29.06 in984.1 mb 0.00 in0.0 mm 0.00 in/hr0.0 mm/hr 0.00 in0.0 mm
03:19 AM 81.9°F27.7°C 68.9°F20.5°C 65% 3.8 mph NNE6.1 kmh NNE 12.3 mph19.8 kmh 29.07 in984.4 mb 0.00 in0.0 mm 0.00 in/hr0.0 mm/hr 0.00 in0.0 mm
03:18 AM 82.0°F27.8°C 69.0°F20.6°C 65% 7.2 mph NNE11.6 kmh NNE 12.3 mph19.8 kmh 29.07 in984.4 mb 0.00 in0.0 mm 0.00 in/hr0.0 mm/hr 0.00 in0.0 mm
03:17 AM 81.9°F27.7°C 68.9°F20.5°C 65% 3.6 mph NNE5.8 kmh NNE 12.3 mph19.8 kmh 29.07 in984.4 mb 0.00 in0.0 mm 0.00 in/hr0.0 mm/hr 0.00 in0.0 mm
03:16 AM 82.0°F27.8°C 69.0°F20.6°C 65% 4.5 mph NNE7.2 kmh NNE 12.3 mph19.8 kmh 29.07 in984.4 mb 0.00 in0.0 mm 0.00 in/hr0.0 mm/hr 0.00 in0.0 mm
03:15 AM 82.0°F27.8°C 68.6°F20.3°C 64% 7.2 mph NNE11.6 kmh NNE 12.3 mph19.8 kmh 29.07 in984.4 mb 0.00 in0.0 mm 0.00 in/hr0.0 mm/hr 0.00 in0.0 mm
03:14 AM 82.0°F27.8°C 68.6°F20.3°C 64% 3.4 mph NNE5.5 kmh NNE 12.3 mph19.8 kmh 29.07 in984.4 mb 0.00 in0.0 mm 0.00 in/hr0.0 mm/hr 0.00 in0.0 mm
03:13 AM 82.0°F27.8°C 68.6°F20.3°C 64% 5.1 mph N8.2 kmh N 12.3 mph19.8 kmh 29.07 in984.4 mb 0.00 in0.0 mm 0.00 in/hr0.0 mm/hr 0.00 in0.0 mm
03:12 AM 82.0°F27.8°C 69.0°F20.6°C 65% 6.7 mph N10.8 kmh N 12.3 mph19.8 kmh 29.07 in984.4 mb 0.00 in0.0 mm 0.00 in/hr0.0 mm/hr 0.00 in0.0 mm
03:11 AM 82.0°F27.8°C 69.0°F20.6°C 65% 7.6 mph NNE12.2 kmh NNE 11.6 mph18.7 kmh 29.07 in984.4 mb 0.00 in0.0 mm 0.00 in/hr0.0 mm/hr 0.00 in0.0 mm
03:10 AM 82.0°F27.8°C 69.0°F20.6°C 65% 6.9 mph NNE11.1 kmh NNE 11.6 mph18.7 kmh 29.07 in984.4 mb 0.00 in0.0 mm 0.00 in/hr0.0 mm/hr 0.00 in0.0 mm
03:09 AM 82.0°F27.8°C 68.6°F20.3°C 64% 8.1 mph NNE13.0 kmh NNE 11.6 mph18.7 kmh 29.07 in984.4 mb 0.00 in0.0 mm 0.00 in/hr0.0 mm/hr 0.00 in0.0 mm
03:08 AM 82.2°F27.9°C 68.7°F20.4°C 64% 10.3 mph NNE16.6 kmh NNE 11.6 mph18.7 kmh 29.07 in984.4 mb 0.00 in0.0 mm 0.00 in/hr0.0 mm/hr 0.00 in0.0 mm
03:07 AM 82.2°F27.9°C 68.7°F20.4°C 64% 6.0 mph NNE9.7 kmh NNE 11.6 mph18.7 kmh 29.07 in984.4 mb 0.00 in0.0 mm 0.00 in/hr0.0 mm/hr 0.00 in0.0 mm
03:06 AM 82.2°F27.9°C 68.7°F20.4°C 64% 5.1 mph NNE8.2 kmh NNE 11.6 mph18.7 kmh 29.07 in984.4 mb 0.00 in0.0 mm 0.00 in/hr0.0 mm/hr 0.00 in0.0 mm
03:05 AM 82.2°F27.9°C 68.7°F20.4°C 64% 7.4 mph NNE11.9 kmh NNE 12.1 mph19.5 kmh 29.07 in984.4 mb 0.00 in0.0 mm 0.00 in/hr0.0 mm/hr 0.00 in0.0 mm
03:04 AM 82.2°F27.9°C 68.7°F20.4°C 64% 9.2 mph NNE14.8 kmh NNE 12.1 mph19.5 kmh 29.07 in984.4 mb 0.00 in0.0 mm 0.00 in/hr0.0 mm/hr 0.00 in0.0 mm
03:03 AM 82.2°F27.9°C 68.7°F20.4°C 64% 6.7 mph NNE10.8 kmh NNE 12.1 mph19.5 kmh 29.07 in984.4 mb 0.00 in0.0 mm 0.00 in/hr0.0 mm/hr 0.00 in0.0 mm
03:02 AM 82.2°F27.9°C 68.7°F20.4°C 64% 8.5 mph NNE13.7 kmh NNE 12.1 mph19.5 kmh 29.07 in984.4 mb 0.00 in0.0 mm 0.00 in/hr0.0 mm/hr 0.00 in0.0 mm
03:01 AM 82.2°F27.9°C 68.7°F20.4°C 64% 8.9 mph NNE14.3 kmh NNE 12.1 mph19.5 kmh 29.07 in984.4 mb 0.00 in0.0 mm 0.00 in/hr0.0 mm/hr 0.00 in0.0 mm
03:00 AM 82.2°F27.9°C 68.7°F20.4°C 64% 5.4 mph NNE8.7 kmh NNE 12.1 mph19.5 kmh 29.07 in984.4 mb 0.00 in0.0 mm 0.00 in/hr0.0 mm/hr 0.00 in0.0 mm
02:59 AM 82.2°F27.9°C 68.7°F20.4°C 64% 4.5 mph NNE7.2 kmh NNE 13.2 mph21.2 kmh 29.07 in984.4 mb 0.00 in0.0 mm 0.00 in/hr0.0 mm/hr 0.00 in0.0 mm
02:58 AM 82.2°F27.9°C 68.7°F20.4°C 64% 6.3 mph NNE10.1 kmh NNE 13.2 mph21.2 kmh 29.07 in984.4 mb 0.00 in0.0 mm 0.00 in/hr0.0 mm/hr 0.00 in0.0 mm
02:57 AM 82.4°F28.0°C 68.9°F20.5°C 64% 5.6 mph NNE9.0 kmh NNE 13.2 mph21.2 kmh 29.07 in984.4 mb 0.00 in0.0 mm 0.00 in/hr0.0 mm/hr 0.00 in0.0 mm
02:56 AM 82.6°F28.1°C 69.1°F20.6°C 64% 12.1 mph NNE19.5 kmh NNE 13.2 mph21.2 kmh 29.07 in984.4 mb 0.00 in0.0 mm 0.00 in/hr0.0 mm/hr 0.00 in0.0 mm
02:55 AM 82.6°F28.1°C 69.1°F20.6°C 64% 6.3 mph NNE10.1 kmh NNE 13.2 mph21.2 kmh 29.07 in984.4 mb 0.00 in0.0 mm 0.00 in/hr0.0 mm/hr 0.00 in0.0 mm
02:54 AM 82.6°F28.1°C 69.1°F20.6°C 64% 7.8 mph N12.6 kmh N 13.2 mph21.2 kmh 29.07 in984.4 mb 0.00 in0.0 mm 0.00 in/hr0.0 mm/hr 0.00 in0.0 mm
02:53 AM 82.6°F28.1°C 69.1°F20.6°C 64% 8.9 mph N14.3 kmh N 13.2 mph21.2 kmh 29.06 in984.1 mb 0.00 in0.0 mm 0.00 in/hr0.0 mm/hr 0.00 in0.0 mm
02:52 AM 82.6°F28.1°C 69.1°F20.6°C 64% 8.1 mph N13.0 kmh N 13.2 mph21.2 kmh 29.06 in984.1 mb 0.00 in0.0 mm 0.00 in/hr0.0 mm/hr 0.00 in0.0 mm
02:51 AM 82.6°F28.1°C 69.1°F20.6°C 64% 7.6 mph N12.2 kmh N 13.9 mph22.4 kmh 29.06 in984.1 mb 0.00 in0.0 mm 0.00 in/hr0.0 mm/hr 0.00 in0.0 mm
02:50 AM 82.6°F28.1°C 69.1°F20.6°C 64% 6.7 mph N10.8 kmh N 13.9 mph22.4 kmh 29.06 in984.1 mb 0.00 in0.0 mm 0.00 in/hr0.0 mm/hr 0.00 in0.0 mm
02:49 AM 82.6°F28.1°C 68.6°F20.3°C 63% 13.2 mph N21.2 kmh N 13.9 mph22.4 kmh 29.07 in984.4 mb 0.00 in0.0 mm 0.00 in/hr0.0 mm/hr 0.00 in0.0 mm
02:48 AM 82.6°F28.1°C 69.1°F20.6°C 64% 7.2 mph N11.6 kmh N 13.9 mph22.4 kmh 29.07 in984.4 mb 0.00 in0.0 mm 0.00 in/hr0.0 mm/hr 0.00 in0.0 mm
02:47 AM 82.8°F28.2°C 69.3°F20.7°C 64% 7.8 mph N12.6 kmh N 13.9 mph22.4 kmh 29.06 in984.1 mb 0.00 in0.0 mm 0.00 in/hr0.0 mm/hr 0.00 in0.0 mm
02:46 AM 82.8°F28.2°C 68.8°F20.4°C 63% 9.8 mph N15.8 kmh N 13.9 mph22.4 kmh 29.06 in984.1 mb 0.00 in0.0 mm 0.00 in/hr0.0 mm/hr 0.00 in0.0 mm
02:45 AM 82.8°F28.2°C 68.8°F20.4°C 63% 7.2 mph N11.6 kmh N 13.9 mph22.4 kmh 29.06 in984.1 mb 0.00 in0.0 mm 0.00 in/hr0.0 mm/hr 0.00 in0.0 mm
02:44 AM 82.8°F28.2°C 68.8°F20.4°C 63% 7.4 mph N11.9 kmh N 13.9 mph22.4 kmh 29.06 in984.1 mb 0.00 in0.0 mm 0.00 in/hr0.0 mm/hr 0.00 in0.0 mm
02:43 AM 82.9°F28.3°C 69.0°F20.6°C 63% 12.1 mph N19.5 kmh N 13.9 mph22.4 kmh 29.06 in984.1 mb 0.00 in0.0 mm 0.00 in/hr0.0 mm/hr 0.00 in0.0 mm
02:42 AM 82.9°F28.3°C 69.0°F20.6°C 63% 12.5 mph N20.1 kmh N 13.9 mph22.4 kmh 29.06 in984.1 mb 0.00 in0.0 mm 0.00 in/hr0.0 mm/hr 0.00 in0.0 mm
02:41 AM 82.9°F28.3°C 69.0°F20.6°C 63% 12.1 mph N19.5 kmh N 13.0 mph20.9 kmh 29.06 in984.1 mb 0.00 in0.0 mm 0.00 in/hr0.0 mm/hr 0.00 in0.0 mm
02:40 AM 82.9°F28.3°C 68.5°F20.3°C 62% 9.6 mph N15.4 kmh N 13.6 mph21.9 kmh 29.06 in984.1 mb 0.00 in0.0 mm 0.00 in/hr0.0 mm/hr 0.00 in0.0 mm
02:39 AM 82.9°F28.3°C 68.5°F20.3°C 62% 9.2 mph N14.8 kmh N 13.6 mph21.9 kmh 29.07 in984.4 mb 0.00 in0.0 mm 0.00 in/hr0.0 mm/hr 0.00 in0.0 mm
02:38 AM 82.9°F28.3°C 68.5°F20.3°C 62% 11.6 mph N18.7 kmh N 13.6 mph21.9 kmh 29.06 in984.1 mb 0.00 in0.0 mm 0.00 in/hr0.0 mm/hr 0.00 in0.0 mm
02:37 AM 82.9°F28.3°C 68.5°F20.3°C 62% 9.6 mph N15.4 kmh N 13.6 mph21.9 kmh 29.06 in984.1 mb 0.00 in0.0 mm 0.00 in/hr0.0 mm/hr 0.00 in0.0 mm
02:36 AM 82.9°F28.3°C 68.5°F20.3°C 62% 2.9 mph N4.7 kmh N 13.6 mph21.9 kmh 29.07 in984.4 mb 0.00 in0.0 mm 0.00 in/hr0.0 mm/hr 0.00 in0.0 mm
02:35 AM 83.1°F28.4°C 68.7°F20.4°C 62% 8.3 mph N13.4 kmh N 13.6 mph21.9 kmh 29.07 in984.4 mb 0.00 in0.0 mm 0.00 in/hr0.0 mm/hr 0.00 in0.0 mm
02:34 AM 83.1°F28.4°C 68.7°F20.4°C 62% 7.4 mph N11.9 kmh N 13.6 mph21.9 kmh 29.07 in984.4 mb 0.00 in0.0 mm 0.00 in/hr0.0 mm/hr 0.00 in0.0 mm
02:33 AM 83.1°F28.4°C 68.7°F20.4°C 62% 12.3 mph N19.8 kmh N 13.6 mph21.9 kmh 29.07 in984.4 mb 0.00 in0.0 mm 0.00 in/hr0.0 mm/hr 0.00 in0.0 mm
02:32 AM 83.1°F28.4°C 69.2°F20.7°C 63% 6.9 mph N11.1 kmh N 13.6 mph21.9 kmh 29.06 in984.1 mb 0.00 in0.0 mm 0.00 in/hr0.0 mm/hr 0.00 in0.0 mm
02:31 AM 83.1°F28.4°C 69.2°F20.7°C 63% 9.4 mph N15.1 kmh N 13.6 mph21.9 kmh 29.07 in984.4 mb 0.00 in0.0 mm 0.00 in/hr0.0 mm/hr 0.00 in0.0 mm
02:30 AM 83.1°F28.4°C 69.2°F20.7°C 63% 12.5 mph N20.1 kmh N 14.5 mph23.3 kmh 29.07 in984.4 mb 0.00 in0.0 mm 0.00 in/hr0.0 mm/hr 0.00 in0.0 mm
02:29 AM 83.1°F28.4°C 69.2°F20.7°C 63% 9.8 mph N15.8 kmh N 15.7 mph25.3 kmh 29.07 in984.4 mb 0.00 in0.0 mm 0.00 in/hr0.0 mm/hr 0.00 in0.0 mm
02:28 AM 83.1°F28.4°C 69.2°F20.7°C 63% 12.1 mph N19.5 kmh N 15.7 mph25.3 kmh 29.07 in984.4 mb 0.00 in0.0 mm 0.00 in/hr0.0 mm/hr 0.00 in0.0 mm
02:27 AM 83.3°F28.5°C 69.3°F20.7°C 63% 12.5 mph N20.1 kmh N 16.3 mph26.2 kmh 29.06 in984.1 mb 0.00 in0.0 mm 0.00 in/hr0.0 mm/hr 0.00 in0.0 mm
02:26 AM 83.3°F28.5°C 69.3°F20.7°C 63% 13.2 mph N21.2 kmh N 16.3 mph26.2 kmh 29.06 in984.1 mb 0.00 in0.0 mm 0.00 in/hr0.0 mm/hr 0.00 in0.0 mm
02:25 AM 83.3°F28.5°C 69.3°F20.7°C 63% 9.6 mph N15.4 kmh N 16.3 mph26.2 kmh 29.06 in984.1 mb 0.00 in0.0 mm 0.00 in/hr0.0 mm/hr 0.00 in0.0 mm
02:24 AM 83.3°F28.5°C 69.3°F20.7°C 63% 7.6 mph N12.2 kmh N 16.3 mph26.2 kmh 29.06 in984.1 mb 0.00 in0.0 mm 0.00 in/hr0.0 mm/hr 0.00 in0.0 mm
02:23 AM 83.3°F28.5°C 68.9°F20.5°C 62% 10.5 mph N16.9 kmh N 16.3 mph26.2 kmh 29.06 in984.1 mb 0.00 in0.0 mm 0.00 in/hr0.0 mm/hr 0.00 in0.0 mm
02:22 AM 83.5°F28.6°C 69.1°F20.6°C 62% 11.4 mph N18.3 kmh N 16.3 mph26.2 kmh 29.06 in984.1 mb 0.00 in0.0 mm 0.00 in/hr0.0 mm/hr 0.00 in0.0 mm
02:21 AM 83.5°F28.6°C 69.5°F20.8°C 63% 13.0 mph N20.9 kmh N 16.3 mph26.2 kmh 29.06 in984.1 mb 0.00 in0.0 mm 0.00 in/hr0.0 mm/hr 0.00 in0.0 mm
02:20 AM 83.5°F28.6°C 69.1°F20.6°C 62% 15.7 mph N25.3 kmh N 16.3 mph26.2 kmh 29.06 in984.1 mb 0.00 in0.0 mm 0.00 in/hr0.0 mm/hr 0.00 in0.0 mm
02:19 AM 83.5°F28.6°C 69.1°F20.6°C 62% 8.5 mph N13.7 kmh N 16.3 mph26.2 kmh 29.06 in984.1 mb 0.00 in0.0 mm 0.00 in/hr0.0 mm/hr 0.00 in0.0 mm
02:18 AM 83.5°F28.6°C 69.1°F20.6°C 62% 11.2 mph N18.0 kmh N 16.3 mph26.2 kmh 29.06 in984.1 mb 0.00 in0.0 mm 0.00 in/hr0.0 mm/hr 0.00 in0.0 mm
02:17 AM 83.5°F28.6°C 69.1°F20.6°C 62% 8.3 mph N13.4 kmh N 12.5 mph20.1 kmh 29.06 in984.1 mb 0.00 in0.0 mm 0.00 in/hr0.0 mm/hr 0.00 in0.0 mm
02:16 AM 83.5°F28.6°C 68.6°F20.3°C 61% 9.8 mph N15.8 kmh N 13.2 mph21.2 kmh 29.06 in984.1 mb 0.00 in0.0 mm 0.00 in/hr0.0 mm/hr 0.00 in0.0 mm
02:15 AM 83.5°F28.6°C 68.6°F20.3°C 61% 6.3 mph N10.1 kmh N 13.2 mph21.2 kmh 29.06 in984.1 mb 0.00 in0.0 mm 0.00 in/hr0.0 mm/hr 0.00 in0.0 mm
02:14 AM 83.5°F28.6°C 68.6°F20.3°C 61% 10.1 mph N16.3 kmh N 13.2 mph21.2 kmh 29.06 in984.1 mb 0.00 in0.0 mm 0.00 in/hr0.0 mm/hr 0.00 in0.0 mm
02:13 AM 83.5°F28.6°C 69.1°F20.6°C 62% 6.9 mph N11.1 kmh N 13.2 mph21.2 kmh 29.06 in984.1 mb 0.00 in0.0 mm 0.00 in/hr0.0 mm/hr 0.00 in0.0 mm
02:12 AM 83.7°F28.7°C 69.3°F20.7°C 62% 5.8 mph N9.3 kmh N 13.9 mph22.4 kmh 29.06 in984.1 mb 0.00 in0.0 mm 0.00 in/hr0.0 mm/hr 0.00 in0.0 mm
02:11 AM 83.7°F28.7°C 69.3°F20.7°C 62% 7.2 mph N11.6 kmh N 13.9 mph22.4 kmh 29.06 in984.1 mb 0.00 in0.0 mm 0.00 in/hr0.0 mm/hr 0.00 in0.0 mm
02:10 AM 83.7°F28.7°C 69.7°F20.9°C 63% 11.0 mph N17.7 kmh N 13.9 mph22.4 kmh 29.06 in984.1 mb 0.00 in0.0 mm 0.00 in/hr0.0 mm/hr 0.00 in0.0 mm
02:09 AM 83.7°F28.7°C 69.3°F20.7°C 62% 8.5 mph N13.7 kmh N 15.0 mph24.1 kmh 29.06 in984.1 mb 0.00 in0.0 mm 0.00 in/hr0.0 mm/hr 0.00 in0.0 mm
02:08 AM 83.7°F28.7°C 69.3°F20.7°C 62% 8.1 mph N13.0 kmh N 15.0 mph24.1 kmh 29.06 in984.1 mb 0.00 in0.0 mm 0.00 in/hr0.0 mm/hr 0.00 in0.0 mm
02:07 AM 83.8°F28.8°C 69.4°F20.8°C 62% 9.8 mph N15.8 kmh N 15.0 mph24.1 kmh 29.06 in984.1 mb 0.00 in0.0 mm 0.00 in/hr0.0 mm/hr 0.00 in0.0 mm
02:06 AM 83.8°F28.8°C 69.4°F20.8°C 62% 8.3 mph N13.4 kmh N 15.0 mph24.1 kmh 29.06 in984.1 mb 0.00 in0.0 mm 0.00 in/hr0.0 mm/hr 0.00 in0.0 mm
02:05 AM 83.8°F28.8°C 69.4°F20.8°C 62% 7.4 mph N11.9 kmh N 15.0 mph24.1 kmh 29.06 in984.1 mb 0.00 in0.0 mm 0.00 in/hr0.0 mm/hr 0.00 in0.0 mm
02:04 AM 83.8°F28.8°C 69.4°F20.8°C 62% 12.1 mph N19.5 kmh N 15.0 mph24.1 kmh 29.06 in984.1 mb 0.00 in0.0 mm 0.00 in/hr0.0 mm/hr 0.00 in0.0 mm
02:03 AM 83.8°F28.8°C 69.4°F20.8°C 62% 9.8 mph N15.8 kmh N 15.0 mph24.1 kmh 29.06 in984.1 mb 0.00 in0.0 mm 0.00 in/hr0.0 mm/hr 0.00 in0.0 mm
02:02 AM 83.8°F28.8°C 69.4°F20.8°C 62% 8.9 mph N14.3 kmh N 15.0 mph24.1 kmh 29.06 in984.1 mb 0.00 in0.0 mm 0.00 in/hr0.0 mm/hr 0.00 in0.0 mm
02:01 AM 84.0°F28.9°C 69.6°F20.9°C 62% 7.4 mph N11.9 kmh N 16.1 mph25.9 kmh 29.06 in984.1 mb 0.00 in0.0 mm 0.00 in/hr0.0 mm/hr 0.00 in0.0 mm
02:00 AM 84.0°F28.9°C 69.6°F20.9°C 62% 9.2 mph N14.8 kmh N 16.1 mph25.9 kmh 29.06 in984.1 mb 0.00 in0.0 mm 0.00 in/hr0.0 mm/hr 0.00 in0.0 mm
01:59 AM 84.0°F28.9°C 69.6°F20.9°C 62% 11.4 mph N18.3 kmh N 16.1 mph25.9 kmh 29.06 in984.1 mb 0.00 in0.0 mm 0.00 in/hr0.0 mm/hr 0.00 in0.0 mm
01:58 AM 84.0°F28.9°C 69.6°F20.9°C 62% 12.8 mph N20.6 kmh N 16.1 mph25.9 kmh 29.06 in984.1 mb 0.00 in0.0 mm 0.00 in/hr0.0 mm/hr 0.00 in0.0 mm
01:57 AM 84.0°F28.9°C 69.2°F20.7°C 61% 9.6 mph N15.4 kmh N 16.1 mph25.9 kmh 29.06 in984.1 mb 0.00 in0.0 mm 0.00 in/hr0.0 mm/hr 0.00 in0.0 mm
01:56 AM 84.0°F28.9°C 69.6°F20.9°C 62% 12.1 mph N19.5 kmh N 16.1 mph25.9 kmh 29.06 in984.1 mb 0.00 in0.0 mm 0.00 in/hr0.0 mm/hr 0.00 in0.0 mm
01:55 AM 84.0°F28.9°C 69.2°F20.7°C 62% 10.7 mph N17.2 kmh N 16.1 mph25.9 kmh 29.06 in984.1 mb 0.00 in0.0 mm 0.00 in/hr0.0 mm/hr 0.00 in0.0 mm
01:54 AM 84.0°F28.9°C 69.2°F20.7°C 61% 9.2 mph N14.8 kmh N 16.1 mph25.9 kmh 29.06 in984.1 mb 0.00 in0.0 mm 0.00 in/hr0.0 mm/hr 0.00 in0.0 mm
01:53 AM 84.0°F28.9°C 69.6°F20.9°C 62% 10.1 mph N16.3 kmh N 16.1 mph25.9 kmh 29.06 in984.1 mb 0.00 in0.0 mm 0.00 in/hr0.0 mm/hr 0.00 in0.0 mm
01:52 AM 84.0°F28.9°C 69.6°F20.9°C 62% 10.7 mph N17.2 kmh N 16.1 mph25.9 kmh 29.06 in984.1 mb 0.00 in0.0 mm 0.00 in/hr0.0 mm/hr 0.00 in0.0 mm
01:51 AM 84.0°F28.9°C 69.6°F20.9°C 62% 16.1 mph N25.9 kmh N 16.1 mph25.9 kmh 29.06 in984.1 mb 0.00 in0.0 mm 0.00 in/hr0.0 mm/hr 0.00 in0.0 mm
01:50 AM 84.0°F28.9°C 69.2°F20.7°C 61% 8.9 mph N14.3 kmh N 15.0 mph24.1 kmh 29.06 in984.1 mb 0.00 in0.0 mm 0.00 in/hr0.0 mm/hr 0.00 in0.0 mm
01:49 AM 84.0°F28.9°C 69.6°F20.9°C 62% 8.3 mph N13.4 kmh N 15.0 mph24.1 kmh 29.06 in984.1 mb 0.00 in0.0 mm 0.00 in/hr0.0 mm/hr 0.00 in0.0 mm
01:48 AM 84.2°F29.0°C 69.3°F20.7°C 61% 11.2 mph NNE18.0 kmh NNE 13.6 mph21.9 kmh 29.06 in984.1 mb 0.00 in0.0 mm 0.00 in/hr0.0 mm/hr 0.00 in0.0 mm
01:47 AM 84.2°F29.0°C 69.3°F20.7°C 61% 7.8 mph NNE12.6 kmh NNE 13.6 mph21.9 kmh 29.06 in984.1 mb 0.00 in0.0 mm 0.00 in/hr0.0 mm/hr 0.00 in0.0 mm
01:46 AM 84.4°F29.1°C 69.5°F20.8°C 61% 11.6 mph N18.7 kmh N 13.6 mph21.9 kmh 29.06 in984.1 mb 0.00 in0.0 mm 0.00 in/hr0.0 mm/hr 0.00 in0.0 mm
01:45 AM 84.4°F29.1°C 69.5°F20.8°C 61% 7.8 mph N12.6 kmh N 13.6 mph21.9 kmh 29.06 in984.1 mb 0.00 in0.0 mm 0.00 in/hr0.0 mm/hr 0.00 in0.0 mm
01:44 AM 84.4°F29.1°C 69.5°F20.8°C 61% 9.6 mph N15.4 kmh N 13.9 mph22.4 kmh 29.06 in984.1 mb 0.00 in0.0 mm 0.00 in/hr0.0 mm/hr 0.00 in0.0 mm
01:43 AM 84.4°F29.1°C 69.5°F20.8°C 61% 11.4 mph NNE18.3 kmh NNE 15.0 mph24.1 kmh 29.06 in984.1 mb 0.00 in0.0 mm 0.00 in/hr0.0 mm/hr 0.00 in0.0 mm
01:42 AM 84.4°F29.1°C 69.5°F20.8°C 61% 8.3 mph NNE13.4 kmh NNE 15.0 mph24.1 kmh 29.06 in984.1 mb 0.00 in0.0 mm 0.00 in/hr0.0 mm/hr 0.00 in0.0 mm
01:41 AM 84.4°F29.1°C 69.5°F20.8°C 61% 11.4 mph NNE18.3 kmh NNE 15.0 mph24.1 kmh 29.06 in984.1 mb 0.00 in0.0 mm 0.00 in/hr0.0 mm/hr 0.00 in0.0 mm
01:40 AM 84.4°F29.1°C 69.5°F20.8°C 61% 11.4 mph N18.3 kmh N 15.0 mph24.1 kmh 29.06 in984.1 mb 0.00 in0.0 mm 0.00 in/hr0.0 mm/hr 0.00 in0.0 mm
01:39 AM 84.4°F29.1°C 69.5°F20.8°C 61% 8.9 mph N14.3 kmh N 15.0 mph24.1 kmh 29.05 in983.7 mb 0.00 in0.0 mm 0.00 in/hr0.0 mm/hr 0.00 in0.0 mm
01:38 AM 84.6°F29.2°C 69.7°F20.9°C 61% 8.5 mph N13.7 kmh N 15.0 mph24.1 kmh 29.06 in984.1 mb 0.00 in0.0 mm 0.00 in/hr0.0 mm/hr 0.00 in0.0 mm
01:37 AM 84.6°F29.2°C 69.2°F20.7°C 60% 7.2 mph N11.6 kmh N 15.0 mph24.1 kmh 29.06 in984.1 mb 0.00 in0.0 mm 0.00 in/hr0.0 mm/hr 0.00 in0.0 mm
01:36 AM 84.6°F29.2°C 69.2°F20.7°C 60% 11.4 mph N18.3 kmh N 15.0 mph24.1 kmh 29.05 in983.7 mb 0.00 in0.0 mm 0.00 in/hr0.0 mm/hr 0.00 in0.0 mm
01:35 AM 84.6°F29.2°C 69.7°F20.9°C 61% 7.8 mph N12.6 kmh N 16.3 mph26.2 kmh 29.05 in983.7 mb 0.00 in0.0 mm 0.00 in/hr0.0 mm/hr 0.00 in0.0 mm
01:34 AM 84.6°F29.2°C 69.7°F20.9°C 61% 15.0 mph N24.1 kmh N 16.3 mph26.2 kmh 29.05 in983.7 mb 0.00 in0.0 mm 0.00 in/hr0.0 mm/hr 0.00 in0.0 mm
01:33 AM 84.7°F29.3°C 69.4°F20.8°C 60% 8.1 mph N13.0 kmh N 16.3 mph26.2 kmh 29.05 in983.7 mb 0.00 in0.0 mm 0.00 in/hr0.0 mm/hr 0.00 in0.0 mm
01:32 AM 84.7°F29.3°C 69.4°F20.8°C 60% 13.4 mph N21.6 kmh N 16.3 mph26.2 kmh 29.05 in983.7 mb 0.00 in0.0 mm 0.00 in/hr0.0 mm/hr 0.00 in0.0 mm
01:31 AM 84.7°F29.3°C 69.4°F20.8°C 60% 4.3 mph N6.9 kmh N 16.3 mph26.2 kmh 29.05 in983.7 mb 0.00 in0.0 mm 0.00 in/hr0.0 mm/hr 0.00 in0.0 mm
01:30 AM 84.7°F29.3°C 69.8°F21.0°C 61% 9.6 mph N15.4 kmh N 16.3 mph26.2 kmh 29.05 in983.7 mb 0.00 in0.0 mm 0.00 in/hr0.0 mm/hr 0.00 in0.0 mm
01:29 AM 84.7°F29.3°C 69.4°F20.8°C 60% 9.8 mph N15.8 kmh N 16.3 mph26.2 kmh 29.05 in983.7 mb 0.00 in0.0 mm 0.00 in/hr0.0 mm/hr 0.00 in0.0 mm
01:28 AM 84.7°F29.3°C 69.4°F20.8°C 60% 8.3 mph N13.4 kmh N 16.3 mph26.2 kmh 29.05 in983.7 mb 0.00 in0.0 mm 0.00 in/hr0.0 mm/hr 0.00 in0.0 mm
01:27 AM 84.7°F29.3°C 69.4°F20.8°C 60% 4.7 mph N7.6 kmh N 16.3 mph26.2 kmh 29.05 in983.7 mb 0.00 in0.0 mm 0.00 in/hr0.0 mm/hr 0.00 in0.0 mm
01:26 AM 84.7°F29.3°C 69.4°F20.8°C 60% 13.4 mph N21.6 kmh N 16.3 mph26.2 kmh 29.05 in983.7 mb 0.00 in0.0 mm 0.00 in/hr0.0 mm/hr